Provisional Data: Mill Creek near Lancaster, PA


Please select a monitoring station.
Please select start date.
Please select start date.

Toggle Unit: C/F Toggle Unit: C/F
Sample Time Temperature (C) Temperature (F) Specific Conductivity (mS/cm) pH   Turbidity (NTU+) DO (mg/L)
6/29/2021 12:00:00 AM 25.42 77.756 0.92 8.25 4.22 5.99
6/29/2021 12:15:00 AM 25.38 77.684 0.92 8.25 2.84 5.97
6/29/2021 12:30:00 AM 25.33 77.594 0.919 8.24 4.12 5.94
6/29/2021 12:45:00 AM 25.28 77.504 0.919 8.24 2.73 5.94
6/29/2021 1:00:00 AM 25.23 77.414 0.919 8.24 4.33 5.9
6/29/2021 1:15:00 AM 25.18 77.324 0.919 8.23 4.79 5.91
6/29/2021 1:30:00 AM 25.13 77.234 0.919 8.22 3.28 5.94
6/29/2021 1:45:00 AM 25.07 77.126 0.918 8.22 2.76 5.93
6/29/2021 2:00:00 AM 25.02 77.036 0.918 8.22 3.21 5.93
6/29/2021 2:15:00 AM 24.96 76.92799 0.917 8.21 2.35 5.92
6/29/2021 2:30:00 AM 24.91 76.838 0.917 8.2 3.8 5.9
6/29/2021 2:45:00 AM 24.85 76.73 0.916 8.2 2.99 5.9
6/29/2021 3:00:00 AM 24.79 76.622 0.916 8.2 3.31 5.95
6/29/2021 3:15:00 AM 24.73 76.514 0.915 8.2 3.1 5.93
6/29/2021 3:30:00 AM 24.67 76.406 0.914 8.19 4.76 5.89
6/29/2021 3:45:00 AM 24.62 76.316 0.881 8.19 3.45 5.92
6/29/2021 4:00:00 AM 24.56 76.208 0.913 8.19 3.74 5.94
6/29/2021 4:15:00 AM 24.5 76.1 0.912 8.19 4.3 5.99
6/29/2021 4:30:00 AM 24.44 75.992 0.911 8.18 3.87 5.97
6/29/2021 4:45:00 AM 24.39 75.902 0.911 8.18 3.62 5.99
6/29/2021 5:00:00 AM 24.32 75.776 0.91 8.18 2.11 6.01
6/29/2021 5:15:00 AM 24.27 75.686 0.91 8.18 3.72 6.01
6/29/2021 5:30:00 AM 24.21 75.578 0.909 8.18 2.09 6.05
6/29/2021 5:45:00 AM 24.16 75.488 0.908 8.18 5.09 6.07
6/29/2021 6:00:00 AM 24.1 75.38 0.908 8.18 3.3 6.03
6/29/2021 6:15:00 AM 24.05 75.29 0.907 8.18 5.3 6.08
6/29/2021 6:30:00 AM 24 75.2 0.906 8.18 3.87 6.09
6/29/2021 6:45:00 AM 23.95 75.11 0.906 8.18 2.49 6.12
6/29/2021 7:00:00 AM 23.91 75.038 0.905 8.18 2.75 6.18
6/29/2021 7:15:00 AM 23.88 74.984 0.904 8.18 2.81 6.21
6/29/2021 7:30:00 AM 23.84 74.912 0.904 8.19 4.25 6.27
6/29/2021 7:45:00 AM 23.81 74.858 0.903 8.19 2.45 6.27
6/29/2021 8:00:00 AM 23.78 74.804 0.903 8.19 2.6 6.34
6/29/2021 8:15:00 AM 23.76 74.768 0.902 8.19 3.11 6.36
6/29/2021 8:30:00 AM 23.75 74.75 0.902 8.19 3.66 6.45
6/29/2021 8:45:00 AM 23.73 74.714 0.901 8.19 3.59 6.49
6/29/2021 9:00:00 AM 23.72 74.696 0.9 8.19 2.41 6.53
6/29/2021 9:15:00 AM 23.72 74.696 0.9 8.2 2.27 6.6
6/29/2021 9:30:00 AM 23.74 74.732 0.899 8.2 2.81 6.66
6/29/2021 9:45:00 AM 23.77 74.786 0.899 8.21 2.93 6.77
6/29/2021 10:00:00 AM 23.82 74.876 0.898 8.21 3.52 6.92
6/29/2021 10:15:00 AM 23.95 75.11 0.898 8.22 4.86 7.06
6/29/2021 10:30:00 AM 24.15 75.47 0.897 8.23 6.46 7.28
6/29/2021 10:45:00 AM 24.29 75.722 0.896 8.23 3.54 7.44
6/29/2021 11:00:00 AM 24.43 75.974 0.896 8.24 5.54 7.67
6/29/2021 11:15:00 AM 24.66 76.388 0.894 8.26 4.58 7.9
6/29/2021 11:30:00 AM 24.77 76.586 0.894 8.27 3.91 8.06
6/29/2021 11:45:00 AM 24.96 76.92799 0.894 8.28 2.99 8.22
6/29/2021 12:00:00 PM 25.16 77.288 0.893 8.28 3.94 8.42
6/29/2021 12:15:00 PM 25.37 77.666 0.892 8.29 3.31 8.64
6/29/2021 12:30:00 PM 25.46 77.828 0.892 8.3 3.75 8.66
6/29/2021 12:45:00 PM 25.56 78.008 0.891 8.31 5.1 8.71
6/29/2021 1:00:00 PM 25.77 78.386 0.89 8.32 2.72 8.83
6/29/2021 1:15:00 PM 25.99 78.782 0.889 8.33 3.01 9.07
6/29/2021 1:30:00 PM 26.13 79.034 0.889 8.34 3.83 9.08
6/29/2021 1:45:00 PM 26.27 79.286 0.888 8.34 5.36 9.16
6/29/2021 2:00:00 PM 26.43 79.574 0.887 8.35 2.92 9.17
6/29/2021 2:15:00 PM 26.57 79.826 0.887 8.35 4.33 9.19
6/29/2021 2:30:00 PM 26.7 80.06 0.886 8.36 4.28 9.21
6/29/2021 2:45:00 PM 26.82 80.276 0.886 8.36 456.8 9.23
6/29/2021 3:00:00 PM 26.92 80.456 0.885 8.37 444.7 9.16
6/29/2021 3:15:00 PM 26.97 80.546 0.885 8.37 441.8 9.07
6/29/2021 3:30:00 PM 27.07 80.726 0.884 8.37 453.8 8.96
6/29/2021 3:45:00 PM 27.13 80.834 0.884 8.37 451.7 8.93
6/29/2021 4:00:00 PM 27.16 80.888 0.884 8.37 450.8 8.87
6/29/2021 4:15:00 PM 27.19 80.942 0.883 8.37 451.9 8.74
6/29/2021 4:30:00 PM 27.21 80.978 0.883 8.37 453.2 8.59
6/29/2021 4:45:00 PM 27.2 80.96 0.883 8.37 450.8 8.48
6/29/2021 5:00:00 PM 27.16 80.888 0.883 8.37 450.8 8.32
6/29/2021 5:15:00 PM 27.13 80.834 0.883 8.36 452.8 8.17
6/29/2021 5:30:00 PM 27.1 80.78 0.883 8.36 454.3 7.98
6/29/2021 5:45:00 PM 27.06 80.708 0.883 8.35 455.6 7.85
6/29/2021 6:00:00 PM 27.02 80.636 0.883 8.34 454.9 7.67
6/29/2021 6:15:00 PM 26.97 80.546 0.883 8.33 462.5 7.47
6/29/2021 6:30:00 PM 26.94 80.492 0.884 8.32 466.5 7.24
6/29/2021 6:45:00 PM 26.91 80.438 0.804 8.31 468 7.15
6/29/2021 7:00:00 PM 26.89 80.402 0.875 8.31 470.1 6.98
6/29/2021 7:15:00 PM 26.88 80.384 0.877 8.31 471.8 6.89
6/29/2021 7:30:00 PM 26.87 80.366 0.877 8.3 474.2 6.8
6/29/2021 7:45:00 PM 26.87 80.366 0.883 8.29 473.7 6.71
6/29/2021 8:00:00 PM 26.87 80.366 0.807 8.29 476.1 6.59
6/29/2021 8:15:00 PM 26.87 80.366 0.884 8.29 478.8 6.5
6/29/2021 8:30:00 PM 26.87 80.366 0.882 8.28 479.3 6.43
6/29/2021 8:45:00 PM 26.86 80.348 0.881 8.28 482.7 6.28
6/29/2021 9:00:00 PM 26.85 80.33 0.881 8.28 486.2 6.22
6/29/2021 9:15:00 PM 26.83 80.294 0.881 8.28 485.8 6.16
6/29/2021 9:30:00 PM 26.81 80.258 0.88 8.27 486.3 6.1
6/29/2021 9:45:00 PM 26.79 80.222 0.88 8.27 489.9 6.03
6/29/2021 10:00:00 PM 26.76 80.168 0.879 8.26 493 5.97
6/29/2021 10:15:00 PM 26.72 80.096 0.879 8.26 495.4 5.93
6/29/2021 10:30:00 PM 26.69 80.042 0.879 8.25 497.1 5.88
6/29/2021 10:45:00 PM 26.65 79.97 0.879 8.25 499.7 5.85
6/29/2021 11:00:00 PM 26.61 79.898 0.878 8.24 499.3 5.78
6/29/2021 11:15:00 PM 26.56 79.808 0.876 8.23 507.5 5.77
6/29/2021 11:30:00 PM 26.51 79.718 0.877 8.23 496.2 5.68
6/29/2021 11:45:00 PM 26.46 79.628 0.877 8.22 497.8 5.68
6/30/2021 12:00:00 AM 26.41 79.538 0.876 8.22 499.4 5.67
6/30/2021 12:15:00 AM 26.36 79.448 0.876 8.21 498.8 5.66
6/30/2021 12:30:00 AM 26.31 79.358 0.875 8.2 512 5.63
6/30/2021 12:45:00 AM 26.25 79.25 0.873 8.2 497.8 5.58
6/30/2021 1:00:00 AM 26.2 79.16 0.874 8.2 503.5 5.61
6/30/2021 1:15:00 AM 26.14 79.052 0.873 8.2 498 5.61
6/30/2021 1:30:00 AM 26.08 78.944 0.872 8.19 500.7 5.61
6/30/2021 1:45:00 AM 26.02 78.836 0.871 8.19 503.5 5.58
6/30/2021 2:00:00 AM 25.95 78.71 0.87 8.19 507.1 5.57
6/30/2021 2:15:00 AM 25.9 78.62 0.869 8.18 509 5.6
6/30/2021 2:30:00 AM 25.83 78.494 0.87 8.18 514.7 5.58
6/30/2021 2:45:00 AM 25.76 78.368 0.868 8.18 517.4 5.59
6/30/2021 3:00:00 AM 25.7 78.26 0.867 8.18 512.6 5.58
6/30/2021 3:15:00 AM 25.63 78.134 0.866 8.18 513.8 5.59
6/30/2021 3:30:00 AM 25.56 78.008 0.865 8.17 514.7 5.61
6/30/2021 3:45:00 AM 25.49 77.882 0.864 8.17 515.9 5.62
6/30/2021 4:00:00 AM 25.41 77.738 0.863 8.17 535.8 5.6
6/30/2021 4:15:00 AM 25.35 77.63 0.861 8.17 490.1 5.64
6/30/2021 4:30:00 AM 25.29 77.522 0.861 8.17 489.6 5.64
6/30/2021 4:45:00 AM 25.21 77.378 0.86 8.17 450.8 5.64
6/30/2021 5:00:00 AM 25.14 77.252 0.858 8.16 455.2 5.68
6/30/2021 5:15:00 AM 25.07 77.126 0.858 8.17 455.6 5.7
6/30/2021 5:30:00 AM 24.99 76.982 0.857 8.17 455.3 5.7
6/30/2021 5:45:00 AM 24.93 76.874 0.856 8.16 455.4 5.68
6/30/2021 6:00:00 AM 24.86 76.748 0.855 8.16 461.4 5.75
6/30/2021 6:15:00 AM 24.79 76.622 0.854 8.16 465.2 5.75
6/30/2021 6:30:00 AM 24.73 76.514 0.853 8.16 464.4 5.78
6/30/2021 6:45:00 AM 24.67 76.406 0.852 8.16 462.8 5.81
6/30/2021 7:00:00 AM 24.62 76.316 0.851 8.17 466.9 5.86
6/30/2021 7:15:00 AM 24.57 76.226 0.851 8.17 474.1 5.89
6/30/2021 7:30:00 AM 24.53 76.154 0.85 8.17 471.6 5.92
6/30/2021 7:45:00 AM 24.49 76.082 0.849 8.17 469.6 5.99
6/30/2021 8:00:00 AM 24.46 76.028 0.848 8.18 473.4 6.04
6/30/2021 8:15:00 AM 24.42 75.956 0.848 8.18 474.5 6.05
6/30/2021 8:30:00 AM 24.4 75.92 0.847 8.19 481.1 6.1
6/30/2021 8:45:00 AM 24.38 75.884 0.847 8.19 491.1 6.14
6/30/2021 9:00:00 AM 24.39 75.902 0.847 8.19 492.8 6.28
6/30/2021 9:15:00 AM 24.41 75.938 0.846 8.19 490.6 6.36
6/30/2021 9:30:00 AM 24.42 75.956 0.846 8.2 495.9 6.49
6/30/2021 9:45:00 AM 24.43 75.974 0.846 8.21 497.8 6.57
6/30/2021 10:00:00 AM 24.48 76.064 0.845 8.21 497.4 6.67
6/30/2021 10:15:00 AM 24.57 76.226 0.845 8.21 501.2 6.78
6/30/2021 10:30:00 AM 24.78 76.604 0.845 8.22 495.2 7
6/30/2021 10:45:00 AM 24.9 76.82 0.844 8.22 498.6 7.23
6/30/2021 11:00:00 AM 25.05 77.09 0.843 8.23 497.2 7.42
6/30/2021 11:15:00 AM 25.25 77.45 0.843 8.25 492.7 7.59
6/30/2021 11:30:00 AM 25.37 77.666 0.843 8.25 500.3 7.73
6/30/2021 11:45:00 AM 25.55 77.99 0.842 8.26 497.2 7.92
6/30/2021 12:00:00 PM 25.76 78.368 0.842 8.27 499.6 8.09
6/30/2021 12:15:00 PM 25.96 78.728 0.841 8.27 505.7 8.21
6/30/2021 12:30:00 PM 26.1 78.98 0.841 8.28 511.7 8.34
6/30/2021 12:45:00 PM 26.29 79.32201 0.84 8.29 504.2 8.46
6/30/2021 1:00:00 PM 26.46 79.628 0.84 8.29 509.7 8.57
6/30/2021 1:15:00 PM 26.63 79.934 0.839 8.3 510.3 8.65
6/30/2021 1:30:00 PM 26.77 80.186 0.839 8.31 510.6 8.72
6/30/2021 1:45:00 PM 26.92 80.456 0.838 8.32 518.8 8.75
6/30/2021 2:00:00 PM 27.11 80.798 0.837 8.33 513.4 8.81
6/30/2021 2:15:00 PM 27.25 81.05 0.837 8.33 515 8.83
6/30/2021 2:30:00 PM 27.35 81.23 0.836 8.34 510.8 8.84
6/30/2021 2:45:00 PM 27.49 81.482 0.835 8.35 511.3 8.8
6/30/2021 3:00:00 PM 27.6 81.68 0.835 8.35 517.1 8.81
6/30/2021 3:15:00 PM 27.66 81.788 0.834 8.35 511.7 8.78
6/30/2021 3:30:00 PM 27.72 81.896 0.834 8.36 513.1 8.75
6/30/2021 3:45:00 PM 27.72 81.896 0.833 8.35 517.1 8.59
6/30/2021 4:00:00 PM 27.69 81.842 0.833 8.35 517.5 8.42
6/30/2021 4:15:00 PM 27.76 81.968 0.833 8.35 522.9 8.32
6/30/2021 4:30:00 PM 27.78 82.004 0.832 8.35 520.6 8.29
6/30/2021 4:45:00 PM 27.77 81.986 0.832 8.34 526.7 8.11
6/30/2021 5:00:00 PM 27.72 81.896 0.832 8.34 529.2 7.97
6/30/2021 5:15:00 PM 27.68 81.824 0.832 8.33 530.1 7.83
6/30/2021 5:30:00 PM 27.63 81.734 0.832 8.33 529.7 7.69
6/30/2021 5:45:00 PM 27.59 81.662 0.831 8.33 530.5 7.54
6/30/2021 6:00:00 PM 27.55 81.59 0.831 8.33 534.2 7.41
6/30/2021 6:15:00 PM 27.48 81.464 0.831 8.32 537.1 7.24
6/30/2021 6:30:00 PM 27.43 81.374 0.832 8.31 539 7.03
6/30/2021 6:45:00 PM 27.38 81.284 0.832 8.3 539.5 6.86
6/30/2021 7:00:00 PM 27.35 81.23 0.832 8.3 552 6.81
6/30/2021 7:15:00 PM 27.33 81.194 0.832 8.29 553.1 6.65
6/30/2021 7:30:00 PM 27.3 81.14 0.828 8.29 553.2 6.52
6/30/2021 7:45:00 PM 27.28 81.104 0.832 8.29 556.2 6.4
6/30/2021 8:00:00 PM 27.22 80.996 0.796 8.28 560.3 6.3
6/30/2021 8:15:00 PM 27.18 80.924 0.832 8.28 560.3 6.25
6/30/2021 8:30:00 PM 27.15 80.87 0.832 8.27 563.6 6.15
6/30/2021 8:45:00 PM 27.12 80.816 0.833 8.27 565.2 6.08
6/30/2021 9:00:00 PM 27.09 80.762 0.833 8.27 566.3 6.05
6/30/2021 9:15:00 PM 27.05 80.69 0.834 8.26 568.2 5.93
6/30/2021 9:30:00 PM 27.01 80.618 0.834 8.26 568.2 5.86
6/30/2021 9:45:00 PM 26.97 80.546 0.834 8.26 567.5 5.78
6/30/2021 10:00:00 PM 26.92 80.456 0.835 8.25 587.5 5.74
6/30/2021 10:15:00 PM 26.88 80.384 0.835 8.24 589.7 5.72
6/30/2021 10:30:00 PM 26.82 80.276 0.835 8.24 579 5.67
6/30/2021 10:45:00 PM 26.76 80.168 0.836 8.23 565.9 5.63
6/30/2021 11:00:00 PM 26.7 80.06 0.836 8.23 563.4 5.61
6/30/2021 11:15:00 PM 26.64 79.952 0.837 8.23 516.7 5.6
6/30/2021 11:30:00 PM 26.58 79.844 0.837 8.22 522.9 5.53
6/30/2021 11:45:00 PM 26.52 79.736 0.838 8.21 525.9 5.53
7/1/2021 12:00:00 AM 26.44 79.592 0.838 8.21 537.7 5.52
7/1/2021 12:15:00 AM 26.37 79.466 0.839 8.2 539.7 5.46
7/1/2021 12:30:00 AM 26.31 79.358 0.839 8.2 542.1 5.48
7/1/2021 12:45:00 AM 26.24 79.232 0.839 8.2 543.5 5.5
7/1/2021 1:00:00 AM 26.17 79.106 0.84 8.2 537.7 5.46
7/1/2021 1:15:00 AM 26.09 78.962 0.84 8.2 535.9 5.43
7/1/2021 1:30:00 AM 26.02 78.836 0.84 8.2 544 5.43
7/1/2021 1:45:00 AM 25.95 78.71 0.84 8.19 545.6 5.43
7/1/2021 2:00:00 AM 25.88 78.584 0.841 8.19 555.9 5.48
7/1/2021 2:15:00 AM 25.79 78.422 0.84 8.19 556.2 5.45
7/1/2021 2:30:00 AM 25.72 78.296 0.84 8.19 558 5.47
7/1/2021 2:45:00 AM 25.64 78.152 0.841 8.19 570.7 5.46
7/1/2021 3:00:00 AM 25.56 78.008 0.84 8.19 567.6 5.51
7/1/2021 3:15:00 AM 25.49 77.882 0.84 8.19 572.6 5.5
7/1/2021 3:30:00 AM 25.42 77.756 0.84 8.18 568.9 5.51
7/1/2021 3:45:00 AM 25.33 77.594 0.84 8.18 549.7 5.51
7/1/2021 4:00:00 AM 25.26 77.468 0.839 8.18 372.1 5.55
7/1/2021 4:15:00 AM 25.18 77.324 0.839 8.18 373.3 5.59
7/1/2021 4:30:00 AM 25.12 77.216 0.839 8.18 376.9 5.6
7/1/2021 4:45:00 AM 25.04 77.07201 0.839 8.18 376.9 5.54
7/1/2021 5:00:00 AM 24.96 76.92799 0.839 8.18 381.5 5.58
7/1/2021 5:15:00 AM 24.88 76.784 0.839 8.18 385.8 5.59
7/1/2021 5:30:00 AM 24.8 76.64 0.838 8.18 387.8 5.63
7/1/2021 5:45:00 AM 24.73 76.514 0.838 8.18 388.6 5.62
7/1/2021 6:00:00 AM 24.66 76.388 0.837 8.18 390 5.66
7/1/2021 6:15:00 AM 24.6 76.28 0.837 8.18 389.4 5.7
7/1/2021 6:30:00 AM 24.54 76.172 0.837 8.18 389.8 5.72
7/1/2021 6:45:00 AM 24.49 76.082 0.837 8.18 388.4 5.76
7/1/2021 7:00:00 AM 24.43 75.974 0.836 8.19 389.9 5.82
7/1/2021 7:15:00 AM 24.39 75.902 0.836 8.19 390.9 5.86
7/1/2021 7:30:00 AM 24.35 75.83 0.835 8.19 398.9 5.88
7/1/2021 7:45:00 AM 24.32 75.776 0.835 8.2 396.7 5.98
7/1/2021 8:00:00 AM 24.27 75.686 0.836 8.2 398.7 5.99
7/1/2021 8:15:00 AM 24.25 75.65 0.836 8.2 405.5 6.05
7/1/2021 8:30:00 AM 24.23 75.614 0.836 8.2 398.9 6.06
7/1/2021 8:45:00 AM 24.25 75.65 0.836 8.21 396.3 6.18
7/1/2021 9:00:00 AM 24.26 75.668 0.836 8.22 390.6 6.33
7/1/2021 9:15:00 AM 24.26 75.668 0.836 8.22 386.2 6.45
7/1/2021 9:30:00 AM 24.25 75.65 0.836 8.23 387 6.53
7/1/2021 9:45:00 AM 24.23 75.614 0.836 8.23 386.4 6.49
7/1/2021 10:00:00 AM 24.22 75.596 0.837 8.23 385.3 6.52
7/1/2021 10:15:00 AM 24.19 75.542 0.837 8.23 394.5 6.61
7/1/2021 10:30:00 AM 24.13 75.434 0.835 8.23 394.4 6.58
7/1/2021 10:45:00 AM 24.08 75.344 0.833 8.23 396.1 6.55
7/1/2021 11:00:00 AM 24.07 75.326 0.832 8.23 399.7 6.56
7/1/2021 11:15:00 AM 24.14 75.452 0.833 8.23 398 6.75
7/1/2021 11:30:00 AM 24.25 75.65 0.834 8.24 399.6 7
7/1/2021 11:45:00 AM 24.43 75.974 0.834 8.26 404.3 7.34
7/1/2021 12:00:00 PM 24.5 76.1 0.835 8.27 403.2 7.5
7/1/2021 12:15:00 PM 24.52 76.136 0.835 8.28 408.3 7.54
7/1/2021 12:30:00 PM 24.57 76.226 0.836 8.28 410.5 7.59
7/1/2021 12:45:00 PM 24.64 76.352 0.836 8.29 412.7 7.75
7/1/2021 1:00:00 PM 24.69 76.442 0.837 8.3 413.3 7.84
7/1/2021 1:15:00 PM 24.67 76.406 0.837 8.3 414 7.88
7/1/2021 1:30:00 PM 24.69 76.442 0.838 8.31 413.9 7.86
7/1/2021 1:45:00 PM 24.77 76.586 0.838 8.32 416.1 7.98
7/1/2021 2:00:00 PM 24.85 76.73 0.839 8.33 425.6 8.17
7/1/2021 2:15:00 PM 24.96 76.92799 0.84 8.34 419.1 8.26
7/1/2021 2:30:00 PM 24.93 76.874 0.839 8.34 420.6 8.27
7/1/2021 2:45:00 PM 24.82 76.676 0.836 8.34 423.2 8.04
7/1/2021 3:00:00 PM 24.75 76.55 0.836 8.34 423.8 7.8
7/1/2021 3:15:00 PM 24.76 76.568 0.838 8.33 425.8 7.76
7/1/2021 3:30:00 PM 24.76 76.568 0.84 8.34 423.4 7.85
7/1/2021 3:45:00 PM 24.74 76.532 0.841 8.34 423.7 7.85
7/1/2021 4:00:00 PM 24.73 76.514 0.843 8.34 415.4 7.78
7/1/2021 4:15:00 PM 24.75 76.55 0.844 8.34 416.6 7.82
7/1/2021 4:30:00 PM 24.75 76.55 0.845 8.35 416.3 7.77
7/1/2021 4:45:00 PM 24.73 76.514 0.846 8.34 417.4 7.65
7/1/2021 5:00:00 PM 24.71 76.478 0.847 8.34 424.2 7.52
7/1/2021 5:15:00 PM 24.7 76.46 0.848 8.34 427.5 7.47
7/1/2021 5:30:00 PM 24.71 76.478 0.849 8.33 432.3 7.44
7/1/2021 5:45:00 PM 24.72 76.496 0.849 8.33 430.4 7.54
7/1/2021 6:00:00 PM 24.72 76.496 0.85 8.34 436.9 7.54
7/1/2021 6:15:00 PM 24.7 76.46 0.851 8.33 428.9 7.46
7/1/2021 6:30:00 PM 24.67 76.406 0.853 8.33 428.3 7.32
7/1/2021 6:45:00 PM 24.63 76.334 0.854 8.32 431.5 7.13
7/1/2021 7:00:00 PM 24.61 76.298 0.856 8.31 428.8 6.9
7/1/2021 7:15:00 PM 24.59 76.262 0.857 8.3 429.4 6.84
7/1/2021 7:30:00 PM 24.58 76.244 0.859 8.3 428.6 6.75
7/1/2021 7:45:00 PM 24.58 76.244 0.861 8.29 428.4 6.72
7/1/2021 8:00:00 PM 24.57 76.226 0.863 8.28 435.4 6.67
7/1/2021 8:15:00 PM 24.55 76.19 0.861 8.28 432.3 6.63
7/1/2021 8:30:00 PM 24.54 76.172 0.862 8.28 434.4 6.58
7/1/2021 8:45:00 PM 24.53 76.154 0.864 8.27 436.3 6.49
7/1/2021 9:00:00 PM 24.51 76.118 0.867 8.26 437.4 6.39
7/1/2021 9:15:00 PM 24.49 76.082 0.867 8.25 437.2 6.32
7/1/2021 9:30:00 PM 24.47 76.046 0.868 8.24 441.6 6.3
7/1/2021 9:45:00 PM 24.45 76.01 0.869 8.24 446.7 6.21
7/1/2021 10:00:00 PM 24.44 75.992 0.871 8.23 463 6.16
7/1/2021 10:15:00 PM 24.42 75.956 0.873 8.22 460 6.12
7/1/2021 10:30:00 PM 24.39 75.902 0.874 8.22 463.6 6.04
7/1/2021 10:45:00 PM 24.36 75.848 0.876 8.22 467.9 6.05
7/1/2021 11:00:00 PM 24.31 75.758 0.878 8.21 476.9 6.04
7/1/2021 11:15:00 PM 24.27 75.686 0.879 8.21 481 5.99
7/1/2021 11:30:00 PM 24.22 75.596 0.881 8.21 498.8 5.96
7/1/2021 11:45:00 PM 24.18 75.524 0.882 8.2 502.6 5.96
7/2/2021 12:00:00 AM 24.14 75.452 0.883 8.21 503.4 5.97
7/2/2021 12:15:00 AM 24.1 75.38 0.884 8.2 496.8 5.95
7/2/2021 12:30:00 AM 24.06 75.308 0.885 8.2 496.6 5.95
7/2/2021 12:45:00 AM 24.01 75.218 0.886 8.2 500.2 5.95
7/2/2021 1:00:00 AM 23.96 75.128 0.887 8.19 508.1 5.95
7/2/2021 1:15:00 AM 23.91 75.038 0.888 8.19 509.2 5.97
7/2/2021 1:30:00 AM 23.86 74.948 0.888 8.19 526.1 5.98
7/2/2021 1:45:00 AM 23.82 74.876 0.887 8.19 528 6.01
7/2/2021 2:00:00 AM 23.77 74.786 0.883 8.18 561.5 6.05
7/2/2021 2:15:00 AM 23.72 74.696 0.885 8.18 567.5 6.06
7/2/2021 2:30:00 AM 23.67 74.606 0.882 8.19 625.8 6.07
7/2/2021 2:45:00 AM 23.62 74.516 0.88 8.19 641.1 6.06
7/2/2021 3:00:00 AM 23.57 74.426 0.877 8.19 540.5 6.12
7/2/2021 3:15:00 AM 23.52 74.336 0.874 8.19 565 6.11
7/2/2021 3:30:00 AM 23.48 74.264 0.872 8.18 566.2 6.13
7/2/2021 3:45:00 AM 23.44 74.192 0.871 8.18 608.2 6.15
7/2/2021 4:00:00 AM 23.4 74.12 0.871 8.18 605.8 6.16
7/2/2021 4:15:00 AM 23.35 74.03 0.87 8.17 660.5 6.16
7/2/2021 4:30:00 AM 23.3 73.94 0.869 8.17 676.9 6.21
7/2/2021 4:45:00 AM 23.24 73.832 0.868 8.17 713 6.22
7/2/2021 5:00:00 AM 23.18 73.724 0.869 8.17 736.1 6.23
7/2/2021 5:15:00 AM 23.12 73.616 0.868 8.16 767.2 6.23
7/2/2021 5:30:00 AM 23.07 73.526 0.868 8.16 811 6.26
7/2/2021 5:45:00 AM 23.02 73.436 0.868 8.15 833.1 6.26
7/2/2021 6:00:00 AM 22.97 73.346 0.868 8.15 869.2 6.26
7/2/2021 6:15:00 AM 22.93 73.274 0.867 8.15 887.6 6.27
7/2/2021 6:30:00 AM 22.89 73.202 0.867 8.15 924.5 6.28
7/2/2021 6:45:00 AM 22.86 73.148 0.867 8.14 979.6 6.3
7/2/2021 7:00:00 AM 22.82 73.076 0.866 8.14 992.1 6.32
7/2/2021 7:15:00 AM 22.8 73.04 0.866 8.14 1032 6.32
7/2/2021 7:30:00 AM 22.77 72.986 0.865 8.14 1062 6.37
7/2/2021 7:45:00 AM 22.75 72.95 0.864 8.13 1101 6.38
7/2/2021 8:00:00 AM 22.74 72.932 0.863 8.14 1100 6.42
7/2/2021 8:15:00 AM 22.72 72.896 0.863 8.14 1094 6.43
7/2/2021 8:30:00 AM 22.71 72.878 0.863 8.14 1101 6.45
7/2/2021 8:45:00 AM 22.7 72.86 0.864 8.15 1113 6.5
7/2/2021 9:00:00 AM 22.7 72.86 0.864 8.15 1133 6.51
7/2/2021 9:15:00 AM 22.71 72.878 0.866 8.15 1146 6.57
7/2/2021 9:30:00 AM 22.72 72.896 0.867 8.16 1154 6.66
7/2/2021 9:45:00 AM 22.74 72.932 0.868 8.16 1183 6.71
7/2/2021 10:00:00 AM 22.76 72.968 0.869 8.17 1179 6.81
7/2/2021 10:15:00 AM 22.79 73.022 0.869 8.18 1203 6.9
7/2/2021 10:30:00 AM 22.8 73.04 0.87 8.18 1213 6.94
7/2/2021 10:45:00 AM 22.83 73.094 0.869 8.19 1232 6.96
7/2/2021 11:00:00 AM 22.85 73.13 0.867 8.19 1243 7.02
7/2/2021 11:15:00 AM 22.87 73.166 0.865 8.2 1259 7.08
7/2/2021 11:30:00 AM 22.93 73.274 0.864 8.2 1249 7.17
7/2/2021 11:45:00 AM 22.97 73.346 0.86 8.21 1243 7.29
7/2/2021 12:00:00 PM 23.02 73.436 0.858 8.22 1226 7.39
7/2/2021 12:15:00 PM 23.07 73.526 0.856 8.22 902.5 7.48
7/2/2021 12:30:00 PM 23.12 73.616 0.855 8.23 889.3 7.56
7/2/2021 12:45:00 PM 23.22 73.796 0.853 8.24 901.4 7.69
7/2/2021 1:00:00 PM 23.27 73.886 0.853 8.25 915 7.82
7/2/2021 1:15:00 PM 23.36 74.048 0.853 8.25 912.6 7.93
7/2/2021 1:30:00 PM 23.49 74.282 0.853 8.26 917.1 8.06
7/2/2021 1:45:00 PM 23.56 74.408 0.853 8.27 916.2 8.15
7/2/2021 2:00:00 PM 23.64 74.552 0.854 8.28 926.7 8.24
7/2/2021 2:15:00 PM 23.75 74.75 0.855 8.29 895.4 8.35
7/2/2021 2:30:00 PM 23.81 74.858 0.857 8.3 975.6 8.4
7/2/2021 2:45:00 PM 23.79 74.82201 0.857 8.3 883.2 8.36
7/2/2021 3:00:00 PM 23.75 74.75 0.859 8.31 914 8.33
7/2/2021 3:15:00 PM 23.73 74.714 0.86 8.32 893.3 8.27
7/2/2021 3:30:00 PM 23.72 74.696 0.862 8.32 923.6 8.27
7/2/2021 3:45:00 PM 23.76 74.768 0.863 8.33 929.3 8.3
7/2/2021 4:00:00 PM 23.87 74.966 0.864 8.33 932.1 8.32
7/2/2021 4:15:00 PM 23.9 75.02 0.865 8.34 910.3 8.38
7/2/2021 4:30:00 PM 23.82 74.876 0.866 8.34 964.4 8.25
7/2/2021 4:45:00 PM 23.77 74.786 0.865 8.34 875.5 8.13
7/2/2021 5:00:00 PM 23.79 74.82201 0.868 8.34 856.3 8.14
7/2/2021 5:15:00 PM 23.73 74.714 0.869 8.34 861.6 8.06
7/2/2021 5:30:00 PM 23.7 74.66 0.87 8.35 864.6 8
7/2/2021 5:45:00 PM 23.69 74.642 0.871 8.35 872 7.96
7/2/2021 6:00:00 PM 23.67 74.606 0.871 8.35 868.5 7.91
7/2/2021 6:15:00 PM 23.62 74.516 0.872 8.35 882.3 7.76
7/2/2021 6:30:00 PM 23.56 74.408 0.873 8.34 882.3 7.74
7/2/2021 6:45:00 PM 23.51 74.318 0.874 8.34 884.1 7.59
7/2/2021 7:00:00 PM 23.45 74.21 0.875 8.34 885.6 7.49
7/2/2021 7:15:00 PM 23.41 74.138 0.876 8.34 889.2 7.4
7/2/2021 7:30:00 PM 23.36 74.048 0.875 8.33 890.6 7.32
7/2/2021 7:45:00 PM 23.32 73.976 0.876 8.33 899.3 7.27
7/2/2021 8:00:00 PM 23.28 73.904 0.876 8.32 904.6 7.19
7/2/2021 8:15:00 PM 23.23 73.814 0.876 8.32 908.1 7.12
7/2/2021 8:30:00 PM 23.17 73.706 0.876 8.32 914.5 7.07
7/2/2021 8:45:00 PM 23.11 73.598 0.876 8.31 923.8 6.96
7/2/2021 9:00:00 PM 23.04 73.472 0.876 8.3 925 6.95
7/2/2021 9:15:00 PM 22.98 73.364 0.875 8.28 932 6.88
7/2/2021 9:30:00 PM 22.92 73.256 0.875 8.27 959.3 6.83
7/2/2021 9:45:00 PM 22.85 73.13 0.874 8.28 906.3 6.81
7/2/2021 10:00:00 PM 22.79 73.022 0.873 8.28 901.6 6.73
7/2/2021 10:15:00 PM 22.73 72.914 0.872 8.27 917.1 6.68
7/2/2021 10:30:00 PM 22.67 72.806 0.872 8.26 919.7 6.7
7/2/2021 10:45:00 PM 22.61 72.698 0.869 8.25 921 6.65
7/2/2021 11:00:00 PM 22.54 72.57201 0.869 8.24 926.1 6.62
7/2/2021 11:15:00 PM 22.47 72.446 0.868 8.23 925.4 6.57
7/2/2021 11:30:00 PM 22.4 72.32 0.866 8.21 928.4 6.49
7/2/2021 11:45:00 PM 22.33 72.194 0.864 8.21 929.4 6.5
7/3/2021 12:00:00 AM 22.26 72.068 0.862 8.21 935.8 6.43
7/3/2021 12:15:00 AM 22.19 71.942 0.86 8.19 936.1 6.41
7/3/2021 12:30:00 AM 22.12 71.816 0.859 8.18 941.6 6.42
7/3/2021 12:45:00 AM 22.05 71.69 0.856 8.16 947.8 6.39
7/3/2021 1:00:00 AM 21.98 71.564 0.854 8.15 950 6.42
7/3/2021 1:15:00 AM 21.91 71.438 0.851 8.14 958.9 6.4
7/3/2021 1:30:00 AM 21.85 71.33 0.848 8.13 952.2 6.4
7/3/2021 1:45:00 AM 21.77 71.186 0.844 8.12 959.6 6.39
7/3/2021 2:00:00 AM 21.71 71.078 0.841 8.12 964.4 6.36
7/3/2021 2:15:00 AM 21.64 70.952 0.839 8.11 967.1 6.37
7/3/2021 2:30:00 AM 21.57 70.826 0.834 8.11 968.7 6.33
7/3/2021 2:45:00 AM 21.5 70.7 0.829 8.11 971.6 6.34
7/3/2021 3:00:00 AM 21.45 70.61 0.825 8.1 977.5 6.35
7/3/2021 3:15:00 AM 21.38 70.484 0.821 8.1 981.4 6.35
7/3/2021 3:30:00 AM 21.32 70.376 0.817 8.1 990 6.37
7/3/2021 3:45:00 AM 21.25 70.25 0.813 8.1 1000 6.32
7/3/2021 4:00:00 AM 21.19 70.142 0.809 8.1 1017 6.34
7/3/2021 4:15:00 AM 21.13 70.034 0.805 8.09 1016 6.34
7/3/2021 4:30:00 AM 21.08 69.944 0.803 8.09 1015 6.35
7/3/2021 4:45:00 AM 21.05 69.89 0.799 8.1 1005 6.36
7/3/2021 5:00:00 AM 21.01 69.818 0.797 8.1 1008 6.36
7/3/2021 5:15:00 AM 20.97 69.746 0.794 8.11 1016 6.35
7/3/2021 5:30:00 AM 20.92 69.656 0.792 8.11 1019 6.38
7/3/2021 5:45:00 AM 20.88 69.584 0.79 8.11 1024 6.38
7/3/2021 6:00:00 AM 20.84 69.512 0.788 8.12 1022 6.37
7/3/2021 6:15:00 AM 20.79 69.422 0.787 8.13 1032 6.4
7/3/2021 6:30:00 AM 20.75 69.35 0.786 8.15 1037 6.37
7/3/2021 6:45:00 AM 20.72 69.296 0.786 8.16 1041 6.44
7/3/2021 7:00:00 AM 20.69 69.242 0.786 8.19 1042 6.48
7/3/2021 7:15:00 AM 20.65 69.17 0.787 8.21 1044 6.5
7/3/2021 7:30:00 AM 20.62 69.116 0.787 8.24 1048 6.57
7/3/2021 7:45:00 AM 20.6 69.08 0.788 8.25 1051 6.63
7/3/2021 8:00:00 AM 20.61 69.098 0.79 8.29 1060 6.65
7/3/2021 8:15:00 AM 20.61 69.098 0.792 8.33 1064 6.81
7/3/2021 8:30:00 AM 20.59 69.062 0.794 8.37 1063 6.89
7/3/2021 8:45:00 AM 20.57 69.026 0.796 8.4 1068 6.95
7/3/2021 9:00:00 AM 20.56 69.008 0.799 8.42 1065 6.99
7/3/2021 9:15:00 AM 20.56 69.008 0.802 8.43 1066 7.01
7/3/2021 9:30:00 AM 20.57 69.026 0.804 8.41 1067 7.03
7/3/2021 9:45:00 AM 20.56 69.008 0.808 8.4 1077 7.07
7/3/2021 10:00:00 AM 20.61 69.098 0.811 8.4 1081 7.17
7/3/2021 10:15:00 AM 20.67 69.206 0.814 8.4 1089 7.35
7/3/2021 10:30:00 AM 20.83 69.494 0.816 8.4 1089 7.54
7/3/2021 10:45:00 AM 20.86 69.548 0.82 8.44 1088 7.65
7/3/2021 11:00:00 AM 20.91 69.638 0.823 8.44 1092 7.76
7/3/2021 11:15:00 AM 20.98 69.764 0.826 8.43 1088 7.77
7/3/2021 11:30:00 AM 21.13 70.034 0.829 8.41 1086 7.85
7/3/2021 11:45:00 AM 21.2 70.16 0.832 8.4 1087 8.03
7/3/2021 12:00:00 PM 21.28 70.304 0.834 8.38 1080 8.1
7/3/2021 12:15:00 PM 21.23 70.214 0.836 8.38 1078 8.11
7/3/2021 12:30:00 PM 21.19 70.142 0.839 8.37 1075 8.08
7/3/2021 12:45:00 PM 21.21 70.17799 0.84 8.37 1073 8.18
7/3/2021 1:00:00 PM 21.37 70.466 0.842 8.37 1068 8.35
7/3/2021 1:15:00 PM 21.6 70.88 0.843 8.37 1065 8.52
7/3/2021 1:30:00 PM 21.7 71.06 0.844 8.37 1075 8.67
7/3/2021 1:45:00 PM 21.88 71.384 0.845 8.38 1072 8.69
7/3/2021 2:00:00 PM 21.8 71.24 0.845 8.38 1074 8.65
7/3/2021 2:15:00 PM 21.61 70.898 0.837 8.39 1083 8.45
7/3/2021 2:30:00 PM 21.75 71.15 0.837 8.38 1079 8.41
7/3/2021 2:45:00 PM 21.83 71.294 0.84 8.37 1073 8.47
7/3/2021 3:00:00 PM 21.84 71.312 0.841 8.37 1070 8.48
7/3/2021 3:15:00 PM 21.8 71.24 0.84 8.38 1073 8.42
7/3/2021 3:30:00 PM 21.87 71.366 0.839 8.38 1074 8.4
7/3/2021 3:45:00 PM 21.83 71.294 0.837 8.38 1071 8.39
7/3/2021 4:00:00 PM 21.91 71.438 0.835 8.38 1083 8.32
7/3/2021 4:15:00 PM 21.93 71.474 0.834 8.38 1077 8.36
7/3/2021 4:30:00 PM 21.97 71.546 0.833 8.38 1076 8.37
7/3/2021 4:45:00 PM 22.01 71.618 0.832 8.39 1085 8.37
7/3/2021 5:00:00 PM 22.05 71.69 0.83 8.4 1074 8.4
7/3/2021 5:15:00 PM 22.02 71.636 0.829 8.4 1072 8.4
7/3/2021 5:30:00 PM 22.03 71.654 0.828 8.4 1073 8.26
7/3/2021 5:45:00 PM 22.01 71.618 0.827 8.39 1075 8.19
7/3/2021 6:00:00 PM 21.95 71.51 0.824 8.39 1062 8.05
7/3/2021 6:15:00 PM 21.9 71.42 0.818 8.39 1048 7.95
7/3/2021 6:30:00 PM 21.9 71.42 0.817 8.39 1071 7.88
7/3/2021 6:45:00 PM 21.91 71.438 0.817 8.38 1070 7.86
7/3/2021 7:00:00 PM 21.93 71.474 0.817 8.37 1082 7.83
7/3/2021 7:15:00 PM 21.93 71.474 0.815 8.37 1081 7.76
7/3/2021 7:30:00 PM 21.93 71.474 0.814 8.37 1085 7.68
7/3/2021 7:45:00 PM 21.92 71.456 0.812 8.36 1091 7.59
7/3/2021 8:00:00 PM 21.89 71.402 0.811 8.36 1088 7.47
7/3/2021 8:15:00 PM 21.86 71.348 0.81 8.36 1091 7.37
7/3/2021 8:30:00 PM 21.82 71.276 0.809 8.35 1089 7.29
7/3/2021 8:45:00 PM 21.79 71.222 0.808 8.35 1086 7.24
7/3/2021 9:00:00 PM 21.75 71.15 0.808 8.34 1097 7.15
7/3/2021 9:15:00 PM 21.71 71.078 0.807 8.33 1096 7.09
7/3/2021 9:30:00 PM 21.66 70.988 0.806 8.32 1091 7.04
7/3/2021 9:45:00 PM 21.62 70.916 0.806 8.3 1096 6.99
7/3/2021 10:00:00 PM 21.59 70.862 0.807 8.3 1101 6.94
7/3/2021 10:15:00 PM 21.54 70.772 0.807 8.29 1100 6.92
7/3/2021 10:30:00 PM 21.5 70.7 0.807 8.28 1102 6.84
7/3/2021 10:45:00 PM 21.47 70.646 0.808 8.28 1109 6.79
7/3/2021 11:00:00 PM 21.44 70.592 0.808 8.27 1115 6.74
7/3/2021 11:15:00 PM 21.4 70.52 0.809 8.25 1117 6.72
7/3/2021 11:30:00 PM 21.35 70.43 0.809 8.26 1130 6.71
7/3/2021 11:45:00 PM 21.32 70.376 0.809 8.26 1126 6.68
7/4/2021 12:00:00 AM 21.27 70.286 0.809 8.26 1149 6.68
7/4/2021 12:15:00 AM 21.22 70.196 0.809 8.25 1160 6.63
7/4/2021 12:30:00 AM 21.16 70.088 0.81 8.24 1164 6.64
7/4/2021 12:45:00 AM 21.1 69.98 0.81 8.22 1167 6.61
7/4/2021 1:00:00 AM 21.04 69.872 0.81 8.21 1184 6.61
7/4/2021 1:15:00 AM 20.97 69.746 0.81 8.2 1182 6.62
7/4/2021 1:30:00 AM 20.91 69.638 0.81 8.19 1198 6.6
7/4/2021 1:45:00 AM 20.85 69.53 0.811 8.18 1211 6.63
7/4/2021 2:00:00 AM 20.79 69.422 0.811 8.17 1208 6.61
7/4/2021 2:15:00 AM 20.73 69.314 0.811 8.17 1200 6.63
7/4/2021 2:30:00 AM 20.67 69.206 0.812 8.16 1230 6.65
7/4/2021 2:45:00 AM 20.61 69.098 0.813 8.17 1174 6.63
7/4/2021 3:00:00 AM 20.56 69.008 0.813 8.16 1836 6.64
7/4/2021 3:15:00 AM 20.51 68.918 0.814 8.16 1848 6.65
7/4/2021 3:30:00 AM 20.46 68.828 0.815 8.16 1833 6.65
7/4/2021 3:45:00 AM 20.41 68.738 0.816 8.17 1821 6.67
7/4/2021 4:00:00 AM 20.36 68.648 0.817 8.19 1829 6.69
7/4/2021 4:15:00 AM 20.32 68.576 0.818 8.21 1816 6.7
7/4/2021 4:30:00 AM 20.28 68.504 0.819 8.22 1852 6.7
7/4/2021 4:45:00 AM 20.24 68.432 0.82 8.23 1838 6.72
7/4/2021 5:00:00 AM 20.19 68.342 0.821 8.22 1873 6.72
7/4/2021 5:15:00 AM 20.15 68.27 0.822 8.23 1869 6.74
7/4/2021 5:30:00 AM 20.11 68.198 0.823 8.23 1876 6.75
7/4/2021 5:45:00 AM 20.08 68.144 0.824 8.24 1871 6.72
7/4/2021 6:00:00 AM 20.04 68.07201 0.825 8.24 1847 6.73
7/4/2021 6:15:00 AM 20 68 0.827 8.24 1858 6.77
7/4/2021 6:30:00 AM 19.96 67.92799 0.828 8.26 1869 6.76
7/4/2021 6:45:00 AM 19.92 67.856 0.83 8.26 1903 6.82
7/4/2021 7:00:00 AM 19.88 67.784 0.831 8.27 1897 6.81
7/4/2021 7:15:00 AM 19.85 67.73 0.833 8.26 1929 6.83
7/4/2021 7:30:00 AM 19.83 67.694 0.835 8.28 1931 6.88
7/4/2021 7:45:00 AM 19.81 67.658 0.836 8.29 1963 6.9
7/4/2021 8:00:00 AM 19.8 67.64 0.838 8.3 1948 6.93
7/4/2021 8:15:00 AM 19.8 67.64 0.839 8.33 1993 6.99
7/4/2021 8:30:00 AM 19.8 67.64 0.841 8.35 1993 7.06
7/4/2021 8:45:00 AM 19.8 67.64 0.842 8.36 1989 7.12
7/4/2021 9:00:00 AM 19.8 67.64 0.843 8.37 1984 7.18
7/4/2021 9:15:00 AM 19.8 67.64 0.843 8.37 1902 7.25
7/4/2021 9:30:00 AM 19.81 67.658 0.845 8.36 1998 7.24
7/4/2021 9:45:00 AM 19.84 67.712 0.846 8.36 1826 7.31
7/4/2021 10:00:00 AM 19.89 67.802 0.846 8.37 1794 7.38
7/4/2021 10:15:00 AM 20 68 0.847 8.36 1856 7.49
7/4/2021 10:30:00 AM 20.23 68.414 0.847 8.37 1917 7.64
7/4/2021 10:45:00 AM 20.35 68.63 0.847 8.38 1802 7.78
7/4/2021 11:00:00 AM 20.53 68.954 0.847 8.39 1823 7.97
7/4/2021 11:15:00 AM 20.64 69.152 0.846 8.39 1921 8.12
7/4/2021 11:30:00 AM 20.76 69.368 0.846 8.38 1813 8.22
7/4/2021 11:45:00 AM 20.96 69.728 0.845 8.38 2010 8.33
7/4/2021 12:00:00 PM 21.06 69.908 0.844 8.37 1756 8.42
7/4/2021 12:15:00 PM 21.1 69.98 0.844 8.37 1647 8.47
7/4/2021 12:30:00 PM 21.21 70.17799 0.842 8.36 1706 8.5
7/4/2021 12:45:00 PM 21.26 70.268 0.841 8.36 1738 8.55
7/4/2021 1:00:00 PM 21.49 70.682 0.839 8.36 1978 8.63
7/4/2021 1:15:00 PM 21.52 70.736 0.837 8.36 2131 8.71
7/4/2021 1:30:00 PM 21.45 70.61 0.835 8.36 2215 8.65
7/4/2021 1:45:00 PM 21.49 70.682 0.833 8.37 2169 8.55
7/4/2021 2:00:00 PM 21.8 71.24 0.83 8.36 2161 8.68
7/4/2021 2:15:00 PM 21.97 71.546 0.828 8.37 2214 8.86
7/4/2021 2:30:00 PM 22.07 71.726 0.827 8.37 2118 8.88
7/4/2021 2:45:00 PM 21.99 71.582 0.824 8.37 2554 8.81
7/4/2021 3:00:00 PM 22.08 71.744 0.822 8.37 2281 8.76
7/4/2021 3:15:00 PM 22.27 72.086 0.819 8.37 1940 8.79
7/4/2021 3:30:00 PM 22.48 72.464 0.817 8.38 1916 8.92
7/4/2021 3:45:00 PM 22.57 72.626 0.815 8.38 1929 8.93
7/4/2021 4:00:00 PM 22.62 72.716 0.814 8.38 1893 8.86
7/4/2021 4:15:00 PM 22.68 72.824 0.812 8.39 1874 8.78
7/4/2021 4:30:00 PM 22.74 72.932 0.81 8.39 1858 8.72
7/4/2021 4:45:00 PM 22.75 72.95 0.809 8.39 1873 8.65
7/4/2021 5:00:00 PM 22.72 72.896 0.808 8.39 1864 8.55
7/4/2021 5:15:00 PM 22.7 72.86 0.807 8.38 1834 8.45
7/4/2021 5:30:00 PM 22.68 72.824 0.806 8.38 1713 8.33
7/4/2021 5:45:00 PM 22.65 72.77 0.805 8.38 1707 8.21
7/4/2021 6:00:00 PM 22.62 72.716 0.804 8.37 1844 8.09
7/4/2021 6:15:00 PM 22.6 72.68 0.803 8.37 1842 7.94
7/4/2021 6:30:00 PM 22.57 72.626 0.803 8.37 1796 7.81
7/4/2021 6:45:00 PM 22.54 72.57201 0.803 8.36 1797 7.71
7/4/2021 7:00:00 PM 22.52 72.536 0.802 8.36 1809 7.61
7/4/2021 7:15:00 PM 22.51 72.518 0.801 8.35 1772 7.51
7/4/2021 7:30:00 PM 22.5 72.5 0.801 8.35 1793 7.44
7/4/2021 7:45:00 PM 22.49 72.482 0.801 8.34 1788 7.38
7/4/2021 8:00:00 PM 22.47 72.446 0.8 8.34 1794 7.32
7/4/2021 8:15:00 PM 22.47 72.446 0.8 8.33 1947 7.24
7/4/2021 8:30:00 PM 22.45 72.41 0.8 8.33 1948 7.19
7/4/2021 8:45:00 PM 22.44 72.392 0.8 8.32 1917 7.13
7/4/2021 9:00:00 PM 22.41 72.338 0.799 8.32 1984 7.04
7/4/2021 9:15:00 PM 22.39 72.302 0.799 8.31 1949 6.94
7/4/2021 9:30:00 PM 22.37 72.266 0.799 8.31 1898 6.88
7/4/2021 9:45:00 PM 22.34 72.212 0.799 8.31 2109 6.84
7/4/2021 10:00:00 PM 22.3 72.14 0.798 8.31 1878 6.8
7/4/2021 10:15:00 PM 22.27 72.086 0.798 8.31 1942 6.77
7/4/2021 10:30:00 PM 22.23 72.014 0.798 8.31 1950 6.72
7/4/2021 10:45:00 PM 22.18 71.924 0.798 8.29 1939 6.68
7/4/2021 11:00:00 PM 22.13 71.834 0.797 8.29 1910 6.63
7/4/2021 11:15:00 PM 22.08 71.744 0.796 8.29 1943 6.6
7/4/2021 11:30:00 PM 22.03 71.654 0.797 8.28 1904 6.56
7/4/2021 11:45:00 PM 21.97 71.546 0.796 8.28 1907 6.53
7/5/2021 12:00:00 AM 21.91 71.438 0.795 8.27 1929 6.5
7/5/2021 12:15:00 AM 21.85 71.33 0.795 8.26 2183 6.49
7/5/2021 12:30:00 AM 21.79 71.222 0.792 8.26 2302 6.47
7/5/2021 12:45:00 AM 21.73 71.114 0.792 8.25 1884 6.48
7/5/2021 1:00:00 AM 21.67 71.006 0.795 8.24 1936 6.46
7/5/2021 1:15:00 AM 21.6 70.88 0.796 8.23 1898 6.46
7/5/2021 1:30:00 AM 21.54 70.772 0.795 8.23 1922 6.45
7/5/2021 1:45:00 AM 21.47 70.646 0.795 8.23 1844 6.47
7/5/2021 2:00:00 AM 21.41 70.538 0.795 8.22 1859 6.46
7/5/2021 2:15:00 AM 21.34 70.412 0.794 8.22 1866 6.48
7/5/2021 2:30:00 AM 21.27 70.286 0.794 8.21 1968 6.47
7/5/2021 2:45:00 AM 21.21 70.17799 0.794 8.21 2138 6.47
7/5/2021 3:00:00 AM 21.14 70.052 0.793 8.21 2169 6.47
7/5/2021 3:15:00 AM 21.08 69.944 0.793 8.2 2071 6.48
7/5/2021 3:30:00 AM 21.01 69.818 0.793 8.2 1083 6.48
7/5/2021 3:45:00 AM 20.94 69.692 0.792 8.2 1358 6.51
7/5/2021 4:00:00 AM 20.87 69.566 0.792 8.2 1560 6.51
7/5/2021 4:15:00 AM 20.81 69.458 0.792 8.2 1567 6.53
7/5/2021 4:30:00 AM 20.74 69.332 0.792 8.2 1557 6.55
7/5/2021 4:45:00 AM 20.67 69.206 0.792 8.19 1176 6.57
7/5/2021 5:00:00 AM 20.6 69.08 0.793 8.19 1254 6.59
7/5/2021 5:15:00 AM 20.54 68.972 0.792 8.19 1333 6.59
7/5/2021 5:30:00 AM 20.47 68.846 0.793 8.19 1315 6.61
7/5/2021 5:45:00 AM 20.41 68.738 0.793 8.19 1328 6.63
7/5/2021 6:00:00 AM 20.35 68.63 0.793 8.2 1470 6.64
7/5/2021 6:15:00 AM 20.29 68.522 0.794 8.19 1424 6.66
7/5/2021 6:30:00 AM 20.23 68.414 0.794 8.2 1416 6.68
7/5/2021 6:45:00 AM 20.19 68.342 0.794 8.21 1403 6.74
7/5/2021 7:00:00 AM 20.14 68.252 0.795 8.22 1342 6.78
7/5/2021 7:15:00 AM 20.1 68.18 0.795 8.24 1298 6.81
7/5/2021 7:30:00 AM 20.06 68.108 0.796 8.25 1230 6.85
7/5/2021 7:45:00 AM 20.03 68.054 0.797 8.27 1215 6.89
7/5/2021 8:00:00 AM 20.01 68.018 0.797 8.29 1197 6.96
7/5/2021 8:15:00 AM 19.99 67.982 0.798 8.31 1210 6.99
7/5/2021 8:30:00 AM 19.98 67.964 0.799 8.33 1168 7.02
7/5/2021 8:45:00 AM 19.97 67.946 0.8 8.36 1112 7.05
7/5/2021 9:00:00 AM 19.98 67.964 0.801 8.38 1100 7.12
7/5/2021 9:15:00 AM 20 68 0.802 8.42 1086 7.18
7/5/2021 9:30:00 AM 20.03 68.054 0.803 8.45 1065 7.26
7/5/2021 9:45:00 AM 20.08 68.144 0.804 8.46 1059 7.34
7/5/2021 10:00:00 AM 20.14 68.252 0.805 8.47 1071 7.45
7/5/2021 10:15:00 AM 20.25 68.45 0.806 8.46 1062 7.56
7/5/2021 10:30:00 AM 20.46 68.828 0.807 8.46 1033 7.75
7/5/2021 10:45:00 AM 20.62 69.116 0.808 8.45 1072 7.88
7/5/2021 11:00:00 AM 20.79 69.422 0.809 8.42 1046 8.05
7/5/2021 11:15:00 AM 20.99 69.782 0.81 8.4 1036 8.2
7/5/2021 11:30:00 AM 21.13 70.034 0.811 8.39 1050 8.36
7/5/2021 11:45:00 AM 21.31 70.358 0.812 8.39 1091 8.46
7/5/2021 12:00:00 PM 21.48 70.664 0.813 8.38 1043 8.59
7/5/2021 12:15:00 PM 21.65 70.97 0.814 8.37 1044 8.68
7/5/2021 12:30:00 PM 21.78 71.204 0.815 8.37 1038 8.77
7/5/2021 12:45:00 PM 21.99 71.582 0.816 8.37 1047 8.87
7/5/2021 1:00:00 PM 22.19 71.942 0.817 8.37 1035 8.96
7/5/2021 1:15:00 PM 22.29 72.122 0.818 8.36 1012 9.02
7/5/2021 1:30:00 PM 22.45 72.41 0.819 8.37 990.1 9.06
7/5/2021 1:45:00 PM 22.64 72.752 0.82 8.37 968 9.13
7/5/2021 2:00:00 PM 22.83 73.094 0.82 8.37 958.9 9.15
7/5/2021 2:15:00 PM 22.98 73.364 0.821 8.38 941.5 9.21
7/5/2021 2:30:00 PM 23.16 73.688 0.821 8.38 953.6 9.26
7/5/2021 2:45:00 PM 23.3 73.94 0.822 8.39 978.3 9.28
7/5/2021 3:00:00 PM 23.39 74.102 0.822 8.39 984.7 9.27
7/5/2021 3:15:00 PM 23.4 74.12 0.822 8.4 1024 9.2
7/5/2021 3:30:00 PM 23.52 74.336 0.823 8.4 1054 9.17
7/5/2021 3:45:00 PM 23.61 74.498 0.823 8.4 1071 9.16
7/5/2021 4:00:00 PM 23.61 74.498 0.822 8.4 1071 9.08
7/5/2021 4:15:00 PM 23.66 74.588 0.822 8.4 1087 9.04
7/5/2021 4:30:00 PM 23.65 74.57 0.823 8.41 1115 8.97
7/5/2021 4:45:00 PM 23.61 74.498 0.822 8.41 1113 8.9
7/5/2021 5:00:00 PM 23.58 74.444 0.822 8.41 1129 8.77
7/5/2021 5:15:00 PM 23.57 74.426 0.822 8.41 1105 8.69
7/5/2021 5:30:00 PM 23.54 74.372 0.822 8.41 1150 8.6
7/5/2021 5:45:00 PM 23.51 74.318 0.822 8.41 1159 8.51
7/5/2021 6:00:00 PM 23.49 74.282 0.821 8.4 1202 8.38
7/5/2021 6:15:00 PM 23.46 74.228 0.82 8.4 1201 8.23
7/5/2021 6:30:00 PM 23.44 74.192 0.821 8.4 1269 8.11
7/5/2021 6:45:00 PM 23.43 74.174 0.82 8.39 1261 8
7/5/2021 7:00:00 PM 23.42 74.156 0.82 8.39 1297 7.87
7/5/2021 7:15:00 PM 23.42 74.156 0.82 8.38 1204 7.73
7/5/2021 7:30:00 PM 23.42 74.156 0.819 8.37 1299 7.61
7/5/2021 7:45:00 PM 23.43 74.174 0.819 8.37 1314 7.51
7/5/2021 8:00:00 PM 23.44 74.192 0.819 8.36 1315 7.4
7/5/2021 8:15:00 PM 23.44 74.192 0.819 8.36 1343 7.27
7/5/2021 8:30:00 PM 23.45 74.21 0.818 8.35 1360 7.18
7/5/2021 8:45:00 PM 23.45 74.21 0.818 8.35 1369 7.08
7/5/2021 9:00:00 PM 23.44 74.192 0.819 8.34 2559 7
7/5/2021 9:15:00 PM 23.43 74.174 0.819 8.34 2740 6.86
7/5/2021 9:30:00 PM 23.41 74.138 0.819 8.33 2689 6.83
7/5/2021 9:45:00 PM 23.39 74.102 0.819 8.33 2735 6.75
7/5/2021 10:00:00 PM 23.38 74.084 0.819 8.32 2710 6.72
7/5/2021 10:15:00 PM 23.36 74.048 0.82 8.31 2615 6.64
7/5/2021 10:30:00 PM 23.34 74.012 0.82 8.31 2855 6.59
7/5/2021 10:45:00 PM 23.32 73.976 0.82 8.3 2865 6.55
7/5/2021 11:00:00 PM 23.29 73.922 0.82 8.3 2796 6.51
7/5/2021 11:15:00 PM 23.26 73.868 0.821 8.29 2772 6.43
7/5/2021 11:30:00 PM 23.24 73.832 0.821 8.29 3124 6.37
7/5/2021 11:45:00 PM 23.21 73.778 0.821 8.28 2836 6.33
7/6/2021 12:00:00 AM 23.18 73.724 0.822 8.28 2845 6.28
7/6/2021 12:15:00 AM 23.15 73.67 0.822 8.27 2855 6.3
7/6/2021 12:30:00 AM 23.12 73.616 0.822 8.27 2995 6.24
7/6/2021 12:45:00 AM 23.09 73.562 0.823 8.26 2963 6.25
7/6/2021 1:00:00 AM 23.06 73.508 0.823 8.26 2985 6.23
7/6/2021 1:15:00 AM 23.02 73.436 0.823 8.26 3013 6.2
7/6/2021 1:30:00 AM 22.98 73.364 0.823 8.25 3009 6.22
7/6/2021 1:45:00 AM 22.94 73.292 0.823 8.25 3019 6.2
7/6/2021 2:00:00 AM 22.89 73.202 0.823 8.25 3028 6.19
7/6/2021 2:15:00 AM 22.85 73.13 0.823 8.24 3052 6.16
7/6/2021 2:30:00 AM 22.81 73.058 0.824 8.24 3096 6.17
7/6/2021 2:45:00 AM 22.76 72.968 0.823 8.24 3186 6.17
7/6/2021 3:00:00 AM 22.71 72.878 0.824 8.23 3187 6.18
7/6/2021 3:15:00 AM 22.67 72.806 0.824 8.23 3189 6.18
7/6/2021 3:30:00 AM 22.62 72.716 0.823 8.23 3186 6.17
7/6/2021 3:45:00 AM 22.58 72.644 0.824 8.23 3216 6.16
7/6/2021 4:00:00 AM 22.53 72.554 0.823 8.23 3311 6.15
7/6/2021 4:15:00 AM 22.49 72.482 0.823 8.23 3299 6.15
7/6/2021 4:30:00 AM 22.45 72.41 0.823 8.23 3268 6.18
7/6/2021 4:45:00 AM 22.4 72.32 0.823 8.22 3339 6.19
7/6/2021 5:00:00 AM 22.36 72.248 0.823 8.22 3497 6.17
7/6/2021 5:15:00 AM 22.32 72.176 0.823 8.22 3241 6.19
7/6/2021 5:30:00 AM 22.28 72.104 0.82 8.22 3249 6.2
7/6/2021 5:45:00 AM 22.23 72.014 0.823 8.22 3247 6.16
7/6/2021 6:00:00 AM 22.19 71.942 0.814 8.22 3269 6.18
7/6/2021 6:15:00 AM 22.16 71.888 0.82 8.22 3318 6.23
7/6/2021 6:30:00 AM 22.12 71.816 0.816 8.22 3406 6.2
7/6/2021 6:45:00 AM 22.09 71.762 0.815 8.22 3381 6.26
7/6/2021 7:00:00 AM 22.07 71.726 0.823 8.22 3301 6.33
7/6/2021 7:15:00 AM 22.05 71.69 0.823 8.23 3333 6.32
7/6/2021 7:30:00 AM 22.03 71.654 0.823 8.23 3350 6.4
7/6/2021 7:45:00 AM 22.02 71.636 0.823 8.23 3410 6.44
7/6/2021 8:00:00 AM 22.01 71.618 0.823 8.24 3385 6.55
7/6/2021 8:15:00 AM 22.01 71.618 0.822 8.24 3453 6.6
7/6/2021 8:30:00 AM 22 71.6 0.822 8.25 3449 6.64
7/6/2021 8:45:00 AM 22 71.6 0.822 8.25 3485 6.69
7/6/2021 9:00:00 AM 22.01 71.618 0.822 8.25 3579 6.78
7/6/2021 9:15:00 AM 22.03 71.654 0.822 8.26 3523 6.89
7/6/2021 9:30:00 AM 22.05 71.69 0.822 8.26 3400 6.91
7/6/2021 9:45:00 AM 22.08 71.744 0.822 8.26 3407 7.03
7/6/2021 10:00:00 AM 22.15 71.87 0.822 8.27 3394 7.13
7/6/2021 10:15:00 AM 22.23 72.014 0.821 8.27 3391 7.26
7/6/2021 10:30:00 AM 22.41 72.338 0.822 8.28 3384 7.43
7/6/2021 10:45:00 AM 22.55 72.59 0.822 8.28 3381 7.64
7/6/2021 11:00:00 AM 22.68 72.824 0.822 8.29 3371 7.77
7/6/2021 11:15:00 AM 22.86 73.148 0.821 8.29 3358 7.96
7/6/2021 11:30:00 AM 22.99 73.382 0.821 8.29 3356 8.06
7/6/2021 11:45:00 AM 23.16 73.688 0.821 8.3 3350 8.17
7/6/2021 12:00:00 PM 23.37 74.066 0.821 8.3 3326 8.34
7/6/2021 12:15:00 PM 23.55 74.39 0.821 8.3 3349 8.5
7/6/2021 12:30:00 PM 23.72 74.696 0.821 8.31 3347 8.59
7/6/2021 12:45:00 PM 23.89 75.002 0.821 8.32 3376 8.69
7/6/2021 1:00:00 PM 24.07 75.326 0.82 8.32 3379 8.83
7/6/2021 1:15:00 PM 24.23 75.614 0.82 8.33 3298 8.87
7/6/2021 1:30:00 PM 24.37 75.866 0.819 8.34 3404 8.95
7/6/2021 1:45:00 PM 24.53 76.154 0.819 8.34 3552 8.98
7/6/2021 2:00:00 PM 24.7 76.46 0.819 8.35 3744 9.03
7/6/2021 2:15:00 PM 24.86 76.748 0.818 8.35 3727 9.07
7/6/2021 2:30:00 PM 25 77 0.818 8.36 3768 9.1
7/6/2021 2:45:00 PM 25.11 77.198 0.818 8.36 3776 9.07
7/6/2021 3:00:00 PM 25.19 77.342 0.818 8.37 4029 9.08
7/6/2021 3:15:00 PM 25.29 77.522 0.817 8.37 3971 8.97
7/6/2021 3:30:00 PM 25.26 77.468 0.817 8.37 4143 8.91
7/6/2021 3:45:00 PM 25.19 77.342 0.817 8.37 3900 8.68
7/6/2021 4:00:00 PM 25.23 77.414 0.816 8.37 3631 8.56
7/6/2021 4:15:00 PM 25.34 77.612 0.815 8.37 3640 8.59
7/6/2021 4:30:00 PM 25.41 77.738 0.815 8.38 3602 8.6
7/6/2021 4:45:00 PM 25.43 77.774 0.815 8.39 3615 8.58
7/6/2021 5:00:00 PM 25.4 77.72 0.815 8.38 3541 8.43
7/6/2021 5:15:00 PM 25.4 77.72 0.814 8.38 3497 8.32
7/6/2021 5:30:00 PM 25.35 77.63 0.814 8.38 3471 8.19
7/6/2021 5:45:00 PM 25.28 77.504 0.814 8.38 3457 8.02
7/6/2021 6:00:00 PM 25.22 77.396 0.813 8.37 3462 7.79
7/6/2021 6:15:00 PM 25.17 77.306 0.813 8.36 3466 7.56
7/6/2021 6:30:00 PM 25.16 77.288 0.813 8.36 3487 7.41
7/6/2021 6:45:00 PM 25.15 77.27 0.813 8.35 3498 7.32
7/6/2021 7:00:00 PM 25.16 77.288 0.813 8.34 3500 7.22
7/6/2021 7:15:00 PM 25.18 77.324 0.813 8.34 3502 7.13
7/6/2021 7:30:00 PM 25.19 77.342 0.813 8.34 3477 7.08
7/6/2021 7:45:00 PM 25.2 77.36 0.814 8.34 3532 6.99
7/6/2021 8:00:00 PM 25.2 77.36 0.814 8.34 3518 6.89
7/6/2021 8:15:00 PM 25.2 77.36 0.814 8.33 3502 6.74
7/6/2021 8:30:00 PM 25.21 77.378 0.815 8.32 3506 6.63
7/6/2021 8:45:00 PM 25.2 77.36 0.815 8.31 3479 6.5
7/6/2021 9:00:00 PM 25.2 77.36 0.816 8.31 3536 6.4
7/6/2021 9:15:00 PM 25.2 77.36 0.817 8.3 3428 6.28
7/6/2021 9:30:00 PM 25.19 77.342 0.818 8.29 3566 6.19
7/6/2021 9:45:00 PM 25.2 77.36 0.818 8.29 3590 6.14
7/6/2021 10:00:00 PM 25.18 77.324 0.819 8.28 3614 6.06
7/6/2021 10:15:00 PM 25.17 77.306 0.82 8.27 3621 5.97
7/6/2021 10:30:00 PM 25.17 77.306 0.821 8.27 3593 5.92
7/6/2021 10:45:00 PM 25.15 77.27 0.822 8.26 3575 5.84
7/6/2021 11:00:00 PM 25.14 77.252 0.823 8.26 3650 5.79
7/6/2021 11:15:00 PM 25.11 77.198 0.824 8.25 3597 5.74
7/6/2021 11:30:00 PM 25.08 77.144 0.825 8.24 3654 5.73
7/6/2021 11:45:00 PM 25.06 77.108 0.826 8.24 3595 5.7
7/7/2021 12:00:00 AM 25.04 77.07201 0.827 8.23 3621 5.68
7/7/2021 12:15:00 AM 25 77 0.828 8.23 3599 5.65
7/7/2021 12:30:00 AM 24.97 76.946 0.829 8.22 3598 5.64
7/7/2021 12:45:00 AM 24.94 76.892 0.83 8.22 3529 5.61
7/7/2021 1:00:00 AM 24.9 76.82 0.831 8.22 3525 5.63
7/7/2021 1:15:00 AM 24.87 76.766 0.832 8.21 3524 5.6
7/7/2021 1:30:00 AM 24.83 76.694 0.834 8.21 3605 5.59
7/7/2021 1:45:00 AM 24.78 76.604 0.834 8.21 3609 5.58
7/7/2021 2:00:00 AM 24.74 76.532 0.833 8.21 3641 5.61
7/7/2021 2:15:00 AM 24.69 76.442 0.835 8.21 3607 5.61
7/7/2021 2:30:00 AM 24.63 76.334 0.835 8.2 3581 5.58
7/7/2021 2:45:00 AM 24.58 76.244 0.834 8.2 3567 5.6
7/7/2021 3:00:00 AM 24.53 76.154 0.837 8.2 3626 5.58
7/7/2021 3:15:00 AM 24.48 76.064 0.838 8.2 3609 5.6
7/7/2021 3:30:00 AM 24.43 75.974 0.838 8.2 3619 5.61
7/7/2021 3:45:00 AM 24.37 75.866 0.839 8.2 3636 5.59
7/7/2021 4:00:00 AM 24.31 75.758 0.839 8.2 3641 5.62
7/7/2021 4:15:00 AM 24.26 75.668 0.839 8.2 3622 5.62
7/7/2021 4:30:00 AM 24.2 75.56 0.839 8.2 3627 5.64
7/7/2021 4:45:00 AM 24.14 75.452 0.839 8.2 3655 5.65
7/7/2021 5:00:00 AM 24.08 75.344 0.839 8.2 3636 5.65
7/7/2021 5:15:00 AM 24.02 75.236 0.839 8.2 3667 5.68
7/7/2021 5:30:00 AM 23.96 75.128 0.839 8.2 3709 5.69
7/7/2021 5:45:00 AM 23.9 75.02 0.839 8.2 3749 5.73
7/7/2021 6:00:00 AM 23.85 74.93 0.839 8.19 3711 5.72
7/7/2021 6:15:00 AM 23.78 74.804 0.839 8.19 3769 5.74
7/7/2021 6:30:00 AM 23.74 74.732 0.839 8.19 3698 5.77
7/7/2021 6:45:00 AM 23.69 74.642 0.838 8.19 3734 5.82
7/7/2021 7:00:00 AM 23.65 74.57 0.838 8.2 3869 5.86
7/7/2021 7:15:00 AM 23.61 74.498 0.838 8.2 3844 5.91
7/7/2021 7:30:00 AM 23.58 74.444 0.837 8.2 3804 5.94
7/7/2021 7:45:00 AM 23.55 74.39 0.837 8.2 3788 6
7/7/2021 8:00:00 AM 23.53 74.354 0.837 8.21 3831 6.02
7/7/2021 8:15:00 AM 23.5 74.3 0.836 8.21 3826 6.09
7/7/2021 8:30:00 AM 23.49 74.282 0.836 8.21 3835 6.12
7/7/2021 8:45:00 AM 23.48 74.264 0.835 8.22 3849 6.24
7/7/2021 9:00:00 AM 23.47 74.246 0.835 8.22 3702 6.36
7/7/2021 9:15:00 AM 23.48 74.264 0.834 8.22 3736 6.46
7/7/2021 9:30:00 AM 23.5 74.3 0.834 8.23 3753 6.51
7/7/2021 9:45:00 AM 23.52 74.336 0.834 8.23 3725 6.62
7/7/2021 10:00:00 AM 23.56 74.408 0.833 8.24 3700 6.77
7/7/2021 10:15:00 AM 23.64 74.552 0.831 8.24 3721 6.92
7/7/2021 10:30:00 AM 23.79 74.82201 0.834 8.25 3720 7.07
7/7/2021 10:45:00 AM 23.93 75.074 0.83 8.25 3767 7.25
7/7/2021 11:00:00 AM 24.07 75.326 0.831 8.26 3766 7.43
7/7/2021 11:15:00 AM 24.23 75.614 0.83 8.27 3783 7.59
7/7/2021 11:30:00 AM 24.37 75.866 0.83 8.28 3783 7.73
7/7/2021 11:45:00 AM 24.53 76.154 0.829 8.28 3792 7.85
7/7/2021 12:00:00 PM 24.77 76.586 0.828 8.28 3774 8.01
7/7/2021 12:15:00 PM 24.9 76.82 0.828 8.29 3785 8.17
7/7/2021 12:30:00 PM 25.07 77.126 0.827 8.3 3810 8.33
7/7/2021 12:45:00 PM 25.23 77.414 0.826 8.31 3795 8.43
7/7/2021 1:00:00 PM 25.39 77.702 0.826 8.31 3751 8.51
7/7/2021 1:15:00 PM 25.54 77.972 0.825 8.32 3768 8.62
7/7/2021 1:30:00 PM 25.67 78.206 0.824 8.33 3807 8.72
7/7/2021 1:45:00 PM 25.81 78.458 0.823 8.34 3758 8.75
7/7/2021 2:00:00 PM 25.93 78.674 0.822 8.35 3750 8.86
7/7/2021 2:15:00 PM 26.06 78.908 0.822 8.35 3751 8.83
7/7/2021 2:30:00 PM 26.19 79.142 0.821 8.36 3740 8.85
7/7/2021 2:45:00 PM 26.29 79.32201 0.82 8.37 3772 8.83
7/7/2021 3:00:00 PM 26.35 79.43 0.819 8.37 3807 8.84
7/7/2021 3:15:00 PM 26.47 79.646 0.818 8.38 3816 8.76
7/7/2021 3:30:00 PM 26.54 79.772 0.817 8.38 3825 8.8
7/7/2021 3:45:00 PM 26.53 79.754 0.815 8.38 3908 8.72
7/7/2021 4:00:00 PM 26.58 79.844 0.815 8.38 3912 8.59
7/7/2021 4:15:00 PM 26.62 79.916 0.814 8.38 3901 8.47
7/7/2021 4:30:00 PM 26.67 80.006 0.813 8.38 3868 8.45
7/7/2021 4:45:00 PM 26.64 79.952 0.813 8.39 3839 8.38
7/7/2021 5:00:00 PM 26.63 79.934 0.812 8.38 3848 8.24
7/7/2021 5:15:00 PM 26.61 79.898 0.811 8.38 3873 8.09
7/7/2021 5:30:00 PM 26.58 79.844 0.81 8.38 3872 7.99
7/7/2021 5:45:00 PM 26.55 79.79 0.809 8.38 3801 7.92
7/7/2021 6:00:00 PM 26.52 79.736 0.808 8.38 3779 7.73
7/7/2021 6:15:00 PM 26.48 79.664 0.807 8.37 3779 7.62
7/7/2021 6:30:00 PM 26.43 79.574 0.806 8.37 3820 7.49
7/7/2021 6:45:00 PM 26.41 79.538 0.805 8.37 3809 7.32
7/7/2021 7:00:00 PM 26.4 79.52 0.804 8.36 3816 7.19
7/7/2021 7:15:00 PM 26.37 79.466 0.803 8.36 3948 7.07
7/7/2021 7:30:00 PM 26.35 79.43 0.803 8.35 3980 6.94
7/7/2021 7:45:00 PM 26.34 79.412 0.802 8.34 3982 6.79
7/7/2021 8:00:00 PM 26.31 79.358 0.801 8.33 4016 6.64
7/7/2021 8:15:00 PM 26.31 79.358 0.8 8.33 3999 6.55
7/7/2021 8:30:00 PM 26.31 79.358 0.8 8.32 4090 6.39
7/7/2021 8:45:00 PM 26.3 79.34 0.799 8.32 3924 6.36
7/7/2021 9:00:00 PM 26.29 79.32201 0.795 8.31 3876 6.23
7/7/2021 9:15:00 PM 26.27 79.286 0.798 8.31 3909 6.15
7/7/2021 9:30:00 PM 26.26 79.268 0.798 8.3 3899 6.06
7/7/2021 9:45:00 PM 26.24 79.232 0.797 8.29 3890 5.95
7/7/2021 10:00:00 PM 26.22 79.196 0.797 8.28 3885 5.86
7/7/2021 10:15:00 PM 26.2 79.16 0.796 8.28 3844 5.79
7/7/2021 10:30:00 PM 26.17 79.106 0.796 8.27 3849 5.76
7/7/2021 10:45:00 PM 26.15 79.07 0.796 8.26 3871 5.7
7/7/2021 11:00:00 PM 26.11 78.998 0.795 8.26 3913 5.66
7/7/2021 11:15:00 PM 26.07 78.926 0.795 8.25 3884 5.62
7/7/2021 11:30:00 PM 26.04 78.872 0.795 8.25 3841 5.58
7/7/2021 11:45:00 PM 25.99 78.782 0.795 8.24 3866 5.53
7/8/2021 12:00:00 AM 25.96 78.728 0.795 8.24 3857 5.55
7/8/2021 12:15:00 AM 25.93 78.674 0.795 8.24 3790 5.5
7/8/2021 12:30:00 AM 25.89 78.602 0.795 8.23 3816 5.48
7/8/2021 12:45:00 AM 25.85 78.53 0.795 8.22 4224 5.44
7/8/2021 1:00:00 AM 25.81 78.458 0.795 8.22 4190 5.42
7/8/2021 1:15:00 AM 25.77 78.386 0.795 8.21 4219 5.43
7/8/2021 1:30:00 AM 25.73 78.314 0.795 8.21 4168 5.46
7/8/2021 1:45:00 AM 25.68 78.224 0.795 8.2 4153 5.45
7/8/2021 2:00:00 AM 25.65 78.17 0.795 8.2 4096 5.46
7/8/2021 2:15:00 AM 25.6 78.08 0.795 8.19 4140 5.42
7/8/2021 2:30:00 AM 25.56 78.008 0.795 8.2 4120 5.49
7/8/2021 2:45:00 AM 25.51 77.918 0.795 8.2 4109 5.46
7/8/2021 3:00:00 AM 25.46 77.828 0.795 8.2 4125 5.43
7/8/2021 3:15:00 AM 25.4 77.72 0.795 8.19 4116 5.45
7/8/2021 3:30:00 AM 25.35 77.63 0.795 8.19 4178 5.47
7/8/2021 3:45:00 AM 25.29 77.522 0.795 8.19 4232 5.51
7/8/2021 4:00:00 AM 25.23 77.414 0.794 8.19 4228 5.5
7/8/2021 4:15:00 AM 25.18 77.324 0.794 8.19 4261 5.52
7/8/2021 4:30:00 AM 25.13 77.234 0.794 8.18 4302 5.52
7/8/2021 4:45:00 AM 25.06 77.108 0.794 8.18 4321 5.49
7/8/2021 5:00:00 AM 25.02 77.036 0.793 8.18 4294 5.52
7/8/2021 5:15:00 AM 24.96 76.92799 0.793 8.18 4120 5.52
7/8/2021 5:30:00 AM 24.9 76.82 0.793 8.18 4169 5.54
7/8/2021 5:45:00 AM 24.85 76.73 0.792 8.18 4350 5.54
7/8/2021 6:00:00 AM 24.8 76.64 0.792 8.18 2723 5.56
7/8/2021 6:15:00 AM 24.76 76.568 0.792 8.18 3268 5.58
7/8/2021 6:30:00 AM 24.72 76.496 0.791 8.17 4114 5.62
7/8/2021 6:45:00 AM 24.68 76.424 0.79 8.18 4098 5.68
7/8/2021 7:00:00 AM 24.65 76.37 0.79 8.18 4317 5.68
7/8/2021 7:15:00 AM 24.62 76.316 0.79 8.18 4336 5.73
7/8/2021 7:30:00 AM 24.59 76.262 0.789 8.18 4334 5.76
7/8/2021 7:45:00 AM 24.56 76.208 0.788 8.18 4324 5.82
7/8/2021 8:00:00 AM 24.53 76.154 0.788 8.18 4282 5.81
7/8/2021 8:15:00 AM 24.51 76.118 0.787 8.18 4279 5.84
7/8/2021 8:30:00 AM 24.48 76.064 0.787 8.19 4243 5.91
7/8/2021 8:45:00 AM 24.45 76.01 0.786 8.2 4267 6.03
7/8/2021 9:00:00 AM 24.46 76.028 0.786 8.2 4248 6.14
7/8/2021 9:15:00 AM 24.48 76.064 0.785 8.2 4357 6.27
7/8/2021 9:30:00 AM 24.51 76.118 0.784 8.21 4385 6.44
7/8/2021 9:45:00 AM 24.53 76.154 0.784 8.22 4402 6.61
7/8/2021 10:00:00 AM 24.55 76.19 0.783 8.22 4347 6.71
7/8/2021 10:15:00 AM 24.56 76.208 0.783 8.24 4430 6.85
7/8/2021 10:30:00 AM 24.53 76.154 0.782 8.24 4331 6.87
7/8/2021 10:45:00 AM 24.51 76.118 0.782 8.25 4367 6.84
7/8/2021 11:00:00 AM 24.49 76.082 0.782 8.24 4384 6.81
7/8/2021 11:15:00 AM 24.48 76.064 0.782 8.25 4397 6.84
7/8/2021 11:30:00 AM 24.5 76.1 0.781 8.25 4403 6.97
7/8/2021 11:45:00 AM 24.55 76.19 0.781 8.26 4324 7.12
7/8/2021 12:00:00 PM 24.6 76.28 0.78 8.27 4325 7.33
7/8/2021 12:15:00 PM 24.69 76.442 0.78 8.28 4310 7.52
7/8/2021 12:30:00 PM 24.8 76.64 0.779 8.3 4338 7.74
7/8/2021 12:45:00 PM 24.91 76.838 0.779 8.31 4356 7.95
7/8/2021 1:00:00 PM 24.98 76.964 0.779 8.32 4370 8.1
7/8/2021 1:15:00 PM 25.08 77.144 0.778 8.32 4383 8.17
7/8/2021 1:30:00 PM 25.21 77.378 0.778 8.33 4394 8.29
7/8/2021 1:45:00 PM 25.3 77.54 0.778 8.34 4371 8.37
7/8/2021 2:00:00 PM 25.39 77.702 0.778 8.34 4395 8.45
7/8/2021 2:15:00 PM 25.4 77.72 0.778 8.35 4389 8.46
7/8/2021 2:30:00 PM 25.39 77.702 0.778 8.36 4358 8.45
7/8/2021 2:45:00 PM 25.39 77.702 0.778 8.36 4405 8.43
7/8/2021 3:00:00 PM 25.47 77.846 0.777 8.37 4385 8.43
7/8/2021 3:15:00 PM 25.47 77.846 0.777 8.37 4314 8.48
7/8/2021 3:30:00 PM 25.43 77.774 0.777 8.38 4409 8.4
7/8/2021 3:45:00 PM 25.42 77.756 0.777 8.37 4430 8.25
7/8/2021 4:00:00 PM 25.42 77.756 0.777 8.38 4434 8.2
7/8/2021 4:15:00 PM 25.4 77.72 0.777 8.38 4432 8.12
7/8/2021 4:30:00 PM 25.42 77.756 0.777 8.38 4436 8.12
7/8/2021 4:45:00 PM 25.43 77.774 0.776 8.38 4436 8.07
7/8/2021 5:00:00 PM 25.29 77.522 0.77 8.37 4318 7.9
7/8/2021 5:15:00 PM 25.19 77.342 0.762 8.38 4416 7.67
7/8/2021 5:30:00 PM 25.14 77.252 0.762 8.38 4417 7.43
7/8/2021 5:45:00 PM 25.13 77.234 0.766 8.37 4406 7.41
7/8/2021 6:00:00 PM 25.1 77.18 0.768 8.36 4377 7.2
7/8/2021 6:15:00 PM 25.09 77.162 0.768 8.35 4388 7.12
7/8/2021 6:30:00 PM 25.08 77.144 0.768 8.35 4391 7.04
7/8/2021 6:45:00 PM 25.07 77.126 0.767 8.34 4342 7.02
7/8/2021 7:00:00 PM 25.04 77.07201 0.766 8.34 4312 6.95
7/8/2021 7:15:00 PM 25.01 77.018 0.767 8.34 4242 6.83
7/8/2021 7:30:00 PM 24.99 76.982 0.767 8.34 4169 6.73
7/8/2021 7:45:00 PM 24.96 76.92799 0.767 8.33 4245 6.62
7/8/2021 8:00:00 PM 24.93 76.874 0.768 8.32 4242 6.58
7/8/2021 8:15:00 PM 24.9 76.82 0.768 8.32 4246 6.5
7/8/2021 8:30:00 PM 24.88 76.784 0.769 8.32 4328 6.4
7/8/2021 8:45:00 PM 24.84 76.712 0.766 8.31 4277 6.31
7/8/2021 9:00:00 PM 24.82 76.676 0.766 8.3 4214 6.27
7/8/2021 9:15:00 PM 24.8 76.64 0.767 8.29 4261 6.18
7/8/2021 9:30:00 PM 24.78 76.604 0.768 8.28 4314 6.12
7/8/2021 9:45:00 PM 24.76 76.568 0.769 8.28 4346 6.07
7/8/2021 10:00:00 PM 24.74 76.532 0.769 8.27 4371 6
7/8/2021 10:15:00 PM 24.71 76.478 0.77 8.26 4253 5.98
7/8/2021 10:30:00 PM 24.68 76.424 0.768 8.25 4259 5.93
7/8/2021 10:45:00 PM 24.64 76.352 0.765 8.24 3604 5.89
7/8/2021 11:00:00 PM 24.59 76.262 0.762 8.23 3327 5.84
7/8/2021 11:15:00 PM 24.53 76.154 0.76 8.22 2835 5.81
7/8/2021 11:30:00 PM 24.46 76.028 0.759 8.21 2657 5.82
7/8/2021 11:45:00 PM 24.42 75.956 0.76 8.2 2743 5.74
7/9/2021 12:00:00 AM 24.37 75.866 0.761 8.19 2653 5.72
7/9/2021 12:15:00 AM 24.33 75.794 0.763 8.19 1332 5.74
7/9/2021 12:30:00 AM 24.29 75.722 0.765 8.19 1381 5.73
7/9/2021 12:45:00 AM 24.24 75.632 0.767 8.18 1360 5.69
7/9/2021 1:00:00 AM 24.21 75.578 0.769 8.17 1145 5.69
7/9/2021 1:15:00 AM 24.17 75.506 0.771 8.17 1158 5.68
7/9/2021 1:30:00 AM 24.14 75.452 0.773 8.17 1329 5.7
7/9/2021 1:45:00 AM 24.12 75.416 0.773 8.16 1033 5.68
7/9/2021 2:00:00 AM 24.07 75.326 0.771 8.16 701.3 5.71
7/9/2021 2:15:00 AM 24.03 75.254 0.769 8.15 707.7 5.72
7/9/2021 2:30:00 AM 23.97 75.146 0.767 8.15 688.7 5.68
7/9/2021 2:45:00 AM 23.92 75.056 0.763 8.14 334.1 5.7
7/9/2021 3:00:00 AM 23.86 74.948 0.761 8.13 307.7 5.7
7/9/2021 3:15:00 AM 23.8 74.84 0.759 8.13 313.7 5.68
7/9/2021 3:30:00 AM 23.77 74.786 0.758 8.12 328.9 5.67
7/9/2021 3:45:00 AM 23.74 74.732 0.757 8.12 374.5 5.64
7/9/2021 4:00:00 AM 23.71 74.67799 0.758 8.12 317 5.64
7/9/2021 4:15:00 AM 23.68 74.624 0.759 8.11 316.6 5.7
7/9/2021 4:30:00 AM 23.64 74.552 0.76 8.11 312.1 5.68
7/9/2021 4:45:00 AM 23.62 74.516 0.761 8.1 185.6 5.69
7/9/2021 5:00:00 AM 23.59 74.462 0.761 8.1 193.6 5.69
7/9/2021 5:15:00 AM 23.57 74.426 0.761 8.1 704.1 5.7
7/9/2021 5:30:00 AM 23.53 74.354 0.761 8.1 648.1 5.76
7/9/2021 5:45:00 AM 23.5 74.3 0.761 8.1 281.6 5.79
7/9/2021 6:00:00 AM 23.46 74.228 0.76 8.1 267.6 5.74
7/9/2021 6:15:00 AM 23.42 74.156 0.76 8.1 269.9 5.79
7/9/2021 6:30:00 AM 23.39 74.102 0.76 8.1 267.3 5.79
7/9/2021 6:45:00 AM 23.37 74.066 0.76 8.11 265.5 5.86
7/9/2021 7:00:00 AM 23.35 74.03 0.76 8.1 267.8 5.93
7/9/2021 7:15:00 AM 23.32 73.976 0.76 8.1 267.4 6.02
7/9/2021 7:30:00 AM 23.3 73.94 0.759 8.11 47.34 6.12
7/9/2021 7:45:00 AM 23.27 73.886 0.756 8.11 39.46 6.17
7/9/2021 8:00:00 AM 23.23 73.814 0.753 8.12 43.99 6.2
7/9/2021 8:15:00 AM 23.18 73.724 0.747 8.12 42.71 6.24
7/9/2021 8:30:00 AM 23.14 73.652 0.741 8.12 45.54 6.22
7/9/2021 8:45:00 AM 23.1 73.58 0.737 8.12 43.12 6.33
7/9/2021 9:00:00 AM 23.08 73.544 0.735 8.13 40.1 6.34
7/9/2021 9:15:00 AM 23.07 73.526 0.732 8.13 45.24 6.36
7/9/2021 9:30:00 AM 23.11 73.598 0.731 8.13 46.78 6.41
7/9/2021 9:45:00 AM 23.15 73.67 0.729 8.13 61.95 6.48
7/9/2021 10:00:00 AM 23.23 73.814 0.728 8.13 49.75 6.55
7/9/2021 10:15:00 AM 23.3 73.94 0.727 8.13 47.24 6.65
7/9/2021 10:30:00 AM 23.43 74.174 0.726 8.13 46.22 6.67
7/9/2021 10:45:00 AM 23.5 74.3 0.727 8.14 50.45 6.79
7/9/2021 11:00:00 AM 23.57 74.426 0.727 8.14 56.77 6.85
7/9/2021 11:15:00 AM 23.64 74.552 0.728 8.14 51.12 6.9
7/9/2021 11:30:00 AM 23.76 74.768 0.728 8.14 36.47 6.97
7/9/2021 11:45:00 AM 23.9 75.02 0.728 8.15 61.4 7.07
7/9/2021 12:00:00 PM 24.07 75.326 0.727 8.15 29.79 7.18
7/9/2021 12:15:00 PM 24.18 75.524 0.727 8.15 27.56 7.28
7/9/2021 12:30:00 PM 24.37 75.866 0.725 8.16 27.48 7.41
7/9/2021 12:45:00 PM 24.43 75.974 0.724 8.16 27.91 7.47
7/9/2021 1:00:00 PM 24.54 76.172 0.724 8.16 32.21 7.55
7/9/2021 1:15:00 PM 24.64 76.352 0.724 8.17 28.54 7.61
7/9/2021 1:30:00 PM 24.7 76.46 0.724 8.17 27.5 7.64
7/9/2021 1:45:00 PM 24.82 76.676 0.726 8.18 27.71 7.71
7/9/2021 2:00:00 PM 24.83 76.694 0.728 8.18 27.18 7.73
7/9/2021 2:15:00 PM 24.99 76.982 0.731 8.19 27.75 7.75
7/9/2021 2:30:00 PM 25.17 77.306 0.735 8.19 26.89 7.83
7/9/2021 2:45:00 PM 25.29 77.522 0.739 8.2 27.13 7.9
7/9/2021 3:00:00 PM 25.27 77.486 0.744 8.2 27.58 7.84
7/9/2021 3:15:00 PM 25.29 77.522 0.748 8.22 31.13 7.83
7/9/2021 3:30:00 PM 25.42 77.756 0.753 8.22 27.33 7.8
7/9/2021 3:45:00 PM 25.44 77.792 0.758 8.23 27.68 7.72
7/9/2021 4:00:00 PM 25.43 77.774 0.763 8.23 28.29 7.68
7/9/2021 4:15:00 PM 25.4 77.72 0.766 8.24 28.38 7.6
7/9/2021 4:30:00 PM 25.38 77.684 0.77 8.24 28.15 7.56
7/9/2021 4:45:00 PM 25.35 77.63 0.773 8.23 28.53 7.37
7/9/2021 5:00:00 PM 25.32 77.576 0.776 8.24 28.84 7.25
7/9/2021 5:15:00 PM 25.32 77.576 0.778 8.24 28.66 7.15
7/9/2021 5:30:00 PM 25.34 77.612 0.78 8.23 29.41 7.16
7/9/2021 5:45:00 PM 25.37 77.666 0.781 8.24 28.8 7.2
7/9/2021 6:00:00 PM 25.3 77.54 0.783 8.24 28.46 7.11
7/9/2021 6:15:00 PM 25.17 77.306 0.784 8.24 28.79 6.92
7/9/2021 6:30:00 PM 25.03 77.054 0.777 8.22 29.84 6.75
7/9/2021 6:45:00 PM 24.96 76.92799 0.774 8.22 30.44 6.72
7/9/2021 7:00:00 PM 24.95 76.91 0.777 8.22 29.68 6.71
7/9/2021 7:15:00 PM 24.96 76.92799 0.781 8.22 29.97 6.67
7/9/2021 7:30:00 PM 24.93 76.874 0.784 8.21 30.17 6.6
7/9/2021 7:45:00 PM 24.9 76.82 0.786 8.21 29.98 6.58
7/9/2021 8:00:00 PM 24.87 76.766 0.788 8.21 30.03 6.5
7/9/2021 8:15:00 PM 24.81 76.658 0.79 8.2 30.18 6.4
7/9/2021 8:30:00 PM 24.75 76.55 0.792 8.19 151.1 6.31
7/9/2021 8:45:00 PM 24.69 76.442 0.794 8.19 23.28 6.27
7/9/2021 9:00:00 PM 24.64 76.352 0.796 8.18 23.81 6.14
7/9/2021 9:15:00 PM 24.59 76.262 0.797 8.18 19.39 6.17
7/9/2021 9:30:00 PM 24.54 76.172 0.799 8.17 19.11 6.12
7/9/2021 9:45:00 PM 24.49 76.082 0.8 8.17 30.18 6.05
7/9/2021 10:00:00 PM 24.44 75.992 0.802 8.16 21.21 6.01
7/9/2021 10:15:00 PM 24.39 75.902 0.803 8.16 20.45 5.99
7/9/2021 10:30:00 PM 24.34 75.812 0.804 8.15 20.35 5.95
7/9/2021 10:45:00 PM 24.28 75.704 0.804 8.14 20.87 5.93
7/9/2021 11:00:00 PM 24.23 75.614 0.804 8.14 21.22 5.89
7/9/2021 11:15:00 PM 24.18 75.524 0.805 8.13 19.52 5.87
7/9/2021 11:30:00 PM 24.12 75.416 0.804 8.12 19.62 5.86
7/9/2021 11:45:00 PM 24.07 75.326 0.804 8.12 19.98 5.86
7/10/2021 12:00:00 AM 24.01 75.218 0.803 8.11 21.4 5.86
7/10/2021 12:15:00 AM 23.95 75.11 0.8 8.11 21.02 5.84
7/10/2021 12:30:00 AM 23.88 74.984 0.798 8.11 21.02 5.82
7/10/2021 12:45:00 AM 23.82 74.876 0.797 8.1 18.17 5.85
7/10/2021 1:00:00 AM 23.75 74.75 0.796 8.1 95.91 5.86
7/10/2021 1:15:00 AM 23.68 74.624 0.795 8.1 17.21 5.87
7/10/2021 1:30:00 AM 23.61 74.498 0.795 8.1 17.74 5.89
7/10/2021 1:45:00 AM 23.53 74.354 0.795 8.09 21.04 5.89
7/10/2021 2:00:00 AM 23.45 74.21 0.794 8.1 19.55 5.88
7/10/2021 2:15:00 AM 23.37 74.066 0.793 8.1 25.03 5.93
7/10/2021 2:30:00 AM 23.29 73.922 0.792 8.09 23.48 5.94
7/10/2021 2:45:00 AM 23.22 73.796 0.791 8.09 21.8 5.97
7/10/2021 3:00:00 AM 23.14 73.652 0.79 8.09 23.72 5.98
7/10/2021 3:15:00 AM 23.07 73.526 0.789 8.09 24.84 6.02
7/10/2021 3:30:00 AM 23 73.4 0.787 8.08 31.05 6.01
7/10/2021 3:45:00 AM 22.92 73.256 0.785 8.08 28.51 6.03
7/10/2021 4:00:00 AM 22.85 73.13 0.783 8.07 22.86 6.05
7/10/2021 4:15:00 AM 22.78 73.004 0.781 8.08 18.49 6.07
7/10/2021 4:30:00 AM 22.7 72.86 0.778 8.08 19.25 6.1
7/10/2021 4:45:00 AM 22.64 72.752 0.776 8.08 19.82 6.15
7/10/2021 5:00:00 AM 22.57 72.626 0.773 8.08 20.76 6.17
7/10/2021 5:15:00 AM 22.5 72.5 0.77 8.08 18.48 6.22
7/10/2021 5:30:00 AM 22.44 72.392 0.768 8.08 20.68 6.23
7/10/2021 5:45:00 AM 22.38 72.284 0.766 8.09 25.15 6.27
7/10/2021 6:00:00 AM 22.32 72.176 0.765 8.11 21.89 6.3
7/10/2021 6:15:00 AM 22.28 72.104 0.764 8.11 21.92 6.34
7/10/2021 6:30:00 AM 22.25 72.05 0.766 8.13 22.56 6.36
7/10/2021 6:45:00 AM 22.22 71.996 0.768 8.14 22.64 6.41
7/10/2021 7:00:00 AM 22.2 71.96 0.772 8.14 27.57 6.45
7/10/2021 7:15:00 AM 22.18 71.924 0.777 8.14 23.22 6.49
7/10/2021 7:30:00 AM 22.16 71.888 0.783 8.14 23.91 6.52
7/10/2021 7:45:00 AM 22.16 71.888 0.79 8.14 23.43 6.56
7/10/2021 8:00:00 AM 22.15 71.87 0.798 8.14 26.63 6.58
7/10/2021 8:15:00 AM 22.14 71.852 0.806 8.14 25.14 6.63
7/10/2021 8:30:00 AM 22.13 71.834 0.814 8.14 30.2 6.65
7/10/2021 8:45:00 AM 22.13 71.834 0.821 8.14 26.33 6.66
7/10/2021 9:00:00 AM 22.13 71.834 0.828 8.14 25.04 6.68
7/10/2021 9:15:00 AM 22.14 71.852 0.834 8.15 24.34 6.73
7/10/2021 9:30:00 AM 22.18 71.924 0.839 8.15 26.66 6.83
7/10/2021 9:45:00 AM 22.23 72.014 0.843 8.15 26.24 6.91
7/10/2021 10:00:00 AM 22.31 72.158 0.847 8.16 26.16 7.02
7/10/2021 10:15:00 AM 22.35 72.23 0.85 8.17 27.14 7.11
7/10/2021 10:30:00 AM 22.37 72.266 0.852 8.18 25.85 7.11
7/10/2021 10:45:00 AM 22.45 72.41 0.855 8.17 28.4 7.16
7/10/2021 11:00:00 AM 22.56 72.608 0.857 8.18 28.13 7.27
7/10/2021 11:15:00 AM 22.59 72.662 0.859 8.19 26 7.38
7/10/2021 11:30:00 AM 22.64 72.752 0.861 8.2 26.48 7.43
7/10/2021 11:45:00 AM 22.69 72.842 0.863 8.2 25.73 7.55
7/10/2021 12:00:00 PM 22.71 72.878 0.863 8.21 26.78 7.54
7/10/2021 12:15:00 PM 22.72 72.896 0.865 8.21 27.4 7.52
7/10/2021 12:30:00 PM 22.75 72.95 0.866 8.21 27.84 7.52
7/10/2021 12:45:00 PM 22.8 73.04 0.867 8.21 27.32 7.52
7/10/2021 1:00:00 PM 22.88 73.184 0.868 8.22 27.54 7.62
7/10/2021 1:15:00 PM 23.07 73.526 0.869 8.23 27.62 7.75
7/10/2021 1:30:00 PM 23.22 73.796 0.87 8.24 27.13 7.97
7/10/2021 1:45:00 PM 23.4 74.12 0.87 8.25 28.5 8.06
7/10/2021 2:00:00 PM 23.61 74.498 0.872 8.26 27.71 8.2
7/10/2021 2:15:00 PM 23.57 74.426 0.873 8.26 30.97 8.16
7/10/2021 2:30:00 PM 23.56 74.408 0.873 8.27 68.24 8.12
7/10/2021 2:45:00 PM 23.53 74.354 0.873 8.28 27.04 8.07
7/10/2021 3:00:00 PM 23.73 74.714 0.873 8.28 29.83 8.12
7/10/2021 3:15:00 PM 23.89 75.002 0.874 8.28 26.65 8.22
7/10/2021 3:30:00 PM 24 75.2 0.874 8.29 26.68 8.24
7/10/2021 3:45:00 PM 23.95 75.11 0.874 8.3 27.16 8.18
7/10/2021 4:00:00 PM 23.86 74.948 0.874 8.3 27.76 8.07
7/10/2021 4:15:00 PM 23.9 75.02 0.874 8.3 28.27 7.94
7/10/2021 4:30:00 PM 23.96 75.128 0.873 8.3 27.62 7.93
7/10/2021 4:45:00 PM 23.96 75.128 0.873 8.3 27.7 7.95
7/10/2021 5:00:00 PM 23.95 75.11 0.875 8.31 27.87 7.85
7/10/2021 5:15:00 PM 23.93 75.074 0.873 8.31 27.76 7.79
7/10/2021 5:30:00 PM 23.93 75.074 0.873 8.31 28.41 7.72
7/10/2021 5:45:00 PM 23.88 74.984 0.87 8.31 29.46 7.64
7/10/2021 6:00:00 PM 23.86 74.948 0.871 8.31 28.66 7.59
7/10/2021 6:15:00 PM 23.82 74.876 0.87 8.31 29.31 7.54
7/10/2021 6:30:00 PM 23.79 74.82201 0.87 8.31 28.82 7.44
7/10/2021 6:45:00 PM 23.8 74.84 0.867 8.31 30.38 7.41
7/10/2021 7:00:00 PM 23.8 74.84 0.867 8.31 29.73 7.37
7/10/2021 7:15:00 PM 23.79 74.82201 0.866 8.31 29.97 7.27
7/10/2021 7:30:00 PM 23.77 74.786 0.865 8.3 29.95 7.21
7/10/2021 7:45:00 PM 23.75 74.75 0.864 8.3 30.3 7.14
7/10/2021 8:00:00 PM 23.72 74.696 0.861 8.29 29.8 7.07
7/10/2021 8:15:00 PM 23.68 74.624 0.86 8.28 30.47 6.99
7/10/2021 8:30:00 PM 23.64 74.552 0.862 8.28 30.51 6.9
7/10/2021 8:45:00 PM 23.59 74.462 0.862 8.27 30.35 6.82
7/10/2021 9:00:00 PM 23.55 74.39 0.861 8.26 24.87 6.76
7/10/2021 9:15:00 PM 23.51 74.318 0.861 8.26 24.01 6.67
7/10/2021 9:30:00 PM 23.47 74.246 0.861 8.25 24.2 6.63
7/10/2021 9:45:00 PM 23.42 74.156 0.86 8.24 23.49 6.57
7/10/2021 10:00:00 PM 23.38 74.084 0.861 8.24 25.72 6.52
7/10/2021 10:15:00 PM 23.34 74.012 0.861 8.23 26.34 6.47
7/10/2021 10:30:00 PM 23.29 73.922 0.862 8.22 26.97 6.44
7/10/2021 10:45:00 PM 23.24 73.832 0.863 8.21 27.25 6.38
7/10/2021 11:00:00 PM 23.2 73.76 0.864 8.21 27.03 6.34
7/10/2021 11:15:00 PM 23.15 73.67 0.865 8.2 26.17 6.29
7/10/2021 11:30:00 PM 23.11 73.598 0.866 8.2 27.71 6.24
7/10/2021 11:45:00 PM 23.06 73.508 0.863 8.19 27.84 6.25
7/11/2021 12:00:00 AM 23.01 73.418 0.869 8.19 27.16 6.23
7/11/2021 12:15:00 AM 22.97 73.346 0.87 8.18 26.71 6.19
7/11/2021 12:30:00 AM 22.92 73.256 0.871 8.18 25.82 6.2
7/11/2021 12:45:00 AM 22.88 73.184 0.873 8.17 25.85 6.18
7/11/2021 1:00:00 AM 22.82 73.076 0.874 8.17 25.96 6.19
7/11/2021 1:15:00 AM 22.77 72.986 0.875 8.17 24.21 6.19
7/11/2021 1:30:00 AM 22.72 72.896 0.876 8.17 25.02 6.17
7/11/2021 1:45:00 AM 22.67 72.806 0.877 8.16 26.04 6.15
7/11/2021 2:00:00 AM 22.62 72.716 0.878 8.16 26.02 6.15
7/11/2021 2:15:00 AM 22.57 72.626 0.879 8.16 26.55 6.17
7/11/2021 2:30:00 AM 22.52 72.536 0.881 8.15 26.09 6.16
7/11/2021 2:45:00 AM 22.48 72.464 0.882 8.15 28.11 6.15
7/11/2021 3:00:00 AM 22.44 72.392 0.883 8.14 26.36 6.15
7/11/2021 3:15:00 AM 22.4 72.32 0.884 8.15 26.79 6.16
7/11/2021 3:30:00 AM 22.37 72.266 0.885 8.15 27.06 6.14
7/11/2021 3:45:00 AM 22.34 72.212 0.886 8.14 27.24 6.17
7/11/2021 4:00:00 AM 22.3 72.14 0.887 8.15 28.4 6.15
7/11/2021 4:15:00 AM 22.26 72.068 0.888 8.15 26.14 6.15
7/11/2021 4:30:00 AM 22.22 71.996 0.889 8.15 26.04 6.16
7/11/2021 4:45:00 AM 22.18 71.924 0.89 8.15 25.95 6.17
7/11/2021 5:00:00 AM 22.15 71.87 0.891 8.15 27.73 6.17
7/11/2021 5:15:00 AM 22.12 71.816 0.891 8.14 28.93 6.21
7/11/2021 5:30:00 AM 22.08 71.744 0.892 8.15 26.25 6.22
7/11/2021 5:45:00 AM 22.06 71.708 0.892 8.15 26.41 6.2
7/11/2021 6:00:00 AM 22.03 71.654 0.893 8.15 25.82 6.21
7/11/2021 6:15:00 AM 22 71.6 0.893 8.15 27.21 6.21
7/11/2021 6:30:00 AM 21.97 71.546 0.893 8.15 27.25 6.22
7/11/2021 6:45:00 AM 21.93 71.474 0.89 8.15 27.44 6.27
7/11/2021 7:00:00 AM 21.9 71.42 0.887 8.15 27.84 6.32
7/11/2021 7:15:00 AM 21.89 71.402 0.886 8.15 26.95 6.33
7/11/2021 7:30:00 AM 21.88 71.384 0.887 8.15 27.82 6.35
7/11/2021 7:45:00 AM 21.88 71.384 0.886 8.15 27.35 6.39
7/11/2021 8:00:00 AM 21.89 71.402 0.885 8.15 27.37 6.44
7/11/2021 8:15:00 AM 21.9 71.42 0.883 8.15 29.06 6.51
7/11/2021 8:30:00 AM 21.9 71.42 0.881 8.16 29.58 6.56
7/11/2021 8:45:00 AM 21.9 71.42 0.878 8.16 31.46 6.59
7/11/2021 9:00:00 AM 21.9 71.42 0.875 8.16 29.05 6.61
7/11/2021 9:15:00 AM 21.9 71.42 0.871 8.16 28.43 6.65
7/11/2021 9:30:00 AM 21.91 71.438 0.868 8.16 28.3 6.7
7/11/2021 9:45:00 AM 21.9 71.42 0.863 8.16 28.8 6.72
7/11/2021 10:00:00 AM 21.91 71.438 0.858 8.16 30.85 6.74
7/11/2021 10:15:00 AM 21.93 71.474 0.853 8.16 29.82 6.82
7/11/2021 10:30:00 AM 21.93 71.474 0.847 8.16 29.33 6.86
7/11/2021 10:45:00 AM 21.92 71.456 0.834 8.17 29.65 6.9
7/11/2021 11:00:00 AM 21.95 71.51 0.826 8.17 35.44 6.96
7/11/2021 11:15:00 AM 21.99 71.582 0.819 8.17 132.9 7.02
7/11/2021 11:30:00 AM 22.1 71.78 0.813 8.17 29.69 7.12
7/11/2021 11:45:00 AM 22.26 72.068 0.807 8.18 30.04 7.29
7/11/2021 12:00:00 PM 22.49 72.482 0.798 8.18 29.61 7.52
7/11/2021 12:15:00 PM 22.65 72.77 0.79 8.19 30.66 7.7
7/11/2021 12:30:00 PM 22.68 72.824 0.782 8.2 30.29 7.81
7/11/2021 12:45:00 PM 22.73 72.914 0.774 8.2 30.57 7.83
7/11/2021 1:00:00 PM 22.75 72.95 0.764 8.21 30.11 7.85
7/11/2021 1:15:00 PM 22.9 73.22 0.757 8.21 30.56 7.94
7/11/2021 1:30:00 PM 23.08 73.544 0.748 8.21 30.3 8.08
7/11/2021 1:45:00 PM 23.25 73.85 0.74 8.21 30.46 8.16
7/11/2021 2:00:00 PM 23.38 74.084 0.734 8.21 30.4 8.22
7/11/2021 2:15:00 PM 23.49 74.282 0.727 8.22 30.49 8.29
7/11/2021 2:30:00 PM 23.6 74.48 0.721 8.22 30.43 8.36
7/11/2021 2:45:00 PM 23.65 74.57 0.716 8.22 31.38 8.33
7/11/2021 3:00:00 PM 23.76 74.768 0.709 8.23 32.15 8.36
7/11/2021 3:15:00 PM 23.77 74.786 0.704 8.23 32.6 8.34
7/11/2021 3:30:00 PM 23.8 74.84 0.698 8.24 32.7 8.34
7/11/2021 3:45:00 PM 23.84 74.912 0.694 8.24 33.2 8.28
7/11/2021 4:00:00 PM 23.83 74.894 0.689 8.25 32.97 8.23
7/11/2021 4:15:00 PM 23.9 75.02 0.684 8.24 32.31 8.19
7/11/2021 4:30:00 PM 23.94 75.092 0.681 8.24 34.1 8.17
7/11/2021 4:45:00 PM 23.95 75.11 0.678 8.24 33.86 8.08
7/11/2021 5:00:00 PM 23.92 75.056 0.678 8.25 34.25 8
7/11/2021 5:15:00 PM 23.9 75.02 0.677 8.24 33.23 7.86
7/11/2021 5:30:00 PM 23.95 75.11 0.677 8.24 33.44 7.78
7/11/2021 5:45:00 PM 23.97 75.146 0.678 8.23 34.79 7.72
7/11/2021 6:00:00 PM 23.99 75.182 0.678 8.23 34.93 7.61
7/11/2021 6:15:00 PM 24.02 75.236 0.678 8.22 34.04 7.47
7/11/2021 6:30:00 PM 24.08 75.344 0.678 8.22 33.51 7.39
7/11/2021 6:45:00 PM 24.11 75.398 0.678 8.21 33.17 7.3
7/11/2021 7:00:00 PM 24.12 75.416 0.679 8.2 33.46 7.18
7/11/2021 7:15:00 PM 24.15 75.47 0.68 8.19 33.87 7.06
7/11/2021 7:30:00 PM 24.19 75.542 0.681 8.19 33.95 7.01
7/11/2021 7:45:00 PM 24.2 75.56 0.683 8.18 34 6.9
7/11/2021 8:00:00 PM 24.22 75.596 0.686 8.17 33.51 6.8
7/11/2021 8:15:00 PM 24.24 75.632 0.688 8.16 763.6 6.71
7/11/2021 8:30:00 PM 24.25 75.65 0.691 8.16 34.04 6.62
7/11/2021 8:45:00 PM 24.27 75.686 0.694 8.15 33.71 6.53
7/11/2021 9:00:00 PM 24.27 75.686 0.696 8.14 34.21 6.45
7/11/2021 9:15:00 PM 24.26 75.668 0.699 8.14 33.76 6.38
7/11/2021 9:30:00 PM 24.25 75.65 0.701 8.13 34.17 6.3
7/11/2021 9:45:00 PM 24.25 75.65 0.704 8.12 33.81 6.26
7/11/2021 10:00:00 PM 24.24 75.632 0.706 8.12 33.02 6.19
7/11/2021 10:15:00 PM 24.22 75.596 0.708 8.11 34.37 6.16
7/11/2021 10:30:00 PM 24.2 75.56 0.71 8.1 35.25 6.12
7/11/2021 10:45:00 PM 24.19 75.542 0.711 8.1 34.27 6.08
7/11/2021 11:00:00 PM 24.18 75.524 0.712 8.09 35.66 6.04
7/11/2021 11:15:00 PM 24.15 75.47 0.713 8.08 35.16 5.93
7/11/2021 11:30:00 PM 24.14 75.452 0.714 8.08 33.73 5.95
7/11/2021 11:45:00 PM 24.11 75.398 0.715 8.08 34.34 5.92
7/12/2021 12:00:00 AM 24.08 75.344 0.716 8.07 29.74 5.88
7/12/2021 12:15:00 AM 24.05 75.29 0.717 8.07 32.73 5.86
7/12/2021 12:30:00 AM 24.02 75.236 0.718 8.06 30.94 5.82
7/12/2021 12:45:00 AM 23.99 75.182 0.72 8.06 30.13 5.81
7/12/2021 1:00:00 AM 23.96 75.128 0.722 8.06 36.22 5.78
7/12/2021 1:15:00 AM 23.93 75.074 0.724 8.05 30.85 5.86
7/12/2021 1:30:00 AM 23.89 75.002 0.724 8.05 29.82 5.87
7/12/2021 1:45:00 AM 23.85 74.93 0.725 8.05 30.16 5.87
7/12/2021 2:00:00 AM 23.82 74.876 0.73 8.05 30.13 5.89
7/12/2021 2:15:00 AM 23.78 74.804 0.733 8.05 30.55 5.86
7/12/2021 2:30:00 AM 23.74 74.732 0.734 8.05 30.43 5.89
7/12/2021 2:45:00 AM 23.7 74.66 0.737 8.04 31.47 5.86
7/12/2021 3:00:00 AM 23.65 74.57 0.74 8.05 33.34 5.88
7/12/2021 3:15:00 AM 23.61 74.498 0.741 8.04 38.02 5.86
7/12/2021 3:30:00 AM 23.56 74.408 0.742 8.04 38.75 5.86
7/12/2021 3:45:00 AM 23.51 74.318 0.744 8.04 38.4 5.85
7/12/2021 4:00:00 AM 23.47 74.246 0.745 8.04 43.07 5.99
7/12/2021 4:15:00 AM 23.43 74.174 0.745 8.05 43.21 6.07
7/12/2021 4:30:00 AM 23.39 74.102 0.745 8.04 42.91 6.01
7/12/2021 4:45:00 AM 23.35 74.03 0.745 8.04 41.87 6.02
7/12/2021 5:00:00 AM 23.31 73.958 0.745 8.04 46.14 6.02
7/12/2021 5:15:00 AM 23.27 73.886 0.744 8.04 42.92 6
7/12/2021 5:30:00 AM 23.22 73.796 0.744 8.04 47.6 6.02
7/12/2021 5:45:00 AM 23.17 73.706 0.744 8.04 48.1 6.05
7/12/2021 6:00:00 AM 23.13 73.634 0.743 8.04 45.77 6.05
7/12/2021 6:15:00 AM 23.09 73.562 0.743 8.04 45.6 5.98
7/12/2021 6:30:00 AM 23.05 73.49 0.744 8.04 43.99 5.98
7/12/2021 6:45:00 AM 23.02 73.436 0.744 8.03 46.56 6.1
7/12/2021 7:00:00 AM 22.99 73.382 0.745 8.04 45.8 6.15
7/12/2021 7:15:00 AM 22.96 73.328 0.746 8.04 48.41 6.17
7/12/2021 7:30:00 AM 22.94 73.292 0.747 8.04 50.21 6.18
7/12/2021 7:45:00 AM 22.92 73.256 0.748 8.05 47.25 6.25
7/12/2021 8:00:00 AM 22.91 73.238 0.75 8.05 51.78 6.24
7/12/2021 8:15:00 AM 22.9 73.22 0.751 8.05 54.19 6.31
7/12/2021 8:30:00 AM 22.89 73.202 0.753 8.05 51.75 6.32
7/12/2021 8:45:00 AM 22.89 73.202 0.755 8.05 67.7 6.34
7/12/2021 9:00:00 AM 22.89 73.202 0.756 8.06 50.25 6.42
7/12/2021 9:15:00 AM 22.91 73.238 0.758 8.06 54.87 6.46
7/12/2021 9:30:00 AM 22.93 73.274 0.76 8.06 50.28 6.51
7/12/2021 9:45:00 AM 22.96 73.328 0.762 8.06 51.07 6.59
7/12/2021 10:00:00 AM 23.03 73.454 0.764 8.06 54.79 6.68
7/12/2021 10:15:00 AM 23.11 73.598 0.766 8.07 54.96 6.81
7/12/2021 10:30:00 AM 23.27 73.886 0.768 8.07 50.41 6.95
7/12/2021 10:45:00 AM 23.41 74.138 0.77 8.08 47.62 7.09
7/12/2021 11:00:00 AM 23.56 74.408 0.771 8.09 48.64 7.21
7/12/2021 11:15:00 AM 23.7 74.66 0.774 8.1 47.53 7.34
7/12/2021 11:30:00 AM 23.85 74.93 0.775 8.1 51.22 7.46
7/12/2021 11:45:00 AM 24.03 75.254 0.777 8.09 49.13 7.57
7/12/2021 12:00:00 PM 24.2 75.56 0.778 8.08 50.62 7.68
7/12/2021 12:15:00 PM 24.42 75.956 0.78 8.09 54.23 7.82
7/12/2021 12:30:00 PM 24.52 76.136 0.781 8.11 55.18 7.9
7/12/2021 12:45:00 PM 24.7 76.46 0.783 8.13 51.52 8.01
7/12/2021 1:00:00 PM 24.83 76.694 0.784 8.13 52.6 8.03
7/12/2021 1:15:00 PM 24.98 76.964 0.786 8.14 48.29 8.11
7/12/2021 1:30:00 PM 25.11 77.198 0.787 8.15 48.66 8.16
7/12/2021 1:45:00 PM 25.03 77.054 0.788 8.15 47.41 8.12
7/12/2021 2:00:00 PM 24.92 76.856 0.789 8.16 52.42 7.98
7/12/2021 2:15:00 PM 24.92 76.856 0.79 8.16 63.9 7.89
7/12/2021 2:30:00 PM 24.93 76.874 0.791 8.16 53.07 7.91
7/12/2021 2:45:00 PM 25.04 77.07201 0.792 8.16 48.98 7.89
7/12/2021 3:00:00 PM 25.28 77.504 0.793 8.15 52.62 7.95
7/12/2021 3:15:00 PM 25.44 77.792 0.794 8.15 51.11 8.04
7/12/2021 3:30:00 PM 25.52 77.936 0.796 8.16 55.88 8.02
7/12/2021 3:45:00 PM 25.61 78.098 0.797 8.16 50.75 7.97
7/12/2021 4:00:00 PM 25.57 78.026 0.799 8.16 50.59 7.84
7/12/2021 4:15:00 PM 25.59 78.062 0.8 8.17 50.65 7.8
7/12/2021 4:30:00 PM 25.63 78.134 0.801 8.18 50.84 7.76
7/12/2021 4:45:00 PM 25.67 78.206 0.803 8.18 51.44 7.72
7/12/2021 5:00:00 PM 25.65 78.17 0.804 8.19 52.02 7.63
7/12/2021 5:15:00 PM 25.55 77.99 0.799 8.19 53.72 7.38
7/12/2021 5:30:00 PM 25.23 77.414 0.746 8.19 94.54 7.18
7/12/2021 5:45:00 PM 24.65 76.37 0.608 8.19 101.9 7.11
7/12/2021 6:00:00 PM 23.71 74.67799 0.218 8.19 383.4 6.92
7/12/2021 6:15:00 PM 23.81 74.858 0.201 8.12 206.1 7.07
7/12/2021 6:30:00 PM 23.68 74.624 0.161 8.02 290.4 7.1
7/12/2021 6:45:00 PM 24.05 75.29 0.315 7.93 197.4 7.22
7/12/2021 7:00:00 PM 24.51 76.118 0.537 7.94 273.9 7.16
7/12/2021 7:15:00 PM 24.44 75.992 0.492 7.99 630.2 6.75
7/12/2021 7:30:00 PM 24.35 75.83 0.313 7.93 1037 6.16
7/12/2021 7:45:00 PM 24.31 75.758 0.32 7.84 1206 6.36
7/12/2021 8:00:00 PM 24.36 75.848 0.316 7.79 861.3 6.43
7/12/2021 8:15:00 PM 24.43 75.974 0.334 7.74 705 6.39
7/12/2021 8:30:00 PM 24.49 76.082 0.35 7.71 555.7 6.46
7/12/2021 8:45:00 PM 24.49 76.082 0.304 7.7 509 6.39
7/12/2021 9:00:00 PM 24.37 75.866 0.256 7.68 602.3 6.29
7/12/2021 9:15:00 PM 24.28 75.704 0.242 7.65 658.2 6.27
7/12/2021 9:30:00 PM 24.25 75.65 0.235 7.62 577.1 6.3
7/12/2021 9:45:00 PM 24.28 75.704 0.227 7.61 633 6.34
7/12/2021 10:00:00 PM 24.32 75.776 0.229 7.59 472 6.39
7/12/2021 10:15:00 PM 24.35 75.83 0.237 7.58 444 6.44
7/12/2021 10:30:00 PM 24.36 75.848 0.241 7.57 359.5 6.5
7/12/2021 10:45:00 PM 24.33 75.794 0.244 7.57 413.6 6.56
7/12/2021 11:00:00 PM 24.31 75.758 0.256 7.58 370.6 6.6
7/12/2021 11:15:00 PM 24.27 75.686 0.273 7.57 318.6 6.63
7/12/2021 11:30:00 PM 24.23 75.614 0.286 7.58 284 6.67
7/12/2021 11:45:00 PM 24.18 75.524 0.285 7.58 387.8 6.69
7/13/2021 12:00:00 AM 24.13 75.434 0.27 7.59 326.3 6.7
7/13/2021 12:15:00 AM 24.09 75.362 0.254 7.59 336.3 6.7
7/13/2021 12:30:00 AM 24.04 75.272 0.248 7.59 317.8 6.69
7/13/2021 12:45:00 AM 24 75.2 0.256 7.58 309.6 6.67
7/13/2021 1:00:00 AM 23.96 75.128 0.285 7.58 296.2 6.68
7/13/2021 1:15:00 AM 23.92 75.056 0.328 7.58 257.6 6.68
7/13/2021 1:30:00 AM 23.9 75.02 0.372 7.6 276.8 6.72
7/13/2021 1:45:00 AM 23.9 75.02 0.396 7.63 279.2 6.71
7/13/2021 2:00:00 AM 23.9 75.02 0.405 7.65 301.8 6.71
7/13/2021 2:15:00 AM 23.89 75.002 0.399 7.67 330.6 6.71
7/13/2021 2:30:00 AM 23.84 74.912 0.383 7.68 388.4 6.69
7/13/2021 2:45:00 AM 23.78 74.804 0.361 7.68 360.6 6.69
7/13/2021 3:00:00 AM 23.72 74.696 0.34 7.67 358 6.66
7/13/2021 3:15:00 AM 23.65 74.57 0.323 7.66 307.3 6.67
7/13/2021 3:30:00 AM 23.59 74.462 0.309 7.64 291.6 6.68
7/13/2021 3:45:00 AM 23.55 74.39 0.3 7.63 328.7 6.68
7/13/2021 4:00:00 AM 23.51 74.318 0.294 7.62 327.3 6.68
7/13/2021 4:15:00 AM 23.49 74.282 0.292 7.62 330.9 6.69
7/13/2021 4:30:00 AM 23.47 74.246 0.289 7.61 281.4 6.71
7/13/2021 4:45:00 AM 23.45 74.21 0.288 7.62 276.3 6.72
7/13/2021 5:00:00 AM 23.43 74.174 0.287 7.61 259 6.73
7/13/2021 5:15:00 AM 23.41 74.138 0.287 7.61 243.7 6.74
7/13/2021 5:30:00 AM 23.4 74.12 0.285 7.61 229.6 6.75
7/13/2021 5:45:00 AM 23.37 74.066 0.284 7.61 229.5 6.73
7/13/2021 6:00:00 AM 23.35 74.03 0.282 7.61 237.5 6.74
7/13/2021 6:15:00 AM 23.33 73.994 0.28 7.61 228.6 6.73
7/13/2021 6:30:00 AM 23.32 73.976 0.279 7.6 233.9 6.71
7/13/2021 6:45:00 AM 23.29 73.922 0.278 7.6 228.3 6.72
7/13/2021 7:00:00 AM 23.28 73.904 0.277 7.6 221.3 6.71
7/13/2021 7:15:00 AM 23.26 73.868 0.275 7.6 214.9 6.7
7/13/2021 7:30:00 AM 23.24 73.832 0.275 7.59 214.8 6.69
7/13/2021 7:45:00 AM 23.22 73.796 0.275 7.59 277.4 6.64
7/13/2021 8:00:00 AM 23.21 73.778 0.276 7.59 229.3 6.63
7/13/2021 8:15:00 AM 23.2 73.76 0.276 7.58 257.9 6.64
7/13/2021 8:30:00 AM 23.18 73.724 0.277 7.59 303.3 6.61
7/13/2021 8:45:00 AM 23.18 73.724 0.277 7.58 282.3 6.66
7/13/2021 9:00:00 AM 23.17 73.706 0.281 7.58 283.8 6.64
7/13/2021 9:15:00 AM 23.18 73.724 0.283 7.58 318.6 6.62
7/13/2021 9:30:00 AM 23.18 73.724 0.285 7.58 321.9 6.65
7/13/2021 9:45:00 AM 23.2 73.76 0.288 7.58 345.1 6.62
7/13/2021 10:00:00 AM 23.23 73.814 0.29 7.59 347 6.66
7/13/2021 10:15:00 AM 23.25 73.85 0.294 7.59 362.3 6.66
7/13/2021 10:30:00 AM 23.24 73.832 0.296 7.59 263.8 6.63
7/13/2021 10:45:00 AM 23.26 73.868 0.299 7.59 277.6 6.63
7/13/2021 11:00:00 AM 23.26 73.868 0.303 7.59 286.2 6.64
7/13/2021 11:15:00 AM 23.29 73.922 0.306 7.6 267.1 6.65
7/13/2021 11:30:00 AM 23.35 74.03 0.309 7.6 289 6.66
7/13/2021 11:45:00 AM 23.39 74.102 0.312 7.6 317.6 6.65
7/13/2021 12:00:00 PM 23.46 74.228 0.315 7.6 334.9 6.69
7/13/2021 12:15:00 PM 23.47 74.246 0.319 7.6 356.3 6.66
7/13/2021 12:30:00 PM 23.61 74.498 0.322 7.6 365.8 6.68
7/13/2021 12:45:00 PM 23.75 74.75 0.325 7.6 418.9 6.73
7/13/2021 1:00:00 PM 23.9 75.02 0.328 7.6 411 6.74
7/13/2021 1:15:00 PM 23.98 75.164 0.332 7.6 443.9 6.74
7/13/2021 1:30:00 PM 24.08 75.344 0.335 7.61 446.6 6.74
7/13/2021 1:45:00 PM 24.19 75.542 0.338 7.61 457 6.75
7/13/2021 2:00:00 PM 24.24 75.632 0.341 7.61 467.4 6.72
7/13/2021 2:15:00 PM 24.36 75.848 0.344 7.62 488.8 6.7
7/13/2021 2:30:00 PM 24.37 75.866 0.347 7.62 482.3 6.68
7/13/2021 2:45:00 PM 24.36 75.848 0.35 7.63 494 6.64
7/13/2021 3:00:00 PM 24.35 75.83 0.353 7.63 514.4 6.62
7/13/2021 3:15:00 PM 24.41 75.938 0.356 7.63 539.6 6.61
7/13/2021 3:30:00 PM 24.46 76.028 0.359 7.63 551.6 6.63
7/13/2021 3:45:00 PM 24.55 76.19 0.362 7.63 573.9 6.6
7/13/2021 4:00:00 PM 24.57 76.226 0.365 7.64 585 6.6
7/13/2021 4:15:00 PM 24.63 76.334 0.368 7.64 613.9 6.56
7/13/2021 4:30:00 PM 24.66 76.388 0.37 7.64 622.7 6.59
7/13/2021 4:45:00 PM 24.72 76.496 0.373 7.64 656.1 6.55
7/13/2021 5:00:00 PM 24.69 76.442 0.375 7.64 673.9 6.49
7/13/2021 5:15:00 PM 24.73 76.514 0.378 7.64 683.8 6.46
7/13/2021 5:30:00 PM 24.75 76.55 0.38 7.64 698.7 6.43
7/13/2021 5:45:00 PM 24.76 76.568 0.383 7.64 727.6 6.43
7/13/2021 6:00:00 PM 24.76 76.568 0.385 7.64 721.5 6.36
7/13/2021 6:15:00 PM 24.77 76.586 0.387 7.64 720 6.31
7/13/2021 6:30:00 PM 24.78 76.604 0.39 7.64 727.2 6.3
7/13/2021 6:45:00 PM 24.78 76.604 0.392 7.64 754.7 6.25
7/13/2021 7:00:00 PM 24.8 76.64 0.394 7.64 793.9 6.22
7/13/2021 7:15:00 PM 24.8 76.64 0.396 7.64 817.1 6.18
7/13/2021 7:30:00 PM 24.79 76.622 0.398 7.64 862 6.17
7/13/2021 7:45:00 PM 24.78 76.604 0.4 7.64 901.4 6.16
7/13/2021 8:00:00 PM 24.76 76.568 0.402 7.64 921.1 6.11
7/13/2021 8:15:00 PM 24.73 76.514 0.404 7.64 942.8 6.09
7/13/2021 8:30:00 PM 24.7 76.46 0.406 7.64 969.9 6.06
7/13/2021 8:45:00 PM 24.67 76.406 0.408 7.64 1005 6.06
7/13/2021 9:00:00 PM 24.65 76.37 0.406 7.64 1014 6.04
7/13/2021 9:15:00 PM 24.62 76.316 0.412 7.64 879.1 6.01
7/13/2021 9:30:00 PM 24.6 76.28 0.413 7.64 932.9 5.98
7/13/2021 9:45:00 PM 24.57 76.226 0.414 7.64 950.8 5.98
7/13/2021 10:00:00 PM 24.54 76.172 0.415 7.64 976.1 6.01
7/13/2021 10:15:00 PM 24.51 76.118 0.416 7.64 1001 5.94
7/13/2021 10:30:00 PM 24.48 76.064 0.417 7.63 1055 5.95
7/13/2021 10:45:00 PM 24.44 75.992 0.418 7.64 1086 5.93
7/13/2021 11:00:00 PM 24.41 75.938 0.419 7.63 1091 5.9
7/13/2021 11:15:00 PM 24.37 75.866 0.421 7.63 1139 5.88
7/13/2021 11:30:00 PM 24.34 75.812 0.421 7.63 1162 5.87
7/13/2021 11:45:00 PM 24.31 75.758 0.422 7.63 1209 5.87
7/14/2021 12:00:00 AM 24.27 75.686 0.423 7.63 1230 5.88
7/14/2021 12:15:00 AM 24.24 75.632 0.424 7.62 1293 5.85
7/14/2021 12:30:00 AM 24.21 75.578 0.425 7.63 1326 5.85
7/14/2021 12:45:00 AM 24.18 75.524 0.425 7.63 1379 5.87
7/14/2021 1:00:00 AM 24.14 75.452 0.426 7.63 1393 5.87
7/14/2021 1:15:00 AM 24.1 75.38 0.427 7.63 1406 5.87
7/14/2021 1:30:00 AM 24.07 75.326 0.428 7.63 1423 5.88
7/14/2021 1:45:00 AM 24.04 75.272 0.428 7.63 1428 5.87
7/14/2021 2:00:00 AM 24.01 75.218 0.429 7.63 1447 5.86
7/14/2021 2:15:00 AM 23.98 75.164 0.43 7.63 1473 5.85
7/14/2021 2:30:00 AM 23.95 75.11 0.43 7.63 1491 5.88
7/14/2021 2:45:00 AM 23.91 75.038 0.431 7.63 1502 5.86
7/14/2021 3:00:00 AM 23.88 74.984 0.432 7.64 1514 5.88
7/14/2021 3:15:00 AM 23.85 74.93 0.433 7.64 1287 5.91
7/14/2021 3:30:00 AM 23.82 74.876 0.434 7.64 1056 5.86
7/14/2021 3:45:00 AM 23.79 74.82201 0.434 7.64 1051 5.9
7/14/2021 4:00:00 AM 23.76 74.768 0.435 7.64 1070 5.9
7/14/2021 4:15:00 AM 23.73 74.714 0.436 7.65 1067 5.92
7/14/2021 4:30:00 AM 23.7 74.66 0.437 7.65 1081 5.91
7/14/2021 4:45:00 AM 23.67 74.606 0.437 7.65 1098 5.9
7/14/2021 5:00:00 AM 23.63 74.534 0.438 7.65 1111 5.92
7/14/2021 5:15:00 AM 23.6 74.48 0.439 7.65 1119 5.94
7/14/2021 5:30:00 AM 23.57 74.426 0.44 7.66 1136 5.95
7/14/2021 5:45:00 AM 23.54 74.372 0.441 7.66 1140 5.95
7/14/2021 6:00:00 AM 23.51 74.318 0.441 7.66 1142 5.95
7/14/2021 6:15:00 AM 23.49 74.282 0.442 7.67 1157 5.96
7/14/2021 6:30:00 AM 23.46 74.228 0.443 7.67 1174 5.96
7/14/2021 6:45:00 AM 23.43 74.174 0.444 7.67 1181 5.98
7/14/2021 7:00:00 AM 23.41 74.138 0.445 7.68 1188 6.02
7/14/2021 7:15:00 AM 23.39 74.102 0.446 7.68 1208 6
7/14/2021 7:30:00 AM 23.37 74.066 0.447 7.68 1223 6.04
7/14/2021 7:45:00 AM 23.36 74.048 0.448 7.69 1245 6.05
7/14/2021 8:00:00 AM 23.35 74.03 0.45 7.69 1244 6.06
7/14/2021 8:15:00 AM 23.35 74.03 0.451 7.69 1232 6.07
7/14/2021 8:30:00 AM 23.36 74.048 0.452 7.69 1218 6.1
7/14/2021 8:45:00 AM 23.36 74.048 0.453 7.7 1244 6.15
7/14/2021 9:00:00 AM 23.38 74.084 0.455 7.7 1235 6.16
7/14/2021 9:15:00 AM 23.4 74.12 0.456 7.71 1241 6.17
7/14/2021 9:30:00 AM 23.44 74.192 0.459 7.71 1257 6.18
7/14/2021 9:45:00 AM 23.5 74.3 0.46 7.72 1253 6.24
7/14/2021 10:00:00 AM 23.56 74.408 0.462 7.72 1241 6.29
7/14/2021 10:15:00 AM 23.65 74.57 0.464 7.72 1247 6.33
7/14/2021 10:30:00 AM 23.83 74.894 0.466 7.72 1247 6.42
7/14/2021 10:45:00 AM 23.94 75.092 0.469 7.73 1260 6.49
7/14/2021 11:00:00 AM 24.01 75.218 0.471 7.73 1271 6.53
7/14/2021 11:15:00 AM 24.15 75.47 0.473 7.74 1272 6.58
7/14/2021 11:30:00 AM 24.33 75.794 0.476 7.75 1270 6.6
7/14/2021 11:45:00 AM 24.53 76.154 0.478 7.76 1265 6.69
7/14/2021 12:00:00 PM 24.69 76.442 0.481 7.76 1270 6.71
7/14/2021 12:15:00 PM 24.75 76.55 0.483 7.77 1266 6.75
7/14/2021 12:30:00 PM 24.76 76.568 0.488 7.78 1264 6.76
7/14/2021 12:45:00 PM 24.8 76.64 0.49 7.78 1267 6.79
7/14/2021 1:00:00 PM 25.04 77.07201 0.492 7.79 1267 6.8
7/14/2021 1:15:00 PM 25.18 77.324 0.496 7.79 1269 6.87
7/14/2021 1:30:00 PM 25.28 77.504 0.5 7.8 1273 6.92
7/14/2021 1:45:00 PM 25.43 77.774 0.503 7.81 1282 6.91
7/14/2021 2:00:00 PM 25.45 77.81 0.506 7.81 1278 6.9
7/14/2021 2:15:00 PM 25.35 77.63 0.51 7.83 1272 6.85
7/14/2021 2:30:00 PM 25.3 77.54 0.513 7.83 1275 6.75
7/14/2021 2:45:00 PM 25.26 77.468 0.517 7.83 1271 6.67
7/14/2021 3:00:00 PM 25.28 77.504 0.52 7.84 1271 6.66
7/14/2021 3:15:00 PM 25.33 77.594 0.523 7.84 1276 6.69
7/14/2021 3:30:00 PM 25.46 77.828 0.527 7.84 1279 6.76
7/14/2021 3:45:00 PM 25.54 77.972 0.531 7.85 1273 6.78
7/14/2021 4:00:00 PM 25.6 78.08 0.535 7.85 1282 6.75
7/14/2021 4:15:00 PM 25.63 78.134 0.538 7.86 1286 6.7
7/14/2021 4:30:00 PM 25.66 78.188 0.542 7.86 1279 6.66
7/14/2021 4:45:00 PM 25.56 78.008 0.545 7.87 1438 6.62
7/14/2021 5:00:00 PM 25.56 78.008 0.549 7.88 1689 6.61
7/14/2021 5:15:00 PM 25.57 78.026 0.552 7.88 1517 6.58
7/14/2021 5:30:00 PM 25.64 78.152 0.555 7.88 1400 6.59
7/14/2021 5:45:00 PM 25.65 78.17 0.558 7.88 1345 6.57
7/14/2021 6:00:00 PM 25.65 78.17 0.561 7.89 1339 6.57
7/14/2021 6:15:00 PM 25.68 78.224 0.564 7.9 1335 6.57
7/14/2021 6:30:00 PM 25.71 78.278 0.567 7.9 1305 6.58
7/14/2021 6:45:00 PM 25.72 78.296 0.57 7.91 1301 6.55
7/14/2021 7:00:00 PM 25.71 78.278 0.574 7.92 1295 6.53
7/14/2021 7:15:00 PM 25.7 78.26 0.578 7.92 1259 6.48
7/14/2021 7:30:00 PM 25.68 78.224 0.581 7.92 1251 6.46
7/14/2021 7:45:00 PM 25.63 78.134 0.585 7.93 1242 6.43
7/14/2021 8:00:00 PM 25.57 78.026 0.589 7.93 1229 6.4
7/14/2021 8:15:00 PM 25.5 77.9 0.591 7.94 1224 6.4
7/14/2021 8:30:00 PM 25.42 77.756 0.594 7.94 1181 6.35
7/14/2021 8:45:00 PM 25.33 77.594 0.595 7.95 1260 6.31
7/14/2021 9:00:00 PM 25.26 77.468 0.593 7.95 1297 6.29
7/14/2021 9:15:00 PM 25.21 77.378 0.59 7.94 1294 6.21
7/14/2021 9:30:00 PM 25.18 77.324 0.585 7.93 1295 6.17
7/14/2021 9:45:00 PM 25.17 77.306 0.58 7.93 1293 6.11
7/14/2021 10:00:00 PM 25.16 77.288 0.576 7.92 1319 6.07
7/14/2021 10:15:00 PM 25.15 77.27 0.574 7.92 1306 6.03
7/14/2021 10:30:00 PM 25.13 77.234 0.572 7.91 1310 6.01
7/14/2021 10:45:00 PM 25.1 77.18 0.572 7.91 1305 6.01
7/14/2021 11:00:00 PM 25.07 77.126 0.573 7.9 1335 5.98
7/14/2021 11:15:00 PM 25.03 77.054 0.574 7.91 1344 5.97
7/14/2021 11:30:00 PM 24.99 76.982 0.576 7.91 1305 5.96
7/14/2021 11:45:00 PM 24.94 76.892 0.578 7.91 1229 5.98
7/15/2021 12:00:00 AM 24.89 76.802 0.565 7.91 1183 5.97
7/15/2021 12:15:00 AM 24.84 76.712 0.582 7.91 1196 5.95
7/15/2021 12:30:00 AM 24.79 76.622 0.584 7.91 1169 6
7/15/2021 12:45:00 AM 24.73 76.514 0.587 7.92 1182 5.97
7/15/2021 1:00:00 AM 24.67 76.406 0.589 7.92 1189 5.97
7/15/2021 1:15:00 AM 24.61 76.298 0.591 7.92 1096 6
7/15/2021 1:30:00 AM 24.55 76.19 0.593 7.92 1145 6
7/15/2021 1:45:00 AM 24.49 76.082 0.593 7.93 1231 5.98
7/15/2021 2:00:00 AM 24.43 75.974 0.594 7.93 1148 6.01
7/15/2021 2:15:00 AM 24.37 75.866 0.595 7.93 1226 6.01
7/15/2021 2:30:00 AM 24.32 75.776 0.596 7.94 1248 6.03
7/15/2021 2:45:00 AM 24.26 75.668 0.597 7.94 1256 6.04
7/15/2021 3:00:00 AM 24.2 75.56 0.598 7.94 1252 6.05
7/15/2021 3:15:00 AM 24.14 75.452 0.599 7.95 1244 6.06
7/15/2021 3:30:00 AM 24.08 75.344 0.6 7.95 1230 6.04
7/15/2021 3:45:00 AM 24.03 75.254 0.601 7.95 1214 6.05
7/15/2021 4:00:00 AM 23.97 75.146 0.602 7.95 1215 6.06
7/15/2021 4:15:00 AM 23.91 75.038 0.603 7.95 1209 6.07
7/15/2021 4:30:00 AM 23.86 74.948 0.605 7.96 1238 6.08
7/15/2021 4:45:00 AM 23.8 74.84 0.606 7.96 1165 6.08
7/15/2021 5:00:00 AM 23.75 74.75 0.607 7.96 1189 6.08
7/15/2021 5:15:00 AM 23.7 74.66 0.61 7.96 1200 6.11
7/15/2021 5:30:00 AM 23.65 74.57 0.611 7.97 115 6.12
7/15/2021 5:45:00 AM 23.59 74.462 0.613 7.97 88.6 6.15
7/15/2021 6:00:00 AM 23.54 74.372 0.614 7.97 91.46 6.16
7/15/2021 6:15:00 AM 23.5 74.3 0.616 7.98 86.11 6.17
7/15/2021 6:30:00 AM 23.45 74.21 0.617 7.98 85.33 6.2
7/15/2021 6:45:00 AM 23.42 74.156 0.618 7.98 85.78 6.22
7/15/2021 7:00:00 AM 23.39 74.102 0.62 7.99 86.33 6.27
7/15/2021 7:15:00 AM 23.37 74.066 0.621 7.99 90.91 6.3
7/15/2021 7:30:00 AM 23.34 74.012 0.623 8 91.98 6.33
7/15/2021 7:45:00 AM 23.33 73.994 0.624 8 180.5 6.36
7/15/2021 8:00:00 AM 23.31 73.958 0.625 8.01 95.59 6.4
7/15/2021 8:15:00 AM 23.31 73.958 0.627 8.02 93.25 6.44
7/15/2021 8:30:00 AM 23.31 73.958 0.628 8.02 100.6 6.49
7/15/2021 8:45:00 AM 23.32 73.976 0.629 8.03 100.3 6.57
7/15/2021 9:00:00 AM 23.32 73.976 0.629 8.04 100.9 6.57
7/15/2021 9:15:00 AM 23.34 74.012 0.631 8.04 101 6.61
7/15/2021 9:30:00 AM 23.37 74.066 0.632 8.05 100 6.67
7/15/2021 9:45:00 AM 23.41 74.138 0.634 8.05 97.56 6.73
7/15/2021 10:00:00 AM 23.47 74.246 0.635 8.05 94.99 6.8
7/15/2021 10:15:00 AM 23.56 74.408 0.636 8.06 87.84 6.88
7/15/2021 10:30:00 AM 23.71 74.67799 0.638 8.06 88.32 6.93
7/15/2021 10:45:00 AM 23.86 74.948 0.639 8.06 88.2 6.98
7/15/2021 11:00:00 AM 23.98 75.164 0.641 8.07 88.61 7.11
7/15/2021 11:15:00 AM 24.12 75.416 0.642 8.08 88.02 7.21
7/15/2021 11:30:00 AM 24.26 75.668 0.644 8.09 87.69 7.26
7/15/2021 11:45:00 AM 24.39 75.902 0.645 8.09 89.58 7.34
7/15/2021 12:00:00 PM 24.53 76.154 0.647 8.09 85.5 7.39
7/15/2021 12:15:00 PM 24.71 76.478 0.648 8.1 79.05 7.44
7/15/2021 12:30:00 PM 24.86 76.748 0.65 8.1 74.44 7.5
7/15/2021 12:45:00 PM 24.99 76.982 0.652 8.1 74.19 7.54
7/15/2021 1:00:00 PM 25.12 77.216 0.653 8.11 76.42 7.57
7/15/2021 1:15:00 PM 25.23 77.414 0.654 8.11 72.11 7.6
7/15/2021 1:30:00 PM 25.37 77.666 0.656 8.11 72.79 7.61
7/15/2021 1:45:00 PM 25.5 77.9 0.657 8.11 78.7 7.64
7/15/2021 2:00:00 PM 25.61 78.098 0.658 8.12 72.75 7.63
7/15/2021 2:15:00 PM 25.72 78.296 0.66 8.12 76.66 7.64
7/15/2021 2:30:00 PM 25.67 78.206 0.661 8.12 73.61 7.58
7/15/2021 2:45:00 PM 25.65 78.17 0.662 8.13 73.43 7.55
7/15/2021 3:00:00 PM 25.68 78.224 0.664 8.13 71.96 7.51
7/15/2021 3:15:00 PM 25.67 78.206 0.665 8.13 73.32 7.45
7/15/2021 3:30:00 PM 25.7 78.26 0.666 8.14 76.11 7.38
7/15/2021 3:45:00 PM 25.82 78.476 0.668 8.14 77.35 7.38
7/15/2021 4:00:00 PM 25.9 78.62 0.669 8.14 83.64 7.37
7/15/2021 4:15:00 PM 25.94 78.692 0.67 8.14 78.41 7.35
7/15/2021 4:30:00 PM 25.95 78.71 0.672 8.14 79.96 7.31
7/15/2021 4:45:00 PM 25.95 78.71 0.671 8.14 80.11 7.26
7/15/2021 5:00:00 PM 25.93 78.674 0.674 8.15 80.78 7.23
7/15/2021 5:15:00 PM 25.91 78.638 0.676 8.15 81.45 7.13
7/15/2021 5:30:00 PM 25.89 78.602 0.677 8.15 92.24 7.07
7/15/2021 5:45:00 PM 25.89 78.602 0.678 8.15 93.17 7.05
7/15/2021 6:00:00 PM 25.91 78.638 0.68 8.14 92.17 7.02
7/15/2021 6:15:00 PM 25.92 78.656 0.681 8.15 98.43 7
7/15/2021 6:30:00 PM 25.92 78.656 0.682 8.15 98.67 6.88
7/15/2021 6:45:00 PM 25.92 78.656 0.683 8.15 96.61 6.85
7/15/2021 7:00:00 PM 25.91 78.638 0.684 8.14 99.5 6.82
7/15/2021 7:15:00 PM 25.9 78.62 0.685 8.14 102.6 6.77
7/15/2021 7:30:00 PM 25.88 78.584 0.686 8.14 98.78 6.72
7/15/2021 7:45:00 PM 25.86 78.548 0.688 8.14 103.8 6.63
7/15/2021 8:00:00 PM 25.84 78.512 0.689 8.14 108.2 6.58
7/15/2021 8:15:00 PM 25.82 78.476 0.689 8.14 107.9 6.53
7/15/2021 8:30:00 PM 25.79 78.422 0.691 8.14 106.1 6.48
7/15/2021 8:45:00 PM 25.75 78.35 0.692 8.13 112.2 6.42
7/15/2021 9:00:00 PM 25.71 78.278 0.693 8.14 107.5 6.36
7/15/2021 9:15:00 PM 25.67 78.206 0.695 8.13 112.3 6.34
7/15/2021 9:30:00 PM 25.62 78.116 0.695 8.13 114.3 6.3
7/15/2021 9:45:00 PM 25.58 78.044 0.697 8.12 111.1 6.25
7/15/2021 10:00:00 PM 25.53 77.954 0.699 8.12 116.7 6.23
7/15/2021 10:15:00 PM 25.48 77.864 0.699 8.11 114.3 6.21
7/15/2021 10:30:00 PM 25.43 77.774 0.7 8.11 121.4 6.18
7/15/2021 10:45:00 PM 25.37 77.666 0.702 8.11 119 6.16
7/15/2021 11:00:00 PM 25.32 77.576 0.703 8.11 123 6.16
7/15/2021 11:15:00 PM 25.28 77.504 0.704 8.11 123 6.15
7/15/2021 11:30:00 PM 25.23 77.414 0.705 8.1 212.9 6.09
7/15/2021 11:45:00 PM 25.17 77.306 0.706 8.1 149 6.12
7/16/2021 12:00:00 AM 25.11 77.198 0.706 8.1 149.7 6.11
7/16/2021 12:15:00 AM 25.05 77.09 0.707 8.1 148.6 6.11
7/16/2021 12:30:00 AM 24.99 76.982 0.708 8.1 137.8 6.1
7/16/2021 12:45:00 AM 24.93 76.874 0.71 8.1 155.5 6.1
7/16/2021 1:00:00 AM 24.87 76.766 0.711 8.1 148.3 6.11
7/16/2021 1:15:00 AM 24.81 76.658 0.712 8.1 149.3 6.12
7/16/2021 1:30:00 AM 24.75 76.55 0.714 8.1 140.5 6.14
7/16/2021 1:45:00 AM 24.69 76.442 0.715 8.09 141.6 6.11
7/16/2021 2:00:00 AM 24.63 76.334 0.716 8.09 152.7 6.16
7/16/2021 2:15:00 AM 24.58 76.244 0.717 8.09 154.3 6.14
7/16/2021 2:30:00 AM 24.52 76.136 0.717 8.09 143.6 6.15
7/16/2021 2:45:00 AM 24.47 76.046 0.719 8.09 149.3 6.14
7/16/2021 3:00:00 AM 24.41 75.938 0.72 8.1 149.8 6.16
7/16/2021 3:15:00 AM 24.36 75.848 0.721 8.09 151.8 6.16
7/16/2021 3:30:00 AM 24.3 75.74 0.722 8.1 152.3 6.18
7/16/2021 3:45:00 AM 24.24 75.632 0.724 8.1 156.3 6.2
7/16/2021 4:00:00 AM 24.19 75.542 0.725 8.09 150.1 6.18
7/16/2021 4:15:00 AM 24.13 75.434 0.726 8.1 153.2 6.23
7/16/2021 4:30:00 AM 24.08 75.344 0.727 8.1 153.4 6.23
7/16/2021 4:45:00 AM 24.02 75.236 0.729 8.1 154.1 6.2
7/16/2021 5:00:00 AM 23.97 75.146 0.729 8.1 155.3 6.24
7/16/2021 5:15:00 AM 23.91 75.038 0.731 8.1 133.6 6.26
7/16/2021 5:30:00 AM 23.85 74.93 0.733 8.1 130.3 6.27
7/16/2021 5:45:00 AM 23.8 74.84 0.734 8.1 132.3 6.27
7/16/2021 6:00:00 AM 23.74 74.732 0.736 8.1 133.2 6.29
7/16/2021 6:15:00 AM 23.69 74.642 0.737 8.1 135.3 6.33
7/16/2021 6:30:00 AM 23.65 74.57 0.738 8.1 136.8 6.34
7/16/2021 6:45:00 AM 23.6 74.48 0.74 8.11 146 6.36
7/16/2021 7:00:00 AM 23.56 74.408 0.742 8.11 135 6.36
7/16/2021 7:15:00 AM 23.53 74.354 0.743 8.11 144.7 6.41
7/16/2021 7:30:00 AM 23.5 74.3 0.744 8.12 134.8 6.45
7/16/2021 7:45:00 AM 23.47 74.246 0.747 8.12 134.6 6.48
7/16/2021 8:00:00 AM 23.45 74.21 0.748 8.12 137.2 6.55
7/16/2021 8:15:00 AM 23.44 74.192 0.749 8.13 139.3 6.57
7/16/2021 8:30:00 AM 23.42 74.156 0.75 8.13 132.9 6.59
7/16/2021 8:45:00 AM 23.42 74.156 0.752 8.13 135.1 6.6
7/16/2021 9:00:00 AM 23.42 74.156 0.753 8.14 133.8 6.64
7/16/2021 9:15:00 AM 23.43 74.174 0.754 8.14 138.4 6.7
7/16/2021 9:30:00 AM 23.46 74.228 0.755 8.14 130.1 6.74
7/16/2021 9:45:00 AM 23.49 74.282 0.756 8.15 129.8 6.81
7/16/2021 10:00:00 AM 23.55 74.39 0.758 8.15 126.8 6.89
7/16/2021 10:15:00 AM 23.64 74.552 0.759 8.15 129.5 6.97
7/16/2021 10:30:00 AM 23.82 74.876 0.761 8.15 130.9 7.09
7/16/2021 10:45:00 AM 24.01 75.218 0.762 8.15 129.7 7.22
7/16/2021 11:00:00 AM 24.14 75.452 0.764 8.15 130.7 7.29
7/16/2021 11:15:00 AM 24.31 75.758 0.765 8.15 131.9 7.34
7/16/2021 11:30:00 AM 24.44 75.992 0.766 8.16 131.5 7.43
7/16/2021 11:45:00 AM 24.63 76.334 0.767 8.16 133.4 7.49
7/16/2021 12:00:00 PM 24.81 76.658 0.768 8.16 133.8 7.59
7/16/2021 12:15:00 PM 24.97 76.946 0.768 8.16 136.9 7.65
7/16/2021 12:30:00 PM 25.14 77.252 0.77 8.17 135.3 7.71
7/16/2021 12:45:00 PM 25.29 77.522 0.771 8.17 135.6 7.76
7/16/2021 1:00:00 PM 25.42 77.756 0.773 8.17 135.3 7.76
7/16/2021 1:15:00 PM 25.58 78.044 0.774 8.18 132.8 7.8
7/16/2021 1:30:00 PM 25.75 78.35 0.775 8.18 130.5 7.82
7/16/2021 1:45:00 PM 25.89 78.602 0.775 8.18 130.6 7.84
7/16/2021 2:00:00 PM 26.06 78.908 0.776 8.18 130.1 7.85
7/16/2021 2:15:00 PM 26.18 79.124 0.777 8.18 133 7.84
7/16/2021 2:30:00 PM 26.27 79.286 0.778 8.18 134.2 7.83
7/16/2021 2:45:00 PM 26.37 79.466 0.778 8.19 131.4 7.79
7/16/2021 3:00:00 PM 26.45 79.61 0.779 8.19 136.1 7.75
7/16/2021 3:15:00 PM 26.52 79.736 0.779 8.19 136.8 7.7
7/16/2021 3:30:00 PM 26.59 79.862 0.779 8.19 139.9 7.67
7/16/2021 3:45:00 PM 26.59 79.862 0.78 8.19 146.8 7.64
7/16/2021 4:00:00 PM 26.61 79.898 0.78 8.2 145 7.61
7/16/2021 4:15:00 PM 26.65 79.97 0.781 8.2 148.2 7.51
7/16/2021 4:30:00 PM 26.68 80.024 0.782 8.2 146.2 7.49
7/16/2021 4:45:00 PM 26.65 79.97 0.782 8.2 144.2 7.41
7/16/2021 5:00:00 PM 26.64 79.952 0.782 8.21 148.7 7.39
7/16/2021 5:15:00 PM 26.62 79.916 0.783 8.21 146.8 7.27
7/16/2021 5:30:00 PM 26.59 79.862 0.782 8.21 148.4 7.2
7/16/2021 5:45:00 PM 26.56 79.808 0.782 8.22 148.1 7.17
7/16/2021 6:00:00 PM 26.53 79.754 0.783 8.21 147.4 7.02
7/16/2021 6:15:00 PM 26.5 79.7 0.781 8.21 141.2 6.98
7/16/2021 6:30:00 PM 26.48 79.664 0.783 8.21 149.2 6.89
7/16/2021 6:45:00 PM 26.46 79.628 0.783 8.21 146.8 6.86
7/16/2021 7:00:00 PM 26.45 79.61 0.783 8.21 146.2 6.79
7/16/2021 7:15:00 PM 26.45 79.61 0.783 8.21 145.6 6.72
7/16/2021 7:30:00 PM 26.44 79.592 0.783 8.21 146.5 6.67
7/16/2021 7:45:00 PM 26.43 79.574 0.783 8.21 196.6 6.58
7/16/2021 8:00:00 PM 26.42 79.556 0.783 8.2 176.9 6.54
7/16/2021 8:15:00 PM 26.41 79.538 0.783 8.2 168 6.49
7/16/2021 8:30:00 PM 26.39 79.502 0.783 8.2 171.8 6.44
7/16/2021 8:45:00 PM 26.36 79.448 0.783 8.2 175.2 6.37
7/16/2021 9:00:00 PM 26.33 79.394 0.784 8.19 175.1 6.37
7/16/2021 9:15:00 PM 26.29 79.32201 0.785 8.2 170.2 6.28
7/16/2021 9:30:00 PM 26.26 79.268 0.785 8.2 171.2 6.24
7/16/2021 9:45:00 PM 26.23 79.214 0.784 8.2 160 6.23
7/16/2021 10:00:00 PM 26.19 79.142 0.784 8.19 145.4 6.19
7/16/2021 10:15:00 PM 26.14 79.052 0.786 8.19 109.1 6.16
7/16/2021 10:30:00 PM 26.1 78.98 0.786 8.17 105.2 6.15
7/16/2021 10:45:00 PM 26.07 78.926 0.785 8.17 100 6.11
7/16/2021 11:00:00 PM 26.02 78.836 0.784 8.17 89.9 6.09
7/16/2021 11:15:00 PM 25.97 78.746 0.784 8.17 89.78 6.03
7/16/2021 11:30:00 PM 25.91 78.638 0.783 8.17 86.58 6.06
7/16/2021 11:45:00 PM 25.86 78.548 0.784 8.17 91.76 6.01
7/17/2021 12:00:00 AM 25.81 78.458 0.786 8.17 55.84 6.05
7/17/2021 12:15:00 AM 25.74 78.332 0.786 8.17 57.79 6.02
7/17/2021 12:30:00 AM 25.67 78.206 0.787 8.17 41.61 6.02
7/17/2021 12:45:00 AM 25.6 78.08 0.786 8.16 40.17 5.99
7/17/2021 1:00:00 AM 25.53 77.954 0.787 8.16 43.81 6.05
7/17/2021 1:15:00 AM 25.45 77.81 0.787 8.16 38.68 6.03
7/17/2021 1:30:00 AM 25.38 77.684 0.786 8.16 40.65 6.04
7/17/2021 1:45:00 AM 25.31 77.558 0.786 8.15 44.87 6.01
7/17/2021 2:00:00 AM 25.24 77.432 0.786 8.15 40.57 6.05
7/17/2021 2:15:00 AM 25.17 77.306 0.786 8.16 31.74 6.05
7/17/2021 2:30:00 AM 25.1 77.18 0.786 8.16 43.79 6.07
7/17/2021 2:45:00 AM 25.03 77.054 0.784 8.16 31.01 6.07
7/17/2021 3:00:00 AM 24.96 76.92799 0.785 8.16 35.74 6.09
7/17/2021 3:15:00 AM 24.89 76.802 0.784 8.16 45.59 6.1
7/17/2021 3:30:00 AM 24.82 76.676 0.784 8.16 33.63 6.11
7/17/2021 3:45:00 AM 24.76 76.568 0.784 8.16 33.88 6.14
7/17/2021 4:00:00 AM 24.7 76.46 0.783 8.16 36.88 6.18
7/17/2021 4:15:00 AM 24.64 76.352 0.785 8.16 35.34 6.14
7/17/2021 4:30:00 AM 24.58 76.244 0.784 8.16 35.2 6.19
7/17/2021 4:45:00 AM 24.53 76.154 0.785 8.17 30.88 6.19
7/17/2021 5:00:00 AM 24.46 76.028 0.784 8.16 31.23 6.19
7/17/2021 5:15:00 AM 24.4 75.92 0.784 8.16 31.09 6.2
7/17/2021 5:30:00 AM 24.33 75.794 0.782 8.17 24.85 6.22
7/17/2021 5:45:00 AM 24.27 75.686 0.784 8.17 21.46 6.23
7/17/2021 6:00:00 AM 24.22 75.596 0.784 8.17 23.98 6.25
7/17/2021 6:15:00 AM 24.18 75.524 0.782 8.17 22.61 6.26
7/17/2021 6:30:00 AM 24.12 75.416 0.785 8.17 23.73 6.26
7/17/2021 6:45:00 AM 24.07 75.326 0.785 8.17 22.53 6.31
7/17/2021 7:00:00 AM 24.03 75.254 0.785 8.17 23.74 6.36
7/17/2021 7:15:00 AM 23.99 75.182 0.784 8.17 22.21 6.36
7/17/2021 7:30:00 AM 23.96 75.128 0.786 8.18 22.47 6.42
7/17/2021 7:45:00 AM 23.93 75.074 0.786 8.19 24.06 6.44
7/17/2021 8:00:00 AM 23.92 75.056 0.787 8.19 24.64 6.5
7/17/2021 8:15:00 AM 23.89 75.002 0.787 8.19 23.77 6.54
7/17/2021 8:30:00 AM 23.88 74.984 0.786 8.19 25.07 6.57
7/17/2021 8:45:00 AM 23.87 74.966 0.787 8.19 22.9 6.59
7/17/2021 9:00:00 AM 23.86 74.948 0.786 8.19 23.86 6.65
7/17/2021 9:15:00 AM 23.87 74.966 0.787 8.19 22.78 6.65
7/17/2021 9:30:00 AM 23.89 75.002 0.787 8.2 22.96 6.75
7/17/2021 9:45:00 AM 23.92 75.056 0.788 8.2 24.65 6.82
7/17/2021 10:00:00 AM 23.97 75.146 0.789 8.2 23.78 6.89
7/17/2021 10:15:00 AM 24.05 75.29 0.789 8.2 22.98 6.99
7/17/2021 10:30:00 AM 24.22 75.596 0.79 8.2 21.79 7.11
7/17/2021 10:45:00 AM 24.43 75.974 0.79 8.2 22.67 7.27
7/17/2021 11:00:00 AM 24.56 76.208 0.79 8.2 21.82 7.35
7/17/2021 11:15:00 AM 24.71 76.478 0.79 8.2 20.73 7.43
7/17/2021 11:30:00 AM 24.79 76.622 0.79 8.2 21.77 7.52
7/17/2021 11:45:00 AM 24.95 76.91 0.791 8.21 22.46 7.57
7/17/2021 12:00:00 PM 25.08 77.144 0.792 8.21 21.85 7.65
7/17/2021 12:15:00 PM 25.22 77.396 0.792 8.21 22.47 7.76
7/17/2021 12:30:00 PM 25.41 77.738 0.792 8.21 22.5 7.81
7/17/2021 12:45:00 PM 25.62 78.116 0.794 8.22 21.63 7.9
7/17/2021 1:00:00 PM 25.77 78.386 0.794 8.22 22.9 7.93
7/17/2021 1:15:00 PM 25.92 78.656 0.795 8.23 22.61 7.96
7/17/2021 1:30:00 PM 26.01 78.818 0.796 8.23 23.57 8
7/17/2021 1:45:00 PM 26.16 79.088 0.797 8.23 24.54 7.99
7/17/2021 2:00:00 PM 26.32 79.376 0.797 8.23 22.18 7.99
7/17/2021 2:15:00 PM 26.34 79.412 0.799 8.23 22.2 7.95
7/17/2021 2:30:00 PM 26.16 79.088 0.799 8.24 22.24 7.73
7/17/2021 2:45:00 PM 25.94 78.692 0.796 8.24 21.89 7.53
7/17/2021 3:00:00 PM 25.55 77.99 0.754 8.26 37.28 7.25
7/17/2021 3:15:00 PM 25.61 78.098 0.757 8.25 30.33 7.14
7/17/2021 3:30:00 PM 25.62 78.116 0.766 8.24 33.01 7.11
7/17/2021 3:45:00 PM 25.45 77.81 0.753 8.23 30.61 7.1
7/17/2021 4:00:00 PM 25.22 77.396 0.727 8.23 191.7 6.97
7/17/2021 4:15:00 PM 25.04 77.07201 0.676 8.23 50.35 6.79
7/17/2021 4:30:00 PM 25.08 77.144 0.675 8.21 42.63 6.79
7/17/2021 4:45:00 PM 25.17 77.306 0.701 8.19 34.04 6.76
7/17/2021 5:00:00 PM 25.16 77.288 0.696 8.2 62.03 6.78
7/17/2021 5:15:00 PM 25.13 77.234 0.694 8.2 56.92 6.85
7/17/2021 5:30:00 PM 25.22 77.396 0.71 8.21 70.99 6.8
7/17/2021 5:45:00 PM 25.32 77.576 0.718 8.21 108.6 6.82
7/17/2021 6:00:00 PM 25.33 77.594 0.708 8.21 132 6.7
7/17/2021 6:15:00 PM 25.17 77.306 0.654 8.19 169.6 6.53
7/17/2021 6:30:00 PM 24.99 76.982 0.587 8.15 284.7 6.34
7/17/2021 6:45:00 PM 24.87 76.766 0.545 8.09 369.1 6.2
7/17/2021 7:00:00 PM 24.97 76.946 0.513 8.05 355.2 6.17
7/17/2021 7:15:00 PM 25.16 77.288 0.497 8.01 519.6 6.11
7/17/2021 7:30:00 PM 25.29 77.522 0.498 7.99 600.6 6.13
7/17/2021 7:45:00 PM 25.34 77.612 0.503 7.99 581.5 6.08
7/17/2021 8:00:00 PM 25.33 77.594 0.507 7.98 524.4 6.1
7/17/2021 8:15:00 PM 25.3 77.54 0.51 7.98 482 6.09
7/17/2021 8:30:00 PM 25.24 77.432 0.513 7.97 550.6 6.09
7/17/2021 8:45:00 PM 25.14 77.252 0.517 7.96 645.3 6.08
7/17/2021 9:00:00 PM 25.08 77.144 0.523 7.95 760.4 6.03
7/17/2021 9:15:00 PM 25.02 77.036 0.532 7.95 797.2 5.96
7/17/2021 9:30:00 PM 24.84 76.712 0.529 7.94 877 6
7/17/2021 9:45:00 PM 24.82 76.676 0.538 7.93 995.6 5.95
7/17/2021 10:00:00 PM 24.78 76.604 0.547 7.93 1139 5.96
7/17/2021 10:15:00 PM 24.73 76.514 0.574 7.93 92.53 6.01
7/17/2021 10:30:00 PM 24.69 76.442 0.588 7.98 58.34 6.05
7/17/2021 10:45:00 PM 24.62 76.316 0.601 8 53.37 6.11
7/17/2021 11:00:00 PM 24.55 76.19 0.603 8.01 65.55 6.15
7/17/2021 11:15:00 PM 24.45 76.01 0.6 8.02 76.43 6.19
7/17/2021 11:30:00 PM 24.32 75.776 0.59 8.02 89.55 6.19
7/17/2021 11:45:00 PM 24.14 75.452 0.563 8.01 129.1 6.2
7/18/2021 12:00:00 AM 23.97 75.146 0.523 7.99 136.1 6.15
7/18/2021 12:15:00 AM 23.88 74.984 0.492 7.96 113 6.1
7/18/2021 12:30:00 AM 23.86 74.948 0.474 7.94 140.8 6.1
7/18/2021 12:45:00 AM 23.86 74.948 0.465 7.92 137.6 6.1
7/18/2021 1:00:00 AM 23.88 74.984 0.46 7.91 146.2 6.09
7/18/2021 1:15:00 AM 23.89 75.002 0.456 7.9 112.6 6.11
7/18/2021 1:30:00 AM 23.91 75.038 0.454 7.9 111.7 6.08
7/18/2021 1:45:00 AM 23.92 75.056 0.453 7.89 116.5 6.08
7/18/2021 2:00:00 AM 23.92 75.056 0.453 7.88 112.4 6.06
7/18/2021 2:15:00 AM 23.92 75.056 0.454 7.88 106.9 6.05
7/18/2021 2:30:00 AM 23.9 75.02 0.456 7.87 112.3 6.04
7/18/2021 2:45:00 AM 23.89 75.002 0.46 7.87 121.5 6.07
7/18/2021 3:00:00 AM 23.87 74.966 0.467 7.86 122.9 6.04
7/18/2021 3:15:00 AM 23.85 74.93 0.475 7.86 139.4 6.03
7/18/2021 3:30:00 AM 23.84 74.912 0.484 7.86 131.4 6.05
7/18/2021 3:45:00 AM 23.82 74.876 0.492 7.86 137.3 6.04
7/18/2021 4:00:00 AM 23.8 74.84 0.498 7.87 130.2 6.02
7/18/2021 4:15:00 AM 23.78 74.804 0.501 7.87 149.2 6.02
7/18/2021 4:30:00 AM 23.76 74.768 0.504 7.87 153.6 6
7/18/2021 4:45:00 AM 23.74 74.732 0.506 7.87 164.7 6.01
7/18/2021 5:00:00 AM 23.73 74.714 0.508 7.87 162.2 5.97
7/18/2021 5:15:00 AM 23.71 74.67799 0.512 7.87 171.2 5.96
7/18/2021 5:30:00 AM 23.69 74.642 0.517 7.87 181.6 5.98
7/18/2021 5:45:00 AM 23.68 74.624 0.524 7.87 205.5 5.98
7/18/2021 6:00:00 AM 23.68 74.624 0.531 7.87 162.6 5.98
7/18/2021 6:15:00 AM 23.67 74.606 0.54 7.88 168.8 6
7/18/2021 6:30:00 AM 23.66 74.588 0.55 7.88 178.2 6.01
7/18/2021 6:45:00 AM 23.66 74.588 0.558 7.89 178.6 6.03
7/18/2021 7:00:00 AM 23.65 74.57 0.567 7.9 185.3 6.06
7/18/2021 7:15:00 AM 23.63 74.534 0.573 7.91 191.4 6.07
7/18/2021 7:30:00 AM 23.63 74.534 0.579 7.92 208.6 6.1
7/18/2021 7:45:00 AM 23.63 74.534 0.583 7.92 216.5 6.13
7/18/2021 8:00:00 AM 23.64 74.552 0.585 7.93 241.4 6.17
7/18/2021 8:15:00 AM 23.64 74.552 0.587 7.94 251.6 6.19
7/18/2021 8:30:00 AM 23.62 74.516 0.588 7.94 274 6.22
7/18/2021 8:45:00 AM 23.62 74.516 0.59 7.95 257.2 6.27
7/18/2021 9:00:00 AM 23.62 74.516 0.593 7.95 291.8 6.29
7/18/2021 9:15:00 AM 23.62 74.516 0.596 7.96 272.8 6.32
7/18/2021 9:30:00 AM 23.62 74.516 0.599 7.96 331.4 6.38
7/18/2021 9:45:00 AM 23.61 74.498 0.602 7.97 299.1 6.4
7/18/2021 10:00:00 AM 23.58 74.444 0.604 7.97 320.8 6.41
7/18/2021 10:15:00 AM 23.55 74.39 0.605 7.98 294.9 6.4
7/18/2021 10:30:00 AM 23.52 74.336 0.606 7.98 353.6 6.41
7/18/2021 10:45:00 AM 23.51 74.318 0.605 7.99 318.8 6.41
7/18/2021 11:00:00 AM 23.52 74.336 0.604 7.99 360.7 6.46
7/18/2021 11:15:00 AM 23.52 74.336 0.603 8 310.9 6.5
7/18/2021 11:30:00 AM 23.52 74.336 0.601 8 361.4 6.55
7/18/2021 11:45:00 AM 23.51 74.318 0.6 8 327.5 6.58
7/18/2021 12:00:00 PM 23.59 74.462 0.599 8 344.8 6.63
7/18/2021 12:15:00 PM 23.6 74.48 0.599 8 375.7 6.71
7/18/2021 12:30:00 PM 23.59 74.462 0.598 8.01 400.9 6.74
7/18/2021 12:45:00 PM 23.68 74.624 0.6 8.01 395.1 6.82
7/18/2021 1:00:00 PM 23.68 74.624 0.602 8.02 379.2 6.91
7/18/2021 1:15:00 PM 23.59 74.462 0.605 8.03 392.1 6.87
7/18/2021 1:30:00 PM 23.59 74.462 0.608 8.03 387.1 6.89
7/18/2021 1:45:00 PM 23.55 74.39 0.612 8.04 373.4 6.87
7/18/2021 2:00:00 PM 23.61 74.498 0.617 8.04 456.9 6.92
7/18/2021 2:15:00 PM 23.57 74.426 0.623 8.05 407.6 6.98
7/18/2021 2:30:00 PM 23.52 74.336 0.628 8.06 428 7
7/18/2021 2:45:00 PM 23.56 74.408 0.634 8.07 334.4 7.07
7/18/2021 3:00:00 PM 23.48 74.264 0.64 8.08 372.4 7.1
7/18/2021 3:15:00 PM 23.4 74.12 0.645 8.09 355.4 7.04
7/18/2021 3:30:00 PM 23.38 74.084 0.649 8.09 393.6 7.04
7/18/2021 3:45:00 PM 23.39 74.102 0.654 8.1 412.1 7.12
7/18/2021 4:00:00 PM 23.38 74.084 0.658 8.11 382.2 7.16
7/18/2021 4:15:00 PM 23.36 74.048 0.662 8.12 427.5 7.23
7/18/2021 4:30:00 PM 23.29 73.922 0.665 8.13 387.1 7.21
7/18/2021 4:45:00 PM 23.28 73.904 0.668 8.14 445.2 7.22
7/18/2021 5:00:00 PM 23.24 73.832 0.67 8.14 410.6 7.18
7/18/2021 5:15:00 PM 23.21 73.778 0.673 8.14 376.2 7.18
7/18/2021 5:30:00 PM 23.19 73.742 0.674 8.15 378.9 7.22
7/18/2021 5:45:00 PM 23.14 73.652 0.676 8.16 380.6 7.2
7/18/2021 6:00:00 PM 23.11 73.598 0.678 8.16 431.4 7.15
7/18/2021 6:15:00 PM 23.09 73.562 0.68 8.16 400 7.14
7/18/2021 6:30:00 PM 23.08 73.544 0.683 8.16 411.1 7.12
7/18/2021 6:45:00 PM 23.08 73.544 0.685 8.17 443 7.14
7/18/2021 7:00:00 PM 23.03 73.454 0.688 8.17 363 7.14
7/18/2021 7:15:00 PM 22.99 73.382 0.69 8.17 302.7 7.08
7/18/2021 7:30:00 PM 22.95 73.31 0.693 8.18 291.5 7.03
7/18/2021 7:45:00 PM 22.92 73.256 0.697 8.18 380.6 7
7/18/2021 8:00:00 PM 22.89 73.202 0.7 8.18 368.9 6.96
7/18/2021 8:15:00 PM 22.86 73.148 0.702 8.18 335.8 6.93
7/18/2021 8:30:00 PM 22.83 73.094 0.706 8.18 295.1 6.89
7/18/2021 8:45:00 PM 22.79 73.022 0.709 8.18 346.3 6.85
7/18/2021 9:00:00 PM 22.76 72.968 0.713 8.18 275.5 6.78
7/18/2021 9:15:00 PM 22.73 72.914 0.715 8.18 268.3 6.77
7/18/2021 9:30:00 PM 22.7 72.86 0.718 8.18 267.4 6.76
7/18/2021 9:45:00 PM 22.67 72.806 0.721 8.18 276.8 6.75
7/18/2021 10:00:00 PM 22.65 72.77 0.724 8.18 260.3 6.73
7/18/2021 10:15:00 PM 22.63 72.734 0.727 8.18 115.1 6.72
7/18/2021 10:30:00 PM 22.6 72.68 0.73 8.18 89.6 6.69
7/18/2021 10:45:00 PM 22.57 72.626 0.732 8.18 104.4 6.67
7/18/2021 11:00:00 PM 22.54 72.57201 0.735 8.18 105.4 6.68
7/18/2021 11:15:00 PM 22.51 72.518 0.737 8.18 100.5 6.66
7/18/2021 11:30:00 PM 22.49 72.482 0.739 8.17 123.1 6.63
7/18/2021 11:45:00 PM 22.46 72.42799 0.74 8.18 104.1 6.62
7/19/2021 12:00:00 AM 22.43 72.374 0.741 8.17 108.6 6.6
7/19/2021 12:15:00 AM 22.41 72.338 0.742 8.18 91.33 6.58
7/19/2021 12:30:00 AM 22.39 72.302 0.743 8.17 110.8 6.57
7/19/2021 12:45:00 AM 22.36 72.248 0.744 8.17 119.2 6.55
7/19/2021 1:00:00 AM 22.34 72.212 0.744 8.17 102.3 6.54
7/19/2021 1:15:00 AM 22.31 72.158 0.745 8.16 98.04 6.55
7/19/2021 1:30:00 AM 22.28 72.104 0.745 8.16 100.3 6.54
7/19/2021 1:45:00 AM 22.26 72.068 0.745 8.16 104.5 6.54
7/19/2021 2:00:00 AM 22.23 72.014 0.745 8.16 114.2 6.54
7/19/2021 2:15:00 AM 22.19 71.942 0.746 8.16 104.7 6.54
7/19/2021 2:30:00 AM 22.15 71.87 0.745 8.16 115.9 6.52
7/19/2021 2:45:00 AM 22.12 71.816 0.745 8.16 90.68 6.52
7/19/2021 3:00:00 AM 22.09 71.762 0.745 8.16 117.7 6.52
7/19/2021 3:15:00 AM 22.05 71.69 0.744 8.15 123.1 6.52
7/19/2021 3:30:00 AM 22 71.6 0.744 8.14 123.6 6.5
7/19/2021 3:45:00 AM 21.96 71.528 0.743 8.15 121.6 6.5
7/19/2021 4:00:00 AM 21.91 71.438 0.743 8.14 119.2 6.51
7/19/2021 4:15:00 AM 21.87 71.366 0.742 8.14 117.4 6.5
7/19/2021 4:30:00 AM 21.82 71.276 0.741 8.14 117.8 6.5
7/19/2021 4:45:00 AM 21.78 71.204 0.74 8.14 112.9 6.5
7/19/2021 5:00:00 AM 21.73 71.114 0.738 8.13 113.4 6.5
7/19/2021 5:15:00 AM 21.68 71.024 0.737 8.13 115.6 6.51
7/19/2021 5:30:00 AM 21.63 70.934 0.735 8.13 118.2 6.5
7/19/2021 5:45:00 AM 21.59 70.862 0.733 8.13 123.2 6.5
7/19/2021 6:00:00 AM 21.54 70.772 0.732 8.13 111.3 6.51
7/19/2021 6:15:00 AM 21.49 70.682 0.73 8.12 123.3 6.51
7/19/2021 6:30:00 AM 21.45 70.61 0.729 8.12 113 6.53
7/19/2021 6:45:00 AM 21.41 70.538 0.726 8.12 126.2 6.55
7/19/2021 7:00:00 AM 21.38 70.484 0.723 8.13 122.4 6.56
7/19/2021 7:15:00 AM 21.35 70.43 0.72 8.13 116.4 6.61
7/19/2021 7:30:00 AM 21.32 70.376 0.717 8.14 117.9 6.63
7/19/2021 7:45:00 AM 21.3 70.34 0.713 8.13 137.3 6.68
7/19/2021 8:00:00 AM 21.28 70.304 0.71 8.14 113.6 6.71
7/19/2021 8:15:00 AM 21.27 70.286 0.707 8.14 127.6 6.76
7/19/2021 8:30:00 AM 21.27 70.286 0.703 8.15 113 6.81
7/19/2021 8:45:00 AM 21.27 70.286 0.7 8.16 131.7 6.87
7/19/2021 9:00:00 AM 21.28 70.304 0.697 8.16 137.6 6.91
7/19/2021 9:15:00 AM 21.3 70.34 0.694 8.16 131.5 6.96
7/19/2021 9:30:00 AM 21.33 70.394 0.69 8.17 103.9 7.04
7/19/2021 9:45:00 AM 21.36 70.448 0.687 8.17 103.9 7.11
7/19/2021 10:00:00 AM 21.41 70.538 0.684 8.17 95.55 7.18
7/19/2021 10:15:00 AM 21.49 70.682 0.681 8.17 91.48 7.26
7/19/2021 10:30:00 AM 21.63 70.934 0.679 8.18 104.2 7.37
7/19/2021 10:45:00 AM 21.78 71.204 0.676 8.18 121.5 7.47
7/19/2021 11:00:00 AM 21.92 71.456 0.673 8.19 111.7 7.52
7/19/2021 11:15:00 AM 22.03 71.654 0.671 8.19 113.8 7.6
7/19/2021 11:30:00 AM 22.17 71.906 0.669 8.19 87.18 7.67
7/19/2021 11:45:00 AM 22.27 72.086 0.667 8.19 98.34 7.74
7/19/2021 12:00:00 PM 22.4 72.32 0.666 8.2 109 7.82
7/19/2021 12:15:00 PM 22.53 72.554 0.664 8.21 89.27 7.9
7/19/2021 12:30:00 PM 22.71 72.878 0.664 8.21 114.4 7.96
7/19/2021 12:45:00 PM 22.84 73.112 0.663 8.21 100.6 8.01
7/19/2021 1:00:00 PM 22.96 73.328 0.663 8.21 103.8 8.08
7/19/2021 1:15:00 PM 23.09 73.562 0.664 8.21 92.54 8.11
7/19/2021 1:30:00 PM 23.2 73.76 0.664 8.22 100.6 8.16
7/19/2021 1:45:00 PM 23.32 73.976 0.663 8.22 114.4 8.19
7/19/2021 2:00:00 PM 23.4 74.12 0.664 8.22 110.9 8.22
7/19/2021 2:15:00 PM 23.49 74.282 0.665 8.23 108.1 8.21
7/19/2021 2:30:00 PM 23.59 74.462 0.666 8.23 145 8.22
7/19/2021 2:45:00 PM 23.68 74.624 0.667 8.23 114.3 8.25
7/19/2021 3:00:00 PM 23.75 74.75 0.668 8.23 116.9 8.25
7/19/2021 3:15:00 PM 23.79 74.82201 0.67 8.24 127.1 8.24
7/19/2021 3:30:00 PM 23.83 74.894 0.671 8.24 136.9 8.2
7/19/2021 3:45:00 PM 23.85 74.93 0.673 8.25 151.4 8.18
7/19/2021 4:00:00 PM 23.88 74.984 0.675 8.25 149.5 8.14
7/19/2021 4:15:00 PM 23.89 75.002 0.677 8.26 137.2 8.08
7/19/2021 4:30:00 PM 23.87 74.966 0.679 8.26 142.4 8.04
7/19/2021 4:45:00 PM 23.91 75.038 0.682 8.26 126.5 7.99
7/19/2021 5:00:00 PM 23.93 75.074 0.684 8.27 141.4 7.96
7/19/2021 5:15:00 PM 23.87 74.966 0.687 8.27 152.2 7.9
7/19/2021 5:30:00 PM 23.89 75.002 0.69 8.27 111.1 7.82
7/19/2021 5:45:00 PM 23.91 75.038 0.692 8.27 129.3 7.75
7/19/2021 6:00:00 PM 23.91 75.038 0.694 8.27 148.8 7.72
7/19/2021 6:15:00 PM 23.9 75.02 0.697 8.27 133.2 7.65
7/19/2021 6:30:00 PM 23.88 74.984 0.7 8.28 143.1 7.56
7/19/2021 6:45:00 PM 23.87 74.966 0.703 8.27 140.8 7.48
7/19/2021 7:00:00 PM 23.87 74.966 0.706 8.27 138.7 7.38
7/19/2021 7:15:00 PM 23.87 74.966 0.709 8.27 134.3 7.29
7/19/2021 7:30:00 PM 23.87 74.966 0.712 8.26 147.8 7.21
7/19/2021 7:45:00 PM 23.86 74.948 0.714 8.26 155.5 7.13
7/19/2021 8:00:00 PM 23.85 74.93 0.716 8.26 147 7.07
7/19/2021 8:15:00 PM 23.83 74.894 0.719 8.26 148 6.99
7/19/2021 8:30:00 PM 23.81 74.858 0.721 8.25 127.9 6.91
7/19/2021 8:45:00 PM 23.79 74.82201 0.723 8.25 127.6 6.85
7/19/2021 9:00:00 PM 23.76 74.768 0.724 8.25 153.3 6.79
7/19/2021 9:15:00 PM 23.72 74.696 0.727 8.25 155 6.74
7/19/2021 9:30:00 PM 23.69 74.642 0.731 8.24 152.4 6.69
7/19/2021 9:45:00 PM 23.65 74.57 0.733 8.23 174.3 6.62
7/19/2021 10:00:00 PM 23.61 74.498 0.735 8.24 245.7 6.6
7/19/2021 10:15:00 PM 23.57 74.426 0.737 8.23 170.5 6.57
7/19/2021 10:30:00 PM 23.53 74.354 0.738 8.23 179.4 6.53
7/19/2021 10:45:00 PM 23.48 74.264 0.739 8.22 153.3 6.5
7/19/2021 11:00:00 PM 23.43 74.174 0.741 8.22 176.7 6.46
7/19/2021 11:15:00 PM 23.38 74.084 0.742 8.21 162.6 6.44
7/19/2021 11:30:00 PM 23.33 73.994 0.743 8.21 165.5 6.42
7/19/2021 11:45:00 PM 23.27 73.886 0.744 8.21 156.5 6.39
7/20/2021 12:00:00 AM 23.21 73.778 0.745 8.21 177.3 6.37
7/20/2021 12:15:00 AM 23.16 73.688 0.745 8.21 171.2 6.35
7/20/2021 12:30:00 AM 23.1 73.58 0.748 8.2 187.5 6.35
7/20/2021 12:45:00 AM 23.04 73.472 0.746 8.2 168.6 6.35
7/20/2021 1:00:00 AM 22.98 73.364 0.748 8.2 171.4 6.34
7/20/2021 1:15:00 AM 22.92 73.256 0.748 8.2 171.9 6.34
7/20/2021 1:30:00 AM 22.86 73.148 0.75 8.2 162 6.34
7/20/2021 1:45:00 AM 22.79 73.022 0.75 8.2 183.1 6.35
7/20/2021 2:00:00 AM 22.73 72.914 0.751 8.2 179.3 6.35
7/20/2021 2:15:00 AM 22.66 72.788 0.751 8.19 178 6.36
7/20/2021 2:30:00 AM 22.61 72.698 0.752 8.2 170.5 6.36
7/20/2021 2:45:00 AM 22.54 72.57201 0.753 8.2 191.5 6.37
7/20/2021 3:00:00 AM 22.48 72.464 0.753 8.19 202.9 6.38
7/20/2021 3:15:00 AM 22.42 72.356 0.754 8.2 177.3 6.39
7/20/2021 3:30:00 AM 22.36 72.248 0.755 8.19 200.1 6.39
7/20/2021 3:45:00 AM 22.3 72.14 0.755 8.19 184.7 6.4
7/20/2021 4:00:00 AM 22.23 72.014 0.755 8.19 191.1 6.43
7/20/2021 4:15:00 AM 22.17 71.906 0.755 8.19 190.6 6.43
7/20/2021 4:30:00 AM 22.11 71.798 0.755 8.19 174.8 6.45
7/20/2021 4:45:00 AM 22.05 71.69 0.756 8.19 180.5 6.46
7/20/2021 5:00:00 AM 21.99 71.582 0.756 8.19 189.8 6.47
7/20/2021 5:15:00 AM 21.93 71.474 0.757 8.19 189.6 6.48
7/20/2021 5:30:00 AM 21.87 71.366 0.757 8.19 205.3 6.51
7/20/2021 5:45:00 AM 21.81 71.258 0.757 8.19 203.2 6.5
7/20/2021 6:00:00 AM 21.75 71.15 0.758 8.19 200.7 6.53
7/20/2021 6:15:00 AM 21.7 71.06 0.758 8.19 212.5 6.54
7/20/2021 6:30:00 AM 21.65 70.97 0.758 8.19 208 6.56
7/20/2021 6:45:00 AM 21.6 70.88 0.758 8.2 229.5 6.58
7/20/2021 7:00:00 AM 21.56 70.808 0.758 8.19 236.6 6.62
7/20/2021 7:15:00 AM 21.52 70.736 0.759 8.2 237.7 6.68
7/20/2021 7:30:00 AM 21.5 70.7 0.759 8.2 246.3 6.71
7/20/2021 7:45:00 AM 21.48 70.664 0.758 8.2 244.8 6.77
7/20/2021 8:00:00 AM 21.46 70.628 0.759 8.21 249.3 6.83
7/20/2021 8:15:00 AM 21.44 70.592 0.76 8.21 242.3 6.88
7/20/2021 8:30:00 AM 21.44 70.592 0.76 8.22 245.4 6.94
7/20/2021 8:45:00 AM 21.44 70.592 0.76 8.23 268.2 7.01
7/20/2021 9:00:00 AM 21.45 70.61 0.76 8.23 251.4 7.06
7/20/2021 9:15:00 AM 21.46 70.628 0.76 8.24 257.8 7.13
7/20/2021 9:30:00 AM 21.49 70.682 0.76 8.24 244.1 7.21
7/20/2021 9:45:00 AM 21.52 70.736 0.76 8.25 259.2 7.31
7/20/2021 10:00:00 AM 21.57 70.826 0.759 8.25 241.7 7.41
7/20/2021 10:15:00 AM 21.64 70.952 0.76 8.26 243.3 7.51
7/20/2021 10:30:00 AM 21.75 71.15 0.76 8.26 263.9 7.62
7/20/2021 10:45:00 AM 21.9 71.42 0.76 8.27 271.5 7.75
7/20/2021 11:00:00 AM 22 71.6 0.76 8.27 276.8 7.86
7/20/2021 11:15:00 AM 22.11 71.798 0.761 8.27 260.6 7.97
7/20/2021 11:30:00 AM 22.21 71.978 0.762 8.27 266.7 8.05
7/20/2021 11:45:00 AM 22.32 72.176 0.762 8.28 275.2 8.13
7/20/2021 12:00:00 PM 22.42 72.356 0.763 8.28 225.5 8.19
7/20/2021 12:15:00 PM 22.55 72.59 0.763 8.29 213 8.28
7/20/2021 12:30:00 PM 22.66 72.788 0.764 8.29 206.9 8.35
7/20/2021 12:45:00 PM 22.78 73.004 0.764 8.3 185.5 8.41
7/20/2021 1:00:00 PM 22.9 73.22 0.765 8.3 188.7 8.48
7/20/2021 1:15:00 PM 23.02 73.436 0.766 8.3 191.4 8.52
7/20/2021 1:30:00 PM 23.1 73.58 0.767 8.31 174.2 8.57
7/20/2021 1:45:00 PM 23.12 73.616 0.768 8.31 200.6 8.53
7/20/2021 2:00:00 PM 23.22 73.796 0.769 8.31 190.4 8.54
7/20/2021 2:15:00 PM 23.32 73.976 0.77 8.32 170.3 8.57
7/20/2021 2:30:00 PM 23.44 74.192 0.771 8.32 198.3 8.59
7/20/2021 2:45:00 PM 23.43 74.174 0.773 8.33 184.4 8.57
7/20/2021 3:00:00 PM 23.5 74.3 0.774 8.33 187.2 8.51
7/20/2021 3:15:00 PM 23.55 74.39 0.775 8.33 196.7 8.5
7/20/2021 3:30:00 PM 23.65 74.57 0.775 8.34 194 8.48
7/20/2021 3:45:00 PM 23.76 74.768 0.778 8.34 206.1 8.47
7/20/2021 4:00:00 PM 23.83 74.894 0.779 8.34 217.2 8.45
7/20/2021 4:15:00 PM 23.87 74.966 0.78 8.34 226 8.43
7/20/2021 4:30:00 PM 23.9 75.02 0.78 8.34 233.1 8.39
7/20/2021 4:45:00 PM 23.91 75.038 0.779 8.35 255.6 8.34
7/20/2021 5:00:00 PM 23.94 75.092 0.78 8.35 274.3 8.3
7/20/2021 5:15:00 PM 23.96 75.128 0.782 8.36 255.5 8.24
7/20/2021 5:30:00 PM 23.97 75.146 0.783 8.36 268.2 8.17
7/20/2021 5:45:00 PM 23.97 75.146 0.784 8.36 241.7 8.08
7/20/2021 6:00:00 PM 23.97 75.146 0.785 8.36 258.7 7.97
7/20/2021 6:15:00 PM 23.98 75.164 0.786 8.36 294.4 7.91
7/20/2021 6:30:00 PM 24 75.2 0.787 8.36 267.8 7.83
7/20/2021 6:45:00 PM 24 75.2 0.788 8.36 256 7.74
7/20/2021 7:00:00 PM 24.01 75.218 0.789 8.36 259.6 7.64
7/20/2021 7:15:00 PM 24.01 75.218 0.79 8.35 252.1 7.56
7/20/2021 7:30:00 PM 24.01 75.218 0.791 8.36 240.9 7.46
7/20/2021 7:45:00 PM 24.01 75.218 0.791 8.35 264.7 7.36
7/20/2021 8:00:00 PM 24 75.2 0.792 8.35 242.6 7.27
7/20/2021 8:15:00 PM 23.99 75.182 0.792 8.34 229.4 7.17
7/20/2021 8:30:00 PM 23.98 75.164 0.793 8.34 248 7.1
7/20/2021 8:45:00 PM 23.97 75.146 0.793 8.34 283.2 7.01
7/20/2021 9:00:00 PM 23.95 75.11 0.793 8.33 279.3 6.94
7/20/2021 9:15:00 PM 23.93 75.074 0.793 8.33 269.4 6.85
7/20/2021 9:30:00 PM 23.92 75.056 0.792 8.32 262.3 6.81
7/20/2021 9:45:00 PM 23.9 75.02 0.793 8.31 278.6 6.75
7/20/2021 10:00:00 PM 23.87 74.966 0.794 8.31 263.3 6.71
7/20/2021 10:15:00 PM 23.84 74.912 0.794 8.3 296.6 6.66
7/20/2021 10:30:00 PM 23.81 74.858 0.795 8.31 284.2 6.62
7/20/2021 10:45:00 PM 23.78 74.804 0.795 8.3 283 6.59
7/20/2021 11:00:00 PM 23.74 74.732 0.795 8.29 299.3 6.55
7/20/2021 11:15:00 PM 23.7 74.66 0.795 8.29 295.6 6.51
7/20/2021 11:30:00 PM 23.67 74.606 0.795 8.29 321.5 6.48
7/20/2021 11:45:00 PM 23.62 74.516 0.795 8.28 335.6 6.46
7/21/2021 12:00:00 AM 23.58 74.444 0.795 8.28 302.8 6.45
7/21/2021 12:15:00 AM 23.54 74.372 0.795 8.27 303.4 6.42
7/21/2021 12:30:00 AM 23.49 74.282 0.794 8.27 304.9 6.39
7/21/2021 12:45:00 AM 23.44 74.192 0.794 8.27 334.3 6.39
7/21/2021 1:00:00 AM 23.4 74.12 0.794 8.26 331.7 6.37
7/21/2021 1:15:00 AM 23.35 74.03 0.793 8.26 330.1 6.36
7/21/2021 1:30:00 AM 23.3 73.94 0.793 8.26 324.3 6.35
7/21/2021 1:45:00 AM 23.26 73.868 0.793 8.26 318.9 6.35
7/21/2021 2:00:00 AM 23.2 73.76 0.792 8.25 305.9 6.36
7/21/2021 2:15:00 AM 23.15 73.67 0.791 8.25 307.9 6.34
7/21/2021 2:30:00 AM 23.09 73.562 0.791 8.24 297.8 6.35
7/21/2021 2:45:00 AM 23.04 73.472 0.79 8.24 324.2 6.35
7/21/2021 3:00:00 AM 22.98 73.364 0.79 8.25 301.1 6.36
7/21/2021 3:15:00 AM 22.93 73.274 0.789 8.24 333.8 6.37
7/21/2021 3:30:00 AM 22.88 73.184 0.789 8.24 323.4 6.36
7/21/2021 3:45:00 AM 22.83 73.094 0.789 8.24 314 6.37
7/21/2021 4:00:00 AM 22.78 73.004 0.789 8.24 308 6.38
7/21/2021 4:15:00 AM 22.73 72.914 0.788 8.24 301.7 6.39
7/21/2021 4:30:00 AM 22.67 72.806 0.788 8.24 334.1 6.41
7/21/2021 4:45:00 AM 22.62 72.716 0.788 8.24 303 6.41
7/21/2021 5:00:00 AM 22.56 72.608 0.788 8.24 310.7 6.42
7/21/2021 5:15:00 AM 22.51 72.518 0.787 8.24 303.9 6.42
7/21/2021 5:30:00 AM 22.46 72.42799 0.787 8.23 309.1 6.42
7/21/2021 5:45:00 AM 22.4 72.32 0.787 8.24 327 6.44
7/21/2021 6:00:00 AM 22.35 72.23 0.786 8.22 322.7 6.45
7/21/2021 6:15:00 AM 22.3 72.14 0.785 8.22 309.4 6.45
7/21/2021 6:30:00 AM 22.26 72.068 0.785 8.22 316.6 6.48
7/21/2021 6:45:00 AM 22.22 71.996 0.785 8.22 341 6.52
7/21/2021 7:00:00 AM 22.18 71.924 0.785 8.22 315.1 6.55
7/21/2021 7:15:00 AM 22.16 71.888 0.785 8.22 349.9 6.61
7/21/2021 7:30:00 AM 22.13 71.834 0.785 8.23 338.6 6.66
7/21/2021 7:45:00 AM 22.11 71.798 0.785 8.24 344.6 6.72
7/21/2021 8:00:00 AM 22.1 71.78 0.786 8.24 332.5 6.78
7/21/2021 8:15:00 AM 22.1 71.78 0.787 8.24 345.8 6.85
7/21/2021 8:30:00 AM 22.1 71.78 0.787 8.26 331.9 6.95
7/21/2021 8:45:00 AM 22.11 71.798 0.787 8.25 357.2 7.04
7/21/2021 9:00:00 AM 22.11 71.798 0.787 8.26 323.4 7.13
7/21/2021 9:15:00 AM 22.14 71.852 0.786 8.27 348.4 7.22
7/21/2021 9:30:00 AM 22.18 71.924 0.787 8.29 345.9 7.33
7/21/2021 9:45:00 AM 22.23 72.014 0.786 8.29 332.7 7.43
7/21/2021 10:00:00 AM 22.23 72.014 0.786 8.29 357.3 7.47
7/21/2021 10:15:00 AM 22.26 72.068 0.786 8.29 333 7.53
7/21/2021 10:30:00 AM 22.36 72.248 0.786 8.3 348.2 7.64
7/21/2021 10:45:00 AM 22.46 72.42799 0.786 8.3 363.7 7.82
7/21/2021 11:00:00 AM 22.5 72.5 0.787 8.3 375.4 7.92
7/21/2021 11:15:00 AM 22.6 72.68 0.786 8.32 376 7.97
7/21/2021 11:30:00 AM 22.72 72.896 0.785 8.32 404.2 8.08
7/21/2021 11:45:00 AM 22.86 73.148 0.785 8.33 400.2 8.22
7/21/2021 12:00:00 PM 23.01 73.418 0.784 8.34 357.9 8.36
7/21/2021 12:15:00 PM 23.1 73.58 0.783 8.36 371.8 8.46
7/21/2021 12:30:00 PM 23.24 73.832 0.782 8.37 385.4 8.54
7/21/2021 12:45:00 PM 23.37 74.066 0.785 8.37 399.4 8.6
7/21/2021 1:00:00 PM 23.5 74.3 0.785 8.39 344.6 8.69
7/21/2021 1:15:00 PM 23.58 74.444 0.784 8.4 385.9 8.73
7/21/2021 1:30:00 PM 23.71 74.67799 0.783 8.4 348 8.77
7/21/2021 1:45:00 PM 23.64 74.552 0.786 8.4 370.3 8.74
7/21/2021 2:00:00 PM 23.76 74.768 0.786 8.4 396.1 8.68
7/21/2021 2:15:00 PM 23.77 74.786 0.788 8.41 367.6 8.66
7/21/2021 2:30:00 PM 23.7 74.66 0.789 8.39 386.8 8.57
7/21/2021 2:45:00 PM 23.64 74.552 0.789 8.42 373.7 8.5
7/21/2021 3:00:00 PM 23.59 74.462 0.79 8.44 391.9 8.43
7/21/2021 3:15:00 PM 23.67 74.606 0.79 8.43 368.2 8.4
7/21/2021 3:30:00 PM 23.69 74.642 0.79 8.43 383.5 8.46
7/21/2021 3:45:00 PM 23.72 74.696 0.791 8.43 365.3 8.43
7/21/2021 4:00:00 PM 23.83 74.894 0.792 8.43 383.3 8.44
7/21/2021 4:15:00 PM 23.89 75.002 0.793 8.44 374.5 8.43
7/21/2021 4:30:00 PM 23.91 75.038 0.795 8.43 386.9 8.37
7/21/2021 4:45:00 PM 23.89 75.002 0.796 8.44 395.5 8.31
7/21/2021 5:00:00 PM 23.87 74.966 0.797 8.44 392.9 8.24
7/21/2021 5:15:00 PM 23.86 74.948 0.799 8.43 407.2 8.15
7/21/2021 5:30:00 PM 23.86 74.948 0.798 8.45 389.3 8.08
7/21/2021 5:45:00 PM 23.84 74.912 0.8 8.45 371.1 8
7/21/2021 6:00:00 PM 23.82 74.876 0.801 8.46 372.4 7.92
7/21/2021 6:15:00 PM 23.57 74.426 0.778 8.46 369.2 7.76
7/21/2021 6:30:00 PM 23.53 74.354 0.773 8.47 383.5 7.46
7/21/2021 6:45:00 PM 23.57 74.426 0.776 8.46 367.5 7.35
7/21/2021 7:00:00 PM 23.61 74.498 0.782 8.44 396.3 7.33
7/21/2021 7:15:00 PM 23.57 74.426 0.779 8.44 329.8 7.29
7/21/2021 7:30:00 PM 23.55 74.39 0.783 8.43 366.3 7.2
7/21/2021 7:45:00 PM 23.52 74.336 0.784 8.42 410.8 7.13
7/21/2021 8:00:00 PM 23.48 74.264 0.781 8.43 358.8 7.05
7/21/2021 8:15:00 PM 23.45 74.21 0.778 8.42 403.6 6.99
7/21/2021 8:30:00 PM 23.42 74.156 0.779 8.42 345 6.95
7/21/2021 8:45:00 PM 23.41 74.138 0.782 8.41 464.1 6.91
7/21/2021 9:00:00 PM 23.38 74.084 0.785 8.41 402.3 6.88
7/21/2021 9:15:00 PM 23.34 74.012 0.786 8.41 454.9 6.82
7/21/2021 9:30:00 PM 23.28 73.904 0.784 8.4 368.1 6.81
7/21/2021 9:45:00 PM 23.19 73.742 0.777 8.39 346.8 6.73
7/21/2021 10:00:00 PM 23.08 73.544 0.767 8.37 417.1 6.61
7/21/2021 10:15:00 PM 22.95 73.31 0.749 8.36 371.5 6.44
7/21/2021 10:30:00 PM 22.82 73.076 0.726 8.34 403.6 6.32
7/21/2021 10:45:00 PM 22.7 72.86 0.701 8.31 484.2 6.18
7/21/2021 11:00:00 PM 22.59 72.662 0.678 8.29 535.2 6.03
7/21/2021 11:15:00 PM 22.51 72.518 0.661 8.27 494.7 5.92
7/21/2021 11:30:00 PM 22.44 72.392 0.648 8.25 484.1 5.85
7/21/2021 11:45:00 PM 22.38 72.284 0.64 8.24 532.4 5.87
7/22/2021 12:00:00 AM 22.33 72.194 0.637 8.23 650 5.85
7/22/2021 12:15:00 AM 22.29 72.122 0.638 8.21 734.7 5.87
7/22/2021 12:30:00 AM 22.25 72.05 0.641 8.21 446.8 5.89
7/22/2021 12:45:00 AM 22.21 71.978 0.648 8.21 560.3 5.93
7/22/2021 1:00:00 AM 22.17 71.906 0.655 8.21 626.5 5.97
7/22/2021 1:15:00 AM 22.12 71.816 0.662 8.21 530.6 6.03
7/22/2021 1:30:00 AM 22.07 71.726 0.669 8.2 717.2 6.08
7/22/2021 1:45:00 AM 22.02 71.636 0.675 8.2 792.7 6.1
7/22/2021 2:00:00 AM 21.96 71.528 0.681 8.2 676.3 6.13
7/22/2021 2:15:00 AM 21.9 71.42 0.686 8.2 775.3 6.16
7/22/2021 2:30:00 AM 21.84 71.312 0.691 8.2 627.7 6.16
7/22/2021 2:45:00 AM 21.78 71.204 0.694 8.19 651.2 6.19
7/22/2021 3:00:00 AM 21.72 71.096 0.697 8.19 657.7 6.21
7/22/2021 3:15:00 AM 21.66 70.988 0.7 8.19 730.9 6.25
7/22/2021 3:30:00 AM 21.6 70.88 0.704 8.19 673.1 6.24
7/22/2021 3:45:00 AM 21.54 70.772 0.707 8.18 738.7 6.25
7/22/2021 4:00:00 AM 21.48 70.664 0.711 8.18 594.2 6.29
7/22/2021 4:15:00 AM 21.42 70.556 0.715 8.19 637.1 6.34
7/22/2021 4:30:00 AM 21.36 70.448 0.719 8.18 694.3 6.35
7/22/2021 4:45:00 AM 21.29 70.32201 0.723 8.19 554.1 6.41
7/22/2021 5:00:00 AM 21.23 70.214 0.727 8.18 681 6.42
7/22/2021 5:15:00 AM 21.16 70.088 0.73 8.18 677.8 6.46
7/22/2021 5:30:00 AM 21.09 69.962 0.733 8.17 790.7 6.5
7/22/2021 5:45:00 AM 21.02 69.836 0.736 8.17 1020 6.52
7/22/2021 6:00:00 AM 20.96 69.728 0.738 8.18 530.8 6.56
7/22/2021 6:15:00 AM 20.89 69.602 0.741 8.18 779.1 6.57
7/22/2021 6:30:00 AM 20.83 69.494 0.744 8.17 626.5 6.6
7/22/2021 6:45:00 AM 20.77 69.386 0.747 8.18 836.3 6.64
7/22/2021 7:00:00 AM 20.72 69.296 0.749 8.19 750.8 6.68
7/22/2021 7:15:00 AM 20.67 69.206 0.752 8.19 620.2 6.7
7/22/2021 7:30:00 AM 20.64 69.152 0.756 8.21 666.4 6.79
7/22/2021 7:45:00 AM 20.61 69.098 0.759 8.22 695.5 6.85
7/22/2021 8:00:00 AM 20.58 69.044 0.762 8.23 909.4 6.88
7/22/2021 8:15:00 AM 20.56 69.008 0.766 8.25 626 6.97
7/22/2021 8:30:00 AM 20.55 68.99 0.77 8.27 678.1 7.01
7/22/2021 8:45:00 AM 20.55 68.99 0.773 8.28 944.4 7.1
7/22/2021 9:00:00 AM 20.55 68.99 0.777 8.32 972.3 7.15
7/22/2021 9:15:00 AM 20.56 69.008 0.78 8.34 784.6 7.24
7/22/2021 9:30:00 AM 20.59 69.062 0.782 8.36 1683 7.34
7/22/2021 9:45:00 AM 20.62 69.116 0.785 8.39 1005 7.45
7/22/2021 10:00:00 AM 20.65 69.17 0.786 8.41 770 7.53
7/22/2021 10:15:00 AM 20.72 69.296 0.788 8.43 890.1 7.63
7/22/2021 10:30:00 AM 20.83 69.494 0.789 8.43 1264 7.81
7/22/2021 10:45:00 AM 20.96 69.728 0.789 8.44 630.2 7.95
7/22/2021 11:00:00 AM 21.1 69.98 0.79 8.44 933.4 8.04
7/22/2021 11:15:00 AM 21.14 70.052 0.791 8.44 744.3 8.15
7/22/2021 11:30:00 AM 21.25 70.25 0.791 8.44 872.8 8.22
7/22/2021 11:45:00 AM 21.34 70.412 0.792 8.43 773.7 8.29
7/22/2021 12:00:00 PM 21.48 70.664 0.793 8.44 680.6 8.35
7/22/2021 12:15:00 PM 21.64 70.952 0.794 8.45 799.3 8.47
7/22/2021 12:30:00 PM 21.77 71.186 0.795 8.44 727 8.57
7/22/2021 12:45:00 PM 21.83 71.294 0.798 8.45 805.4 8.65
7/22/2021 1:00:00 PM 21.97 71.546 0.8 8.45 974.2 8.72
7/22/2021 1:15:00 PM 22.06 71.708 0.802 8.46 1004 8.77
7/22/2021 1:30:00 PM 22.11 71.798 0.805 8.46 2046 8.83
7/22/2021 1:45:00 PM 22.23 72.014 0.808 8.46 1411 8.87
7/22/2021 2:00:00 PM 22.34 72.212 0.811 8.46 1369 8.88
7/22/2021 2:15:00 PM 22.39 72.302 0.814 8.46 1536 8.89
7/22/2021 2:30:00 PM 22.52 72.536 0.817 8.46 1926 8.91
7/22/2021 2:45:00 PM 22.5 72.5 0.82 8.47 1678 8.86
7/22/2021 3:00:00 PM 22.65 72.77 0.823 8.48 1263 8.9
7/22/2021 3:15:00 PM 22.77 72.986 0.826 8.47 1280 8.93
7/22/2021 3:30:00 PM 22.85 73.13 0.828 8.48 1468 8.95
7/22/2021 3:45:00 PM 22.88 73.184 0.831 8.48 1606 8.88
7/22/2021 4:00:00 PM 22.93 73.274 0.833 8.47 1442 8.85
7/22/2021 4:15:00 PM 22.92 73.256 0.835 8.48 1342 8.8
7/22/2021 4:30:00 PM 22.85 73.13 0.837 8.49 1305 8.69
7/22/2021 4:45:00 PM 22.92 73.256 0.838 8.49 1424 8.65
7/22/2021 5:00:00 PM 22.89 73.202 0.84 8.49 1453 8.57
7/22/2021 5:15:00 PM 22.85 73.13 0.842 8.5 1497 8.45
7/22/2021 5:30:00 PM 22.83 73.094 0.844 8.5 1600 8.34
7/22/2021 5:45:00 PM 22.87 73.166 0.845 8.5 1565 8.3
7/22/2021 6:00:00 PM 22.86 73.148 0.846 8.51 1499 8.28
7/22/2021 6:15:00 PM 22.81 73.058 0.847 8.5 1717 8.18
7/22/2021 6:30:00 PM 22.77 72.986 0.848 8.51 1738 8
7/22/2021 6:45:00 PM 22.77 72.986 0.849 8.5 1644 7.92
7/22/2021 7:00:00 PM 22.75 72.95 0.85 8.5 1856 7.89
7/22/2021 7:15:00 PM 22.72 72.896 0.851 8.49 2068 7.77
7/22/2021 7:30:00 PM 22.68 72.824 0.851 8.5 1884 7.6
7/22/2021 7:45:00 PM 22.66 72.788 0.844 8.5 1759 7.52
7/22/2021 8:00:00 PM 22.64 72.752 0.852 8.5 1885 7.42
7/22/2021 8:15:00 PM 22.61 72.698 0.852 8.49 1881 7.36
7/22/2021 8:30:00 PM 22.58 72.644 0.852 8.49 1798 7.29
7/22/2021 8:45:00 PM 22.53 72.554 0.852 8.48 1990 7.22
7/22/2021 9:00:00 PM 22.49 72.482 0.852 8.48 1443 7.17
7/22/2021 9:15:00 PM 22.44 72.392 0.853 8.47 1234 7.09
7/22/2021 9:30:00 PM 22.39 72.302 0.853 8.46 1100 7.02
7/22/2021 9:45:00 PM 22.34 72.212 0.853 8.45 1353 6.96
7/22/2021 10:00:00 PM 22.27 72.086 0.853 8.44 1371 6.92
7/22/2021 10:15:00 PM 22.21 71.978 0.853 8.43 1596 6.88
7/22/2021 10:30:00 PM 22.15 71.87 0.853 8.42 1487 6.87
7/22/2021 10:45:00 PM 22.08 71.744 0.853 8.41 1379 6.83
7/22/2021 11:00:00 PM 22.02 71.636 0.853 8.4 1635 6.82
7/22/2021 11:15:00 PM 21.96 71.528 0.852 8.41 534.5 6.76
7/22/2021 11:30:00 PM 21.89 71.402 0.852 8.39 492.1 6.79
7/22/2021 11:45:00 PM 21.82 71.276 0.852 8.38 511.2 6.8
7/23/2021 12:00:00 AM 21.75 71.15 0.852 8.38 586.8 6.77
7/23/2021 12:15:00 AM 21.68 71.024 0.851 8.37 516.2 6.74
7/23/2021 12:30:00 AM 21.61 70.898 0.851 8.36 529.3 6.74
7/23/2021 12:45:00 AM 21.53 70.754 0.859 8.37 547.4 6.72
7/23/2021 1:00:00 AM 21.46 70.628 0.859 8.37 549.2 6.75
7/23/2021 1:15:00 AM 21.38 70.484 0.859 8.35 482.9 6.74
7/23/2021 1:30:00 AM 21.31 70.358 0.859 8.35 474.9 6.76
7/23/2021 1:45:00 AM 21.24 70.232 0.858 8.35 515 6.77
7/23/2021 2:00:00 AM 21.16 70.088 0.858 8.35 449.1 6.75
7/23/2021 2:15:00 AM 21.09 69.962 0.858 8.34 537.5 6.76
7/23/2021 2:30:00 AM 21.02 69.836 0.857 8.35 473.6 6.75
7/23/2021 2:45:00 AM 20.95 69.71 0.856 8.35 507.3 6.8
7/23/2021 3:00:00 AM 20.89 69.602 0.856 8.35 395.5 6.75
7/23/2021 3:15:00 AM 20.82 69.476 0.856 8.34 528.2 6.79
7/23/2021 3:30:00 AM 20.76 69.368 0.855 8.34 434.3 6.83
7/23/2021 3:45:00 AM 20.69 69.242 0.856 8.34 430.8 6.85
7/23/2021 4:00:00 AM 20.63 69.134 0.855 8.35 473.2 6.88
7/23/2021 4:15:00 AM 20.56 69.008 0.855 8.34 377.8 6.85
7/23/2021 4:30:00 AM 20.5 68.9 0.855 8.35 460.9 6.87
7/23/2021 4:45:00 AM 20.44 68.792 0.855 8.35 563.2 6.89
7/23/2021 5:00:00 AM 20.37 68.666 0.854 8.35 531 6.92
7/23/2021 5:15:00 AM 20.32 68.576 0.854 8.35 416 6.91
7/23/2021 5:30:00 AM 20.26 68.468 0.854 8.34 461.8 6.89
7/23/2021 5:45:00 AM 20.21 68.378 0.854 8.34 475.2 6.95
7/23/2021 6:00:00 AM 20.15 68.27 0.854 8.35 570.8 6.94
7/23/2021 6:15:00 AM 20.1 68.18 0.853 8.35 431.1 6.99
7/23/2021 6:30:00 AM 20.06 68.108 0.853 8.34 399.2 6.98
7/23/2021 6:45:00 AM 20.02 68.036 0.853 8.36 478.5 7.03
7/23/2021 7:00:00 AM 19.97 67.946 0.853 8.37 561.5 7.09
7/23/2021 7:15:00 AM 19.94 67.892 0.853 8.36 425 7.13
7/23/2021 7:30:00 AM 19.91 67.838 0.853 8.38 507.5 7.17
7/23/2021 7:45:00 AM 19.87 67.766 0.853 8.4 551.2 7.21
7/23/2021 8:00:00 AM 19.85 67.73 0.853 8.41 635.4 7.25
7/23/2021 8:15:00 AM 19.84 67.712 0.853 8.43 531.5 7.34
7/23/2021 8:30:00 AM 19.84 67.712 0.853 8.45 349.4 7.45
7/23/2021 8:45:00 AM 19.84 67.712 0.854 8.47 478.8 7.52
7/23/2021 9:00:00 AM 19.84 67.712 0.853 8.5 626.7 7.57
7/23/2021 9:15:00 AM 19.88 67.784 0.853 8.52 489.3 7.68
7/23/2021 9:30:00 AM 19.89 67.802 0.853 8.56 467.2 7.71
7/23/2021 9:45:00 AM 19.9 67.82 0.852 8.59 696.2 7.79
7/23/2021 10:00:00 AM 19.94 67.892 0.852 8.6 536.3